PWSweather.com
Personal Weather Stations
Station Observations
HVALPSUND
Hvalpsund, FarsoeDK 9640

HvalpsundFarsoeDK 9640

Lat: 56.705311, Lon: 9.203638

Elevation: 5

Station Type: Vantage Pro2

http://hvalpsundvejr.dk

High Low Average
Temperature 60.6°F15.9°C 44.7°F7.1°C 53.0°F11.7°C
Dew Point 48.9°F9.4°C 39.6°F4.2°C 44.1°F6.7°C
Winds 13.0 mph 20.9 kmh Calm Calm 6.0 mph SW9.7 kmh SW
Wind Gusts 14.0 mph22.5 kmh -- 8.0 mph12.9 kmh
Humidity 85% 56% 72%
Pressure 30.36 in1028.1 mb 30.29 in1025.7 mb -
Precipitation 0.00 in0.0 mm - -
Hour Temp Dew Point Humidity Winds Wind Gusts Pressure Precip Precip Rate Daily Precip Total
12:00 AM 47.0°F8.3°C 39.8°F4.3°C 76% 4.7 mph SSW7.6 kmh SSW 8.0 mph12.9 kmh 30.30 in1026.1 mb 0.00 in0.0 mm 0.00 in0.0 mm 0.00 in0.0 mm
12:01 AM 47.0°F8.3°C 40.2°F4.6°C 77% 5.4 mph SSW8.7 kmh SSW 8.0 mph12.9 kmh 30.30 in1026.1 mb 0.00 in0.0 mm 0.00 in0.0 mm 0.00 in0.0 mm
12:02 AM 46.9°F8.3°C 40.1°F4.5°C 77% 5.6 mph SSW9.0 kmh SSW 7.0 mph11.3 kmh 30.30 in1026.1 mb 0.00 in0.0 mm 0.00 in0.0 mm 0.00 in0.0 mm
12:03 AM 46.9°F8.3°C 40.1°F4.5°C 77% 5.0 mph SSW8.0 kmh SSW 6.0 mph9.7 kmh 30.30 in1026.1 mb 0.00 in0.0 mm 0.00 in0.0 mm 0.00 in0.0 mm
12:04 AM 47.0°F8.3°C 40.2°F4.6°C 77% 7.0 mph SSW11.3 kmh SSW 9.0 mph14.5 kmh 30.30 in1026.1 mb 0.00 in0.0 mm 0.00 in0.0 mm 0.00 in0.0 mm
12:05 AM 47.0°F8.3°C 40.2°F4.6°C 77% 6.8 mph SSW10.9 kmh SSW 8.0 mph12.9 kmh 30.30 in1026.1 mb 0.00 in0.0 mm 0.00 in0.0 mm 0.00 in0.0 mm
12:06 AM 47.1°F8.4°C 39.9°F4.4°C 76% 7.0 mph SSW11.3 kmh SSW 9.0 mph14.5 kmh 30.30 in1026.1 mb 0.00 in0.0 mm 0.00 in0.0 mm 0.00 in0.0 mm
12:07 AM 47.2°F8.4°C 40.0°F4.4°C 76% 7.0 mph SSW11.3 kmh SSW 8.0 mph12.9 kmh 30.30 in1026.1 mb 0.00 in0.0 mm 0.00 in0.0 mm 0.00 in0.0 mm
12:08 AM 47.2°F8.4°C 40.0°F4.4°C 76% 7.5 mph SW12.1 kmh SW 9.0 mph14.5 kmh 30.30 in1026.1 mb 0.00 in0.0 mm 0.00 in0.0 mm 0.00 in0.0 mm
12:09 AM 47.3°F8.5°C 40.1°F4.5°C 76% 9.0 mph SW14.5 kmh SW 10.0 mph16.1 kmh 30.30 in1026.1 mb 0.00 in0.0 mm 0.00 in0.0 mm 0.00 in0.0 mm
12:10 AM 47.3°F8.5°C 40.1°F4.5°C 76% 7.0 mph SSW11.3 kmh SSW 10.0 mph16.1 kmh 30.30 in1026.1 mb 0.00 in0.0 mm 0.00 in0.0 mm 0.00 in0.0 mm
12:11 AM 47.5°F8.6°C 40.3°F4.6°C 76% 6.8 mph SSW10.9 kmh SSW 8.0 mph12.9 kmh 30.30 in1026.1 mb 0.00 in0.0 mm 0.00 in0.0 mm 0.00 in0.0 mm
12:12 AM 47.4°F8.6°C 40.2°F4.6°C 76% 7.0 mph SSW11.3 kmh SSW 8.0 mph12.9 kmh 30.30 in1026.1 mb 0.00 in0.0 mm 0.00 in0.0 mm 0.00 in0.0 mm
12:13 AM 47.5°F8.6°C 40.0°F4.4°C 75% 6.0 mph SSW9.7 kmh SSW 9.0 mph14.5 kmh 30.30 in1026.1 mb 0.00 in0.0 mm 0.00 in0.0 mm 0.00 in0.0 mm
12:14 AM 47.5°F8.6°C 40.0°F4.4°C 75% 6.0 mph SSW9.7 kmh SSW 8.0 mph12.9 kmh 30.30 in1026.1 mb 0.00 in0.0 mm 0.00 in0.0 mm 0.00 in0.0 mm
12:15 AM 47.5°F8.6°C 40.0°F4.4°C 75% 5.0 mph SSW8.0 kmh SSW 7.0 mph11.3 kmh 30.30 in1026.1 mb 0.00 in0.0 mm 0.00 in0.0 mm 0.00 in0.0 mm
12:16 AM 47.5°F8.6°C 40.0°F4.4°C 75% 7.7 mph SSW12.4 kmh SSW 9.0 mph14.5 kmh 30.30 in1026.1 mb 0.00 in0.0 mm 0.00 in0.0 mm 0.00 in0.0 mm
12:17 AM 47.5°F8.6°C 40.0°F4.4°C 75% 7.0 mph SSW11.3 kmh SSW 10.0 mph16.1 kmh 30.30 in1026.1 mb 0.00 in0.0 mm 0.00 in0.0 mm 0.00 in0.0 mm
12:18 AM 47.6°F8.7°C 40.1°F4.5°C 75% 6.0 mph SSW9.7 kmh SSW 8.0 mph12.9 kmh 30.30 in1026.1 mb 0.00 in0.0 mm 0.00 in0.0 mm 0.00 in0.0 mm
12:19 AM 47.6°F8.7°C 40.1°F4.5°C 75% 6.0 mph SSW9.7 kmh SSW 8.0 mph12.9 kmh 30.30 in1026.1 mb 0.00 in0.0 mm 0.00 in0.0 mm 0.00 in0.0 mm
12:20 AM 47.6°F8.7°C 40.1°F4.5°C 75% 5.3 mph SSW8.5 kmh SSW 7.0 mph11.3 kmh 30.30 in1026.1 mb 0.00 in0.0 mm 0.00 in0.0 mm 0.00 in0.0 mm
12:21 AM 47.5°F8.6°C 40.0°F4.4°C 75% 4.7 mph SW7.6 kmh SW 7.0 mph11.3 kmh 30.30 in1026.1 mb 0.00 in0.0 mm 0.00 in0.0 mm 0.00 in0.0 mm
12:22 AM 47.5°F8.6°C 40.0°F4.4°C 75% 6.0 mph SSW9.7 kmh SSW 8.0 mph12.9 kmh 30.30 in1026.1 mb 0.00 in0.0 mm 0.00 in0.0 mm 0.00 in0.0 mm
12:23 AM 47.6°F8.7°C 40.1°F4.5°C 75% 5.0 mph SSW8.0 kmh SSW 7.0 mph11.3 kmh 30.30 in1026.1 mb 0.00 in0.0 mm 0.00 in0.0 mm 0.00 in0.0 mm
12:24 AM 47.6°F8.7°C 40.1°F4.5°C 75% 5.5 mph SW8.9 kmh SW 6.0 mph9.7 kmh 30.30 in1026.1 mb 0.00 in0.0 mm 0.00 in0.0 mm 0.00 in0.0 mm
12:25 AM 47.6°F8.7°C 40.1°F4.5°C 75% 5.2 mph SW8.4 kmh SW 6.0 mph9.7 kmh 30.30 in1026.1 mb 0.00 in0.0 mm 0.00 in0.0 mm 0.00 in0.0 mm
12:26 AM 47.5°F8.6°C 40.0°F4.4°C 75% 5.5 mph SSW8.9 kmh SSW 8.0 mph12.9 kmh 30.30 in1026.1 mb 0.00 in0.0 mm 0.00 in0.0 mm 0.00 in0.0 mm
12:27 AM 47.5°F8.6°C 40.0°F4.4°C 75% 5.0 mph SW8.0 kmh SW 8.0 mph12.9 kmh 30.30 in1026.1 mb 0.00 in0.0 mm 0.00 in0.0 mm 0.00 in0.0 mm
12:28 AM 47.5°F8.6°C 40.0°F4.4°C 75% 5.0 mph SSW8.0 kmh SSW 7.0 mph11.3 kmh 30.30 in1026.1 mb 0.00 in0.0 mm 0.00 in0.0 mm 0.00 in0.0 mm
12:29 AM 47.5°F8.6°C 40.0°F4.4°C 75% 4.0 mph SSW6.4 kmh SSW 5.0 mph8.0 kmh 30.30 in1026.1 mb 0.00 in0.0 mm 0.00 in0.0 mm 0.00 in0.0 mm
12:30 AM 47.4°F8.6°C 39.9°F4.4°C 75% 5.1 mph SSW8.2 kmh SSW 6.0 mph9.7 kmh 30.30 in1026.1 mb 0.00 in0.0 mm 0.00 in0.0 mm 0.00 in0.0 mm
12:31 AM 47.4°F8.6°C 39.9°F4.4°C 75% 5.3 mph SW8.5 kmh SW 7.0 mph11.3 kmh 30.30 in1026.1 mb 0.00 in0.0 mm 0.00 in0.0 mm 0.00 in0.0 mm
12:32 AM 47.4°F8.6°C 40.2°F4.6°C 76% 5.0 mph SSW8.0 kmh SSW 6.0 mph9.7 kmh 30.30 in1026.1 mb 0.00 in0.0 mm 0.00 in0.0 mm 0.00 in0.0 mm
12:33 AM 47.4°F8.6°C 40.2°F4.6°C 76% 4.0 mph SSW6.4 kmh SSW 6.0 mph9.7 kmh 30.30 in1026.1 mb 0.00 in0.0 mm 0.00 in0.0 mm 0.00 in0.0 mm
12:34 AM 47.4°F8.6°C 40.2°F4.6°C 76% 5.4 mph SSW8.7 kmh SSW 6.0 mph9.7 kmh 30.30 in1026.1 mb 0.00 in0.0 mm 0.00 in0.0 mm 0.00 in0.0 mm
12:35 AM 47.3°F8.5°C 40.1°F4.5°C 76% 5.7 mph SSW9.2 kmh SSW 7.0 mph11.3 kmh 30.30 in1026.1 mb 0.00 in0.0 mm 0.00 in0.0 mm 0.00 in0.0 mm
12:36 AM 47.3°F8.5°C 40.1°F4.5°C 76% 5.0 mph SSW8.0 kmh SSW 6.0 mph9.7 kmh 30.30 in1026.1 mb 0.00 in0.0 mm 0.00 in0.0 mm 0.00 in0.0 mm
12:37 AM 47.3°F8.5°C 40.1°F4.5°C 76% 5.0 mph SSW8.0 kmh SSW 7.0 mph11.3 kmh 30.30 in1026.1 mb 0.00 in0.0 mm 0.00 in0.0 mm 0.00 in0.0 mm
12:38 AM 47.4°F8.6°C 40.2°F4.6°C 76% 5.0 mph SSW8.0 kmh SSW 6.0 mph9.7 kmh 30.30 in1026.1 mb 0.00 in0.0 mm 0.00 in0.0 mm 0.00 in0.0 mm
12:39 AM 47.3°F8.5°C 40.1°F4.5°C 76% 4.0 mph SW6.4 kmh SW 5.0 mph8.0 kmh 30.30 in1026.1 mb 0.00 in0.0 mm 0.00 in0.0 mm 0.00 in0.0 mm
12:40 AM 47.3°F8.5°C 40.1°F4.5°C 76% 4.0 mph SW6.4 kmh SW 5.0 mph8.0 kmh 30.30 in1026.1 mb 0.00 in0.0 mm 0.00 in0.0 mm 0.00 in0.0 mm
12:41 AM 47.3°F8.5°C 40.1°F4.5°C 76% 4.0 mph SW6.4 kmh SW 6.0 mph9.7 kmh 30.30 in1026.1 mb 0.00 in0.0 mm 0.00 in0.0 mm 0.00 in0.0 mm
12:42 AM 47.3°F8.5°C 40.1°F4.5°C 76% 4.0 mph SW6.4 kmh SW 6.0 mph9.7 kmh 30.30 in1026.1 mb 0.00 in0.0 mm 0.00 in0.0 mm 0.00 in0.0 mm
12:43 AM 47.3°F8.5°C 40.1°F4.5°C 76% 4.0 mph SW6.4 kmh SW 6.0 mph9.7 kmh 30.30 in1026.1 mb 0.00 in0.0 mm 0.00 in0.0 mm 0.00 in0.0 mm
12:44 AM 47.2°F8.4°C 40.4°F4.7°C 77% 4.0 mph SW6.4 kmh SW 6.0 mph9.7 kmh 30.30 in1026.1 mb 0.00 in0.0 mm 0.00 in0.0 mm 0.00 in0.0 mm
12:45 AM 47.2°F8.4°C 40.0°F4.4°C 76% 5.8 mph SW9.3 kmh SW 7.0 mph11.3 kmh 30.30 in1026.1 mb 0.00 in0.0 mm 0.00 in0.0 mm 0.00 in0.0 mm
12:46 AM 47.2°F8.4°C 40.4°F4.7°C 77% 6.0 mph SSW9.7 kmh SSW 6.0 mph9.7 kmh 30.30 in1026.1 mb 0.00 in0.0 mm 0.00 in0.0 mm 0.00 in0.0 mm
12:47 AM 47.2°F8.4°C 40.0°F4.4°C 76% 5.0 mph SSW8.0 kmh SSW 6.0 mph9.7 kmh 30.30 in1026.1 mb 0.00 in0.0 mm 0.00 in0.0 mm 0.00 in0.0 mm
12:48 AM 47.1°F8.4°C 39.9°F4.4°C 76% 7.1 mph SW11.4 kmh SW 8.0 mph12.9 kmh 30.30 in1026.1 mb 0.00 in0.0 mm 0.00 in0.0 mm 0.00 in0.0 mm
12:49 AM 47.1°F8.4°C 40.3°F4.6°C 77% 4.3 mph SW6.9 kmh SW 8.0 mph12.9 kmh 30.30 in1026.1 mb 0.00 in0.0 mm 0.00 in0.0 mm 0.00 in0.0 mm
12:50 AM 47.1°F8.4°C 40.3°F4.6°C 77% 4.7 mph SW7.6 kmh SW 6.0 mph9.7 kmh 30.30 in1026.1 mb 0.00 in0.0 mm 0.00 in0.0 mm 0.00 in0.0 mm
12:51 AM 47.1°F8.4°C 40.3°F4.6°C 77% 5.0 mph SSW8.0 kmh SSW 6.0 mph9.7 kmh 30.30 in1026.1 mb 0.00 in0.0 mm 0.00 in0.0 mm 0.00 in0.0 mm
12:52 AM 47.1°F8.4°C 40.3°F4.6°C 77% 4.0 mph SSW6.4 kmh SSW 4.0 mph6.4 kmh 30.30 in1026.1 mb 0.00 in0.0 mm 0.00 in0.0 mm 0.00 in0.0 mm
12:53 AM 47.1°F8.4°C 40.3°F4.6°C 77% 1.8 mph SSW2.9 kmh SSW 3.0 mph4.8 kmh 30.30 in1026.1 mb 0.00 in0.0 mm 0.00 in0.0 mm 0.00 in0.0 mm
12:54 AM 47.1°F8.4°C 40.3°F4.6°C 77% 3.4 mph SSW5.5 kmh SSW 5.0 mph8.0 kmh 30.30 in1026.1 mb 0.00 in0.0 mm 0.00 in0.0 mm 0.00 in0.0 mm
12:55 AM 47.1°F8.4°C 40.3°F4.6°C 77% 3.0 mph SSW4.8 kmh SSW 5.0 mph8.0 kmh 30.30 in1026.1 mb 0.00 in0.0 mm 0.00 in0.0 mm 0.00 in0.0 mm
12:56 AM 47.1°F8.4°C 40.3°F4.6°C 77% 3.0 mph SSW4.8 kmh SSW 6.0 mph9.7 kmh 30.30 in1026.1 mb 0.00 in0.0 mm 0.00 in0.0 mm 0.00 in0.0 mm
12:57 AM 47.0°F8.3°C 40.2°F4.6°C 77% 2.9 mph SSW4.7 kmh SSW 4.0 mph6.4 kmh 30.30 in1026.1 mb 0.00 in0.0 mm 0.00 in0.0 mm 0.00 in0.0 mm
12:58 AM 47.0°F8.3°C 40.2°F4.6°C 77% 4.0 mph SSW6.4 kmh SSW 6.0 mph9.7 kmh 30.30 in1026.1 mb 0.00 in0.0 mm 0.00 in0.0 mm 0.00 in0.0 mm
12:59 AM 46.9°F8.3°C 40.1°F4.5°C 77% 4.0 mph SSW6.4 kmh SSW 7.0 mph11.3 kmh 30.30 in1026.1 mb 0.00 in0.0 mm 0.00 in0.0 mm 0.00 in0.0 mm
01:00 AM 46.9°F8.3°C 40.1°F4.5°C 77% 3.0 mph SSW4.8 kmh SSW 3.0 mph4.8 kmh 30.30 in1026.1 mb 0.00 in0.0 mm 0.00 in0.0 mm 0.00 in0.0 mm
01:01 AM 46.8°F8.2°C 40.0°F4.4°C 77% 3.0 mph SSW4.8 kmh SSW 3.0 mph4.8 kmh 30.30 in1026.1 mb 0.00 in0.0 mm 0.00 in0.0 mm 0.00 in0.0 mm
01:02 AM 46.7°F8.2°C 39.9°F4.4°C 77% 3.0 mph SSW4.8 kmh SSW 5.0 mph8.0 kmh 30.30 in1026.1 mb 0.00 in0.0 mm 0.00 in0.0 mm 0.00 in0.0 mm
01:03 AM 46.6°F8.1°C 39.8°F4.3°C 77% 3.0 mph S4.8 kmh S 4.0 mph6.4 kmh 30.30 in1026.1 mb 0.00 in0.0 mm 0.00 in0.0 mm 0.00 in0.0 mm
01:04 AM 46.5°F8.1°C 39.7°F4.3°C 77% 3.0 mph SSW4.8 kmh SSW 4.0 mph6.4 kmh 30.30 in1026.1 mb 0.00 in0.0 mm 0.00 in0.0 mm 0.00 in0.0 mm
01:05 AM 46.5°F8.1°C 40.0°F4.4°C 78% 2.0 mph SSW3.2 kmh SSW 3.0 mph4.8 kmh 30.30 in1026.1 mb 0.00 in0.0 mm 0.00 in0.0 mm 0.00 in0.0 mm
01:06 AM 46.4°F8.0°C 39.9°F4.4°C 78% 2.6 mph S4.2 kmh S 4.0 mph6.4 kmh 30.30 in1026.1 mb 0.00 in0.0 mm 0.00 in0.0 mm 0.00 in0.0 mm
01:07 AM 46.3°F7.9°C 39.8°F4.3°C 78% 2.9 mph S4.7 kmh S 4.0 mph6.4 kmh 30.30 in1026.1 mb 0.00 in0.0 mm 0.00 in0.0 mm 0.00 in0.0 mm
01:08 AM 46.2°F7.9°C 39.7°F4.3°C 78% 2.7 mph S4.3 kmh S 4.0 mph6.4 kmh 30.30 in1026.1 mb 0.00 in0.0 mm 0.00 in0.0 mm 0.00 in0.0 mm
01:09 AM 46.1°F7.8°C 39.6°F4.2°C 78% 3.0 mph SSW4.8 kmh SSW 3.0 mph4.8 kmh 30.30 in1026.1 mb 0.00 in0.0 mm 0.00 in0.0 mm 0.00 in0.0 mm
01:10 AM 46.1°F7.8°C 39.6°F4.2°C 78% 3.0 mph SSW4.8 kmh SSW 3.0 mph4.8 kmh 30.30 in1026.1 mb 0.00 in0.0 mm 0.00 in0.0 mm 0.00 in0.0 mm
01:11 AM 46.0°F7.8°C 39.9°F4.4°C 79% 2.4 mph S3.9 kmh S 3.0 mph4.8 kmh 30.30 in1026.1 mb 0.00 in0.0 mm 0.00 in0.0 mm 0.00 in0.0 mm
01:12 AM 46.0°F7.8°C 39.9°F4.4°C 79% 3.0 mph SSW4.8 kmh SSW 4.0 mph6.4 kmh 30.30 in1026.1 mb 0.00 in0.0 mm 0.00 in0.0 mm 0.00 in0.0 mm
01:13 AM 45.9°F7.7°C 39.8°F4.3°C 79% 3.0 mph SSW4.8 kmh SSW 4.0 mph6.4 kmh 30.30 in1026.1 mb 0.00 in0.0 mm 0.00 in0.0 mm 0.00 in0.0 mm
01:14 AM 45.8°F7.7°C 39.7°F4.3°C 79% 3.6 mph S5.8 kmh S 5.0 mph8.0 kmh 30.30 in1026.1 mb 0.00 in0.0 mm 0.00 in0.0 mm 0.00 in0.0 mm
01:15 AM 45.8°F7.7°C 39.7°F4.3°C 79% 4.0 mph SSW6.4 kmh SSW 4.0 mph6.4 kmh 30.30 in1026.1 mb 0.00 in0.0 mm 0.00 in0.0 mm 0.00 in0.0 mm
01:16 AM 45.7°F7.6°C 39.9°F4.4°C 80% 3.0 mph SSW4.8 kmh SSW 4.0 mph6.4 kmh 30.30 in1026.1 mb 0.00 in0.0 mm 0.00 in0.0 mm 0.00 in0.0 mm
01:17 AM 45.7°F7.6°C 39.9°F4.4°C 80% 3.0 mph SSW4.8 kmh SSW 4.0 mph6.4 kmh 30.30 in1026.1 mb 0.00 in0.0 mm 0.00 in0.0 mm 0.00 in0.0 mm
01:18 AM 45.7°F7.6°C 39.9°F4.4°C 80% 4.0 mph S6.4 kmh S 5.0 mph8.0 kmh 30.30 in1026.1 mb 0.00 in0.0 mm 0.00 in0.0 mm 0.00 in0.0 mm
01:19 AM 45.7°F7.6°C 39.9°F4.4°C 80% 4.0 mph SSW6.4 kmh SSW 5.0 mph8.0 kmh 30.30 in1026.1 mb 0.00 in0.0 mm 0.00 in0.0 mm 0.00 in0.0 mm
01:20 AM 45.6°F7.6°C 39.8°F4.3°C 80% 4.0 mph S6.4 kmh S 6.0 mph9.7 kmh 30.30 in1026.1 mb 0.00 in0.0 mm 0.00 in0.0 mm 0.00 in0.0 mm
01:21 AM 45.6°F7.6°C 39.8°F4.3°C 80% 3.0 mph S4.8 kmh S 5.0 mph8.0 kmh 30.30 in1026.1 mb 0.00 in0.0 mm 0.00 in0.0 mm 0.00 in0.0 mm
01:22 AM 45.5°F7.5°C 39.7°F4.3°C 80% 3.1 mph S5.0 kmh S 4.0 mph6.4 kmh 30.30 in1026.1 mb 0.00 in0.0 mm 0.00 in0.0 mm 0.00 in0.0 mm
01:23 AM 45.5°F7.5°C 39.7°F4.3°C 80% 4.0 mph S6.4 kmh S 5.0 mph8.0 kmh 30.30 in1026.1 mb 0.00 in0.0 mm 0.00 in0.0 mm 0.00 in0.0 mm
01:24 AM 45.5°F7.5°C 39.7°F4.3°C 80% 3.0 mph S4.8 kmh S 5.0 mph8.0 kmh 30.30 in1026.1 mb 0.00 in0.0 mm 0.00 in0.0 mm 0.00 in0.0 mm
01:25 AM 45.5°F7.5°C 40.0°F4.4°C 81% 4.0 mph S6.4 kmh S 5.0 mph8.0 kmh 30.30 in1026.1 mb 0.00 in0.0 mm 0.00 in0.0 mm 0.00 in0.0 mm
01:26 AM 45.6°F7.6°C 40.1°F4.5°C 81% 4.0 mph S6.4 kmh S 5.0 mph8.0 kmh 30.30 in1026.1 mb 0.00 in0.0 mm 0.00 in0.0 mm 0.00 in0.0 mm
01:27 AM 45.5°F7.5°C 40.0°F4.4°C 81% 3.5 mph S5.6 kmh S 4.0 mph6.4 kmh 30.30 in1026.1 mb 0.00 in0.0 mm 0.00 in0.0 mm 0.00 in0.0 mm
01:28 AM 45.6°F7.6°C 40.1°F4.5°C 81% 3.5 mph S5.6 kmh S 4.0 mph6.4 kmh 30.30 in1026.1 mb 0.00 in0.0 mm 0.00 in0.0 mm 0.00 in0.0 mm
01:29 AM 45.5°F7.5°C 40.0°F4.4°C 81% 3.4 mph S5.5 kmh S 4.0 mph6.4 kmh 30.30 in1026.1 mb 0.00 in0.0 mm 0.00 in0.0 mm 0.00 in0.0 mm
01:30 AM 45.6°F7.6°C 40.1°F4.5°C 81% 3.5 mph S5.6 kmh S 4.0 mph6.4 kmh 30.30 in1026.1 mb 0.00 in0.0 mm 0.00 in0.0 mm 0.00 in0.0 mm
01:31 AM 45.6°F7.6°C 39.8°F4.3°C 80% 4.0 mph S6.4 kmh S 6.0 mph9.7 kmh 30.30 in1026.1 mb 0.00 in0.0 mm 0.00 in0.0 mm 0.00 in0.0 mm
01:32 AM 45.6°F7.6°C 39.8°F4.3°C 80% 4.0 mph S6.4 kmh S 5.0 mph8.0 kmh 30.30 in1026.1 mb 0.00 in0.0 mm 0.00 in0.0 mm 0.00 in0.0 mm
01:33 AM 45.6°F7.6°C 40.1°F4.5°C 81% 2.8 mph S4.5 kmh S 3.0 mph4.8 kmh 30.30 in1026.1 mb 0.00 in0.0 mm 0.00 in0.0 mm 0.00 in0.0 mm
01:34 AM 45.6°F7.6°C 40.1°F4.5°C 81% 3.5 mph S5.6 kmh S 5.0 mph8.0 kmh 30.30 in1026.1 mb 0.00 in0.0 mm 0.00 in0.0 mm 0.00 in0.0 mm
01:35 AM 45.5°F7.5°C 40.0°F4.4°C 81% 3.0 mph S4.8 kmh S 4.0 mph6.4 kmh 30.30 in1026.1 mb 0.00 in0.0 mm 0.00 in0.0 mm 0.00 in0.0 mm
01:36 AM 45.6°F7.6°C 40.1°F4.5°C 81% 3.0 mph S4.8 kmh S 4.0 mph6.4 kmh 30.30 in1026.1 mb 0.00 in0.0 mm 0.00 in0.0 mm 0.00 in0.0 mm
01:37 AM 45.6°F7.6°C 40.1°F4.5°C 81% 3.1 mph S5.0 kmh S 4.0 mph6.4 kmh 30.30 in1026.1 mb 0.00 in0.0 mm 0.00 in0.0 mm 0.00 in0.0 mm
01:38 AM 45.5°F7.5°C 40.0°F4.4°C 81% 3.4 mph S5.5 kmh S 4.0 mph6.4 kmh 30.30 in1026.1 mb 0.00 in0.0 mm 0.00 in0.0 mm 0.00 in0.0 mm
01:39 AM 45.5°F7.5°C 40.0°F4.4°C 81% 3.8 mph SSW6.1 kmh SSW 5.0 mph8.0 kmh 30.30 in1026.1 mb 0.00 in0.0 mm 0.00 in0.0 mm 0.00 in0.0 mm
01:40 AM 45.5°F7.5°C 40.0°F4.4°C 81% 3.0 mph SSW4.8 kmh SSW 5.0 mph8.0 kmh 30.30 in1026.1 mb 0.00 in0.0 mm 0.00 in0.0 mm 0.00 in0.0 mm
01:41 AM 45.5°F7.5°C 40.0°F4.4°C 81% 5.0 mph SSW8.0 kmh SSW 7.0 mph11.3 kmh 30.30 in1026.1 mb 0.00 in0.0 mm 0.00 in0.0 mm 0.00 in0.0 mm
01:42 AM 45.6°F7.6°C 40.1°F4.5°C 81% 4.0 mph SSW6.4 kmh SSW 5.0 mph8.0 kmh 30.30 in1026.1 mb 0.00 in0.0 mm 0.00 in0.0 mm 0.00 in0.0 mm
01:43 AM 45.6°F7.6°C 40.1°F4.5°C 81% 5.0 mph SSW8.0 kmh SSW 6.0 mph9.7 kmh 30.30 in1026.1 mb 0.00 in0.0 mm 0.00 in0.0 mm 0.00 in0.0 mm
01:44 AM 45.7°F7.6°C 40.2°F4.6°C 81% 4.0 mph SW6.4 kmh SW 6.0 mph9.7 kmh 30.30 in1026.1 mb 0.00 in0.0 mm 0.00 in0.0 mm 0.00 in0.0 mm
01:45 AM 45.7°F7.6°C 40.2°F4.6°C 81% 4.4 mph SW7.1 kmh SW 5.0 mph8.0 kmh 30.30 in1026.1 mb 0.00 in0.0 mm 0.00 in0.0 mm 0.00 in0.0 mm
01:46 AM 45.7°F7.6°C 40.2°F4.6°C 81% 4.0 mph SSW6.4 kmh SSW 6.0 mph9.7 kmh 30.30 in1026.1 mb 0.00 in0.0 mm 0.00 in0.0 mm 0.00 in0.0 mm
01:47 AM 45.8°F7.7°C 40.3°F4.6°C 81% 4.0 mph SW6.4 kmh SW 7.0 mph11.3 kmh 30.30 in1026.1 mb 0.00 in0.0 mm 0.00 in0.0 mm 0.00 in0.0 mm
01:48 AM 45.8°F7.7°C 40.3°F4.6°C 81% 4.0 mph SW6.4 kmh SW 5.0 mph8.0 kmh 30.30 in1026.1 mb 0.00 in0.0 mm 0.00 in0.0 mm 0.00 in0.0 mm
01:49 AM 45.9°F7.7°C 40.4°F4.7°C 81% 4.0 mph SW6.4 kmh SW 8.0 mph12.9 kmh 30.30 in1026.1 mb 0.00 in0.0 mm 0.00 in0.0 mm 0.00 in0.0 mm
01:50 AM 45.9°F7.7°C 40.4°F4.7°C 81% 5.0 mph SSW8.0 kmh SSW 7.0 mph11.3 kmh 30.30 in1026.1 mb 0.00 in0.0 mm 0.00 in0.0 mm 0.00 in0.0 mm
01:51 AM 46.0°F7.8°C 40.5°F4.7°C 81% 4.0 mph SSW6.4 kmh SSW 7.0 mph11.3 kmh 30.30 in1026.1 mb 0.00 in0.0 mm 0.00 in0.0 mm 0.00 in0.0 mm
01:52 AM 46.0°F7.8°C 40.5°F4.7°C 81% 4.0 mph SW6.4 kmh SW 5.0 mph8.0 kmh 30.30 in1026.1 mb 0.00 in0.0 mm 0.00 in0.0 mm 0.00 in0.0 mm
01:53 AM 46.1°F7.8°C 40.6°F4.8°C 81% 5.0 mph SW8.0 kmh SW 7.0 mph11.3 kmh 30.30 in1026.1 mb 0.00 in0.0 mm 0.00 in0.0 mm 0.00 in0.0 mm
01:54 AM 46.1°F7.8°C 40.6°F4.8°C 81% 4.9 mph SW7.9 kmh SW 6.0 mph9.7 kmh 30.30 in1026.1 mb 0.00 in0.0 mm 0.00 in0.0 mm 0.00 in0.0 mm
01:55 AM 46.2°F7.9°C 40.7°F4.8°C 81% 5.0 mph SSW8.0 kmh SSW 6.0 mph9.7 kmh 30.30 in1026.1 mb 0.00 in0.0 mm 0.00 in0.0 mm 0.00 in0.0 mm
01:56 AM 46.2°F7.9°C 40.7°F4.8°C 81% 5.0 mph SSW8.0 kmh SSW 8.0 mph12.9 kmh 30.30 in1026.1 mb 0.00 in0.0 mm 0.00 in0.0 mm 0.00 in0.0 mm
01:57 AM 46.3°F7.9°C 40.8°F4.9°C 81% 6.0 mph SSW9.7 kmh SSW 8.0 mph12.9 kmh 30.30 in1026.1 mb 0.00 in0.0 mm 0.00 in0.0 mm 0.00 in0.0 mm
01:58 AM 46.3°F7.9°C 40.8°F4.9°C 81% 5.0 mph SSW8.0 kmh SSW 7.0 mph11.3 kmh 30.30 in1026.1 mb 0.00 in0.0 mm 0.00 in0.0 mm 0.00 in0.0 mm
01:59 AM 46.4°F8.0°C 40.6°F4.8°C 80% 6.6 mph SW10.6 kmh SW 8.0 mph12.9 kmh 30.30 in1026.1 mb 0.00 in0.0 mm 0.00 in0.0 mm 0.00 in0.0 mm
02:00 AM 46.4°F8.0°C 40.6°F4.8°C 80% 5.8 mph SW9.3 kmh SW 8.0 mph12.9 kmh 30.30 in1026.1 mb 0.00 in0.0 mm 0.00 in0.0 mm 0.00 in0.0 mm
02:01 AM 46.4°F8.0°C 40.6°F4.8°C 80% 5.0 mph SW8.0 kmh SW 7.0 mph11.3 kmh 30.30 in1026.1 mb 0.00 in0.0 mm 0.00 in0.0 mm 0.00 in0.0 mm
02:02 AM 46.5°F8.1°C 41.0°F5.0°C 81% 5.0 mph SW8.0 kmh SW 7.0 mph11.3 kmh 30.30 in1026.1 mb 0.00 in0.0 mm 0.00 in0.0 mm 0.00 in0.0 mm
02:03 AM 46.5°F8.1°C 41.0°F5.0°C 81% 6.0 mph SW9.7 kmh SW 7.0 mph11.3 kmh 30.30 in1026.1 mb 0.00 in0.0 mm 0.00 in0.0 mm 0.00 in0.0 mm
02:04 AM 46.5°F8.1°C 40.7°F4.8°C 80% 6.0 mph SW9.7 kmh SW 9.0 mph14.5 kmh 30.30 in1026.1 mb 0.00 in0.0 mm 0.00 in0.0 mm 0.00 in0.0 mm
02:05 AM 46.5°F8.1°C 40.7°F4.8°C 80% 5.0 mph SW8.0 kmh SW 9.0 mph14.5 kmh 30.30 in1026.1 mb 0.00 in0.0 mm 0.00 in0.0 mm 0.00 in0.0 mm
02:06 AM 46.5°F8.1°C 40.7°F4.8°C 80% 5.0 mph SSW8.0 kmh SSW 8.0 mph12.9 kmh 30.30 in1026.1 mb 0.00 in0.0 mm 0.00 in0.0 mm 0.00 in0.0 mm
02:07 AM 46.4°F8.0°C 40.6°F4.8°C 80% 5.2 mph SSW8.4 kmh SSW 7.0 mph11.3 kmh 30.30 in1026.1 mb 0.00 in0.0 mm 0.00 in0.0 mm 0.00 in0.0 mm
02:08 AM 46.5°F8.1°C 40.7°F4.8°C 80% 5.4 mph SW8.7 kmh SW 8.0 mph12.9 kmh 30.30 in1026.1 mb 0.00 in0.0 mm 0.00 in0.0 mm 0.00 in0.0 mm
02:09 AM 46.5°F8.1°C 40.7°F4.8°C 80% 5.8 mph SSW9.3 kmh SSW 8.0 mph12.9 kmh 30.30 in1026.1 mb 0.00 in0.0 mm 0.00 in0.0 mm 0.00 in0.0 mm
02:10 AM 46.5°F8.1°C 40.7°F4.8°C 80% 4.0 mph SSW6.4 kmh SSW 6.0 mph9.7 kmh 30.29 in1025.7 mb 0.00 in0.0 mm 0.00 in0.0 mm 0.00 in0.0 mm
02:11 AM 46.4°F8.0°C 40.6°F4.8°C 80% 5.0 mph SSW8.0 kmh SSW 7.0 mph11.3 kmh 30.29 in1025.7 mb 0.00 in0.0 mm 0.00 in0.0 mm 0.00 in0.0 mm
02:12 AM 46.4°F8.0°C 40.6°F4.8°C 80% 3.2 mph SSW5.1 kmh SSW 4.0 mph6.4 kmh 30.29 in1025.7 mb 0.00 in0.0 mm 0.00 in0.0 mm 0.00 in0.0 mm
02:13 AM 46.3°F7.9°C 40.5°F4.7°C 80% 3.0 mph SSW4.8 kmh SSW 4.0 mph6.4 kmh 30.29 in1025.7 mb 0.00 in0.0 mm 0.00 in0.0 mm 0.00 in0.0 mm
02:14 AM 46.3°F7.9°C 40.5°F4.7°C 80% 4.0 mph SSW6.4 kmh SSW 4.0 mph6.4 kmh 30.30 in1026.1 mb 0.00 in0.0 mm 0.00 in0.0 mm 0.00 in0.0 mm
02:15 AM 46.3°F7.9°C 40.5°F4.7°C 80% 4.0 mph SSW6.4 kmh SSW 5.0 mph8.0 kmh 30.30 in1026.1 mb 0.00 in0.0 mm 0.00 in0.0 mm 0.00 in0.0 mm
02:16 AM 46.3°F7.9°C 40.8°F4.9°C 81% 3.0 mph SSW4.8 kmh SSW 4.0 mph6.4 kmh 30.29 in1025.7 mb 0.00 in0.0 mm 0.00 in0.0 mm 0.00 in0.0 mm
02:17 AM 46.3°F7.9°C 40.8°F4.9°C 81% 3.9 mph S6.3 kmh S 7.0 mph11.3 kmh 30.29 in1025.7 mb 0.00 in0.0 mm 0.00 in0.0 mm 0.00 in0.0 mm
02:18 AM 46.2°F7.9°C 40.7°F4.8°C 81% 3.0 mph SSW4.8 kmh SSW 6.0 mph9.7 kmh 30.29 in1025.7 mb 0.00 in0.0 mm 0.00 in0.0 mm 0.00 in0.0 mm
02:19 AM 46.1°F7.8°C 40.6°F4.8°C 81% 3.0 mph S4.8 kmh S 3.0 mph4.8 kmh 30.30 in1026.1 mb 0.00 in0.0 mm 0.00 in0.0 mm 0.00 in0.0 mm
02:20 AM 46.1°F7.8°C 40.6°F4.8°C 81% 2.4 mph S3.9 kmh S 3.0 mph4.8 kmh 30.30 in1026.1 mb 0.00 in0.0 mm 0.00 in0.0 mm 0.00 in0.0 mm
02:21 AM 46.1°F7.8°C 40.6°F4.8°C 81% 3.0 mph S4.8 kmh S 5.0 mph8.0 kmh 30.30 in1026.1 mb 0.00 in0.0 mm 0.00 in0.0 mm 0.00 in0.0 mm
02:22 AM 46.0°F7.8°C 40.5°F4.7°C 81% 4.0 mph SSE6.4 kmh SSE 4.0 mph6.4 kmh 30.30 in1026.1 mb 0.00 in0.0 mm 0.00 in0.0 mm 0.00 in0.0 mm
02:23 AM 46.0°F7.8°C 40.5°F4.7°C 81% 4.0 mph SSE6.4 kmh SSE 5.0 mph8.0 kmh 30.30 in1026.1 mb 0.00 in0.0 mm 0.00 in0.0 mm 0.00 in0.0 mm
02:24 AM 45.8°F7.7°C 40.3°F4.6°C 81% 4.0 mph SSE6.4 kmh SSE 6.0 mph9.7 kmh 30.30 in1026.1 mb 0.00 in0.0 mm 0.00 in0.0 mm 0.00 in0.0 mm
02:25 AM 45.7°F7.6°C 40.2°F4.6°C 81% 3.4 mph SE5.5 kmh SE 5.0 mph8.0 kmh 30.30 in1026.1 mb 0.00 in0.0 mm 0.00 in0.0 mm 0.00 in0.0 mm
02:26 AM 45.7°F7.6°C 40.2°F4.6°C 81% 2.6 mph SE4.2 kmh SE 5.0 mph8.0 kmh 30.30 in1026.1 mb 0.00 in0.0 mm 0.00 in0.0 mm 0.00 in0.0 mm
02:27 AM 45.6°F7.6°C 40.1°F4.5°C 81% 3.0 mph SSE4.8 kmh SSE 4.0 mph6.4 kmh 30.30 in1026.1 mb 0.00 in0.0 mm 0.00 in0.0 mm 0.00 in0.0 mm
02:28 AM 45.6°F7.6°C 40.1°F4.5°C 81% 2.0 mph SSE3.2 kmh SSE 3.0 mph4.8 kmh 30.30 in1026.1 mb 0.00 in0.0 mm 0.00 in0.0 mm 0.00 in0.0 mm
02:29 AM 45.4°F7.4°C 39.9°F4.4°C 81% 2.5 mph SE4.0 kmh SE 4.0 mph6.4 kmh 30.30 in1026.1 mb 0.00 in0.0 mm 0.00 in0.0 mm 0.00 in0.0 mm
02:30 AM 45.5°F7.5°C 40.0°F4.4°C 81% 2.8 mph S4.5 kmh S 5.0 mph8.0 kmh 30.30 in1026.1 mb 0.00 in0.0 mm 0.00 in0.0 mm 0.00 in0.0 mm
02:31 AM 45.3°F7.4°C 40.1°F4.5°C 82% 3.0 mph S4.8 kmh S 5.0 mph8.0 kmh 30.30 in1026.1 mb 0.00 in0.0 mm 0.00 in0.0 mm 0.00 in0.0 mm
02:32 AM 45.2°F7.3°C 40.0°F4.4°C 82% 3.0 mph SSE4.8 kmh SSE 5.0 mph8.0 kmh 30.30 in1026.1 mb 0.00 in0.0 mm 0.00 in0.0 mm 0.00 in0.0 mm
02:33 AM 45.2°F7.3°C 40.0°F4.4°C 82% 3.2 mph S5.1 kmh S 4.0 mph6.4 kmh 30.30 in1026.1 mb 0.00 in0.0 mm 0.00 in0.0 mm 0.00 in0.0 mm
02:34 AM 45.2°F7.3°C 40.0°F4.4°C 82% 3.7 mph S6.0 kmh S 5.0 mph8.0 kmh 30.30 in1026.1 mb 0.00 in0.0 mm 0.00 in0.0 mm 0.00 in0.0 mm
02:35 AM 45.1°F7.3°C 39.9°F4.4°C 82% 2.8 mph S4.5 kmh S 5.0 mph8.0 kmh 30.30 in1026.1 mb 0.00 in0.0 mm 0.00 in0.0 mm 0.00 in0.0 mm
02:36 AM 45.0°F7.2°C 39.8°F4.3°C 82% 4.3 mph S6.9 kmh S 5.0 mph8.0 kmh 30.30 in1026.1 mb 0.00 in0.0 mm 0.00 in0.0 mm 0.00 in0.0 mm
02:37 AM 44.9°F7.2°C 39.7°F4.3°C 82% 3.8 mph S6.1 kmh S 5.0 mph8.0 kmh 30.30 in1026.1 mb 0.00 in0.0 mm 0.00 in0.0 mm 0.00 in0.0 mm
02:38 AM 44.9°F7.2°C 39.7°F4.3°C 82% 3.5 mph S5.6 kmh S 5.0 mph8.0 kmh 30.30 in1026.1 mb 0.00 in0.0 mm 0.00 in0.0 mm 0.00 in0.0 mm
02:39 AM 44.8°F7.1°C 40.0°F4.4°C 83% 3.6 mph SSE5.8 kmh SSE 5.0 mph8.0 kmh 30.30 in1026.1 mb 0.00 in0.0 mm 0.00 in0.0 mm 0.00 in0.0 mm
02:40 AM 44.8°F7.1°C 40.0°F4.4°C 83% 3.9 mph SSE6.3 kmh SSE 5.0 mph8.0 kmh 30.30 in1026.1 mb 0.00 in0.0 mm 0.00 in0.0 mm 0.00 in0.0 mm
02:41 AM 44.7°F7.1°C 39.9°F4.4°C 83% 3.0 mph SSE4.8 kmh SSE 4.0 mph6.4 kmh 30.30 in1026.1 mb 0.00 in0.0 mm 0.00 in0.0 mm 0.00 in0.0 mm
02:42 AM 44.7°F7.1°C 39.9°F4.4°C 83% 3.0 mph SSE4.8 kmh SSE 5.0 mph8.0 kmh 30.30 in1026.1 mb 0.00 in0.0 mm 0.00 in0.0 mm 0.00 in0.0 mm
02:43 AM 44.7°F7.1°C 39.9°F4.4°C 83% 4.7 mph S7.6 kmh S 5.0 mph8.0 kmh 30.30 in1026.1 mb 0.00 in0.0 mm 0.00 in0.0 mm 0.00 in0.0 mm
02:44 AM 44.7°F7.1°C 39.9°F4.4°C 83% 3.7 mph SSW6.0 kmh SSW 5.0 mph8.0 kmh 30.30 in1026.1 mb 0.00 in0.0 mm 0.00 in0.0 mm 0.00 in0.0 mm
02:45 AM 44.7°F7.1°C 40.2°F4.6°C 84% 4.2 mph SSW6.8 kmh SSW 5.0 mph8.0 kmh 30.30 in1026.1 mb 0.00 in0.0 mm 0.00 in0.0 mm 0.00 in0.0 mm
02:46 AM 44.7°F7.1°C 40.2°F4.6°C 84% 2.8 mph SSW4.5 kmh SSW 5.0 mph8.0 kmh 30.30 in1026.1 mb 0.00 in0.0 mm 0.00 in0.0 mm 0.00 in0.0 mm
02:47 AM 44.7°F7.1°C 40.2°F4.6°C 84% 3.0 mph SSW4.8 kmh SSW 4.0 mph6.4 kmh 30.30 in1026.1 mb 0.00 in0.0 mm 0.00 in0.0 mm 0.00 in0.0 mm
02:48 AM 44.7°F7.1°C 40.2°F4.6°C 84% 3.0 mph SSW4.8 kmh SSW 4.0 mph6.4 kmh 30.30 in1026.1 mb 0.00 in0.0 mm 0.00 in0.0 mm 0.00 in0.0 mm
02:49 AM 44.7°F7.1°C 40.2°F4.6°C 84% 3.4 mph SSW5.5 kmh SSW 6.0 mph9.7 kmh 30.30 in1026.1 mb 0.00 in0.0 mm 0.00 in0.0 mm 0.00 in0.0 mm
02:50 AM 44.8°F7.1°C 40.3°F4.6°C 84% 4.2 mph SSW6.8 kmh SSW 6.0 mph9.7 kmh 30.30 in1026.1 mb 0.00 in0.0 mm 0.00 in0.0 mm 0.00 in0.0 mm
02:51 AM 44.8°F7.1°C 40.3°F4.6°C 84% 4.0 mph SSW6.4 kmh SSW 6.0 mph9.7 kmh 30.30 in1026.1 mb 0.00 in0.0 mm 0.00 in0.0 mm 0.00 in0.0 mm
02:52 AM 44.9°F7.2°C 40.4°F4.7°C 84% 4.0 mph SSW6.4 kmh SSW 5.0 mph8.0 kmh 30.30 in1026.1 mb 0.00 in0.0 mm 0.00 in0.0 mm 0.00 in0.0 mm
02:53 AM 44.9°F7.2°C 40.4°F4.7°C 84% 3.9 mph SSW6.3 kmh SSW 6.0 mph9.7 kmh 30.30 in1026.1 mb 0.00 in0.0 mm 0.00 in0.0 mm 0.00 in0.0 mm
02:54 AM 44.9°F7.2°C 40.4°F4.7°C 84% 3.2 mph SSW5.1 kmh SSW 6.0 mph9.7 kmh 30.30 in1026.1 mb 0.00 in0.0 mm 0.00 in0.0 mm 0.00 in0.0 mm
02:55 AM 45.0°F7.2°C 40.5°F4.7°C 84% 3.1 mph SSW5.0 kmh SSW 4.0 mph6.4 kmh 30.30 in1026.1 mb 0.00 in0.0 mm 0.00 in0.0 mm 0.00 in0.0 mm
02:56 AM 44.9°F7.2°C 40.4°F4.7°C 84% 2.3 mph SSW3.7 kmh SSW 4.0 mph6.4 kmh 30.30 in1026.1 mb 0.00 in0.0 mm 0.00 in0.0 mm 0.00 in0.0 mm
02:57 AM 45.0°F7.2°C 40.5°F4.7°C 84% 3.0 mph SSW4.8 kmh SSW 4.0 mph6.4 kmh 30.30 in1026.1 mb 0.00 in0.0 mm 0.00 in0.0 mm 0.00 in0.0 mm
02:58 AM 45.0°F7.2°C 40.5°F4.7°C 84% 3.0 mph SSW4.8 kmh SSW 5.0 mph8.0 kmh 30.30 in1026.1 mb 0.00 in0.0 mm 0.00 in0.0 mm 0.00 in0.0 mm
02:59 AM 45.0°F7.2°C 40.5°F4.7°C 84% 3.8 mph SSW6.1 kmh SSW 5.0 mph8.0 kmh 30.30 in1026.1 mb 0.00 in0.0 mm 0.00 in0.0 mm 0.00 in0.0 mm
03:00 AM 45.0°F7.2°C 40.5°F4.7°C 84% 4.5 mph S7.2 kmh S 6.0 mph9.7 kmh 30.30 in1026.1 mb 0.00 in0.0 mm 0.00 in0.0 mm 0.00 in0.0 mm
03:01 AM 45.0°F7.2°C 40.5°F4.7°C 84% 5.0 mph SSW8.0 kmh SSW 7.0 mph11.3 kmh 30.30 in1026.1 mb 0.00 in0.0 mm 0.00 in0.0 mm 0.00 in0.0 mm
03:02 AM 45.0°F7.2°C 40.5°F4.7°C 84% 2.0 mph SSW3.2 kmh SSW 3.0 mph4.8 kmh 30.30 in1026.1 mb 0.00 in0.0 mm 0.00 in0.0 mm 0.00 in0.0 mm
03:03 AM 45.1°F7.3°C 40.6°F4.8°C 84% 2.2 mph SSW3.5 kmh SSW 3.0 mph4.8 kmh 30.30 in1026.1 mb 0.00 in0.0 mm 0.00 in0.0 mm 0.00 in0.0 mm
03:04 AM 45.0°F7.2°C 40.5°F4.7°C 84% 3.5 mph SSW5.6 kmh SSW 5.0 mph8.0 kmh 30.30 in1026.1 mb 0.00 in0.0 mm 0.00 in0.0 mm 0.00 in0.0 mm
03:05 AM 45.1°F7.3°C 40.6°F4.8°C 84% 2.3 mph SSW3.7 kmh SSW 5.0 mph8.0 kmh 30.30 in1026.1 mb 0.00 in0.0 mm 0.00 in0.0 mm 0.00 in0.0 mm
03:06 AM 45.0°F7.2°C 40.5°F4.7°C 84% 2.2 mph SSW3.5 kmh SSW 4.0 mph6.4 kmh 30.30 in1026.1 mb 0.00 in0.0 mm 0.00 in0.0 mm 0.00 in0.0 mm
03:07 AM 45.0°F7.2°C 40.5°F4.7°C 84% 3.4 mph SSW5.5 kmh SSW 4.0 mph6.4 kmh 30.30 in1026.1 mb 0.00 in0.0 mm 0.00 in0.0 mm 0.00 in0.0 mm
03:08 AM 45.0°F7.2°C 40.5°F4.7°C 84% 3.3 mph SSW5.3 kmh SSW 4.0 mph6.4 kmh 30.30 in1026.1 mb 0.00 in0.0 mm 0.00 in0.0 mm 0.00 in0.0 mm
03:09 AM 45.0°F7.2°C 40.5°F4.7°C 84% 4.5 mph SW7.2 kmh SW 6.0 mph9.7 kmh 30.30 in1026.1 mb 0.00 in0.0 mm 0.00 in0.0 mm 0.00 in0.0 mm
03:10 AM 45.1°F7.3°C 40.6°F4.8°C 84% 5.3 mph SW8.5 kmh SW 6.0 mph9.7 kmh 30.30 in1026.1 mb 0.00 in0.0 mm 0.00 in0.0 mm 0.00 in0.0 mm
03:11 AM 45.2°F7.3°C 40.7°F4.8°C 84% 4.0 mph SW6.4 kmh SW 6.0 mph9.7 kmh 30.30 in1026.1 mb 0.00 in0.0 mm 0.00 in0.0 mm 0.00 in0.0 mm
03:12 AM 45.3°F7.4°C 40.8°F4.9°C 84% 6.0 mph SW9.7 kmh SW 7.0 mph11.3 kmh 30.31 in1026.4 mb 0.00 in0.0 mm 0.00 in0.0 mm 0.00 in0.0 mm
03:13 AM 45.4°F7.4°C 40.9°F4.9°C 84% 5.0 mph SW8.0 kmh SW 6.0 mph9.7 kmh 30.31 in1026.4 mb 0.00 in0.0 mm 0.00 in0.0 mm 0.00 in0.0 mm
03:14 AM 45.4°F7.4°C 40.9°F4.9°C 84% 4.6 mph SW7.4 kmh SW 6.0 mph9.7 kmh 30.31 in1026.4 mb 0.00 in0.0 mm 0.00 in0.0 mm 0.00 in0.0 mm
03:15 AM 45.5°F7.5°C 41.0°F5.0°C 84% 5.0 mph SW8.0 kmh SW 7.0 mph11.3 kmh 30.31 in1026.4 mb 0.00 in0.0 mm 0.00 in0.0 mm 0.00 in0.0 mm
03:16 AM 45.6°F7.6°C 41.0°F5.0°C 84% 5.0 mph SW8.0 kmh SW 6.0 mph9.7 kmh 30.31 in1026.4 mb 0.00 in0.0 mm 0.00 in0.0 mm 0.00 in0.0 mm
03:17 AM 45.6°F7.6°C 41.0°F5.0°C 84% 5.0 mph SW8.0 kmh SW 6.0 mph9.7 kmh 30.31 in1026.4 mb 0.00 in0.0 mm 0.00 in0.0 mm 0.00 in0.0 mm
03:18 AM 45.6°F7.6°C 41.0°F5.0°C 84% 7.0 mph SW11.3 kmh SW 9.0 mph14.5 kmh 30.31 in1026.4 mb 0.00 in0.0 mm 0.00 in0.0 mm 0.00 in0.0 mm
03:19 AM 45.7°F7.6°C 41.1°F5.1°C 84% 5.9 mph SW9.5 kmh SW 6.0 mph9.7 kmh 30.31 in1026.4 mb 0.00 in0.0 mm 0.00 in0.0 mm 0.00 in0.0 mm
03:20 AM 45.8°F7.7°C 41.2°F5.1°C 84% 5.3 mph SW8.5 kmh SW 6.0 mph9.7 kmh 30.31 in1026.4 mb 0.00 in0.0 mm 0.00 in0.0 mm 0.00 in0.0 mm
03:21 AM 45.8°F7.7°C 41.2°F5.1°C 84% 5.3 mph SW8.5 kmh SW 7.0 mph11.3 kmh 30.31 in1026.4 mb 0.00 in0.0 mm 0.00 in0.0 mm 0.00 in0.0 mm
03:22 AM 45.8°F7.7°C 41.2°F5.1°C 84% 5.0 mph SW8.0 kmh SW 7.0 mph11.3 kmh 30.31 in1026.4 mb 0.00 in0.0 mm 0.00 in0.0 mm 0.00 in0.0 mm
03:23 AM 45.8°F7.7°C 41.2°F5.1°C 84% 6.0 mph SSW9.7 kmh SSW 8.0 mph12.9 kmh 30.31 in1026.4 mb 0.00 in0.0 mm 0.00 in0.0 mm 0.00 in0.0 mm
03:24 AM 45.8°F7.7°C 40.9°F4.9°C 83% 7.0 mph SW11.3 kmh SW 8.0 mph12.9 kmh 30.31 in1026.4 mb 0.00 in0.0 mm 0.00 in0.0 mm 0.00 in0.0 mm
03:25 AM 45.9°F7.7°C 41.0°F5.0°C 83% 6.0 mph SW9.7 kmh SW 6.0 mph9.7 kmh 30.31 in1026.4 mb 0.00 in0.0 mm 0.00 in0.0 mm 0.00 in0.0 mm
03:26 AM 45.9°F7.7°C 41.0°F5.0°C 83% 6.0 mph SSW9.7 kmh SSW 8.0 mph12.9 kmh 30.30 in1026.1 mb 0.00 in0.0 mm 0.00 in0.0 mm 0.00 in0.0 mm
03:27 AM 45.9°F7.7°C 41.0°F5.0°C 83% 5.5 mph SW8.9 kmh SW 7.0 mph11.3 kmh 30.30 in1026.1 mb 0.00 in0.0 mm 0.00 in0.0 mm 0.00 in0.0 mm
03:28 AM 45.9°F7.7°C 41.0°F5.0°C 83% 6.7 mph SSW10.8 kmh SSW 8.0 mph12.9 kmh 30.30 in1026.1 mb 0.00 in0.0 mm 0.00 in0.0 mm 0.00 in0.0 mm
03:29 AM 45.9°F7.7°C 40.7°F4.8°C 82% 6.9 mph SSW11.1 kmh SSW 8.0 mph12.9 kmh 30.30 in1026.1 mb 0.00 in0.0 mm 0.00 in0.0 mm 0.00 in0.0 mm
03:30 AM 45.9°F7.7°C 40.7°F4.8°C 82% 6.6 mph SW10.6 kmh SW 8.0 mph12.9 kmh 30.30 in1026.1 mb 0.00 in0.0 mm 0.00 in0.0 mm 0.00 in0.0 mm
03:31 AM 46.0°F7.8°C 40.8°F4.9°C 82% 6.5 mph SSW10.5 kmh SSW 8.0 mph12.9 kmh 30.30 in1026.1 mb 0.00 in0.0 mm 0.00 in0.0 mm 0.00 in0.0 mm
03:32 AM 46.0°F7.8°C 40.8°F4.9°C 82% 5.2 mph SSW8.4 kmh SSW 8.0 mph12.9 kmh 30.30 in1026.1 mb 0.00 in0.0 mm 0.00 in0.0 mm 0.00 in0.0 mm
03:33 AM 46.0°F7.8°C 40.8°F4.9°C 82% 7.0 mph SSW11.3 kmh SSW 9.0 mph14.5 kmh 30.30 in1026.1 mb 0.00 in0.0 mm 0.00 in0.0 mm 0.00 in0.0 mm
03:34 AM 46.0°F7.8°C 40.5°F4.7°C 81% 5.0 mph SSW8.0 kmh SSW 7.0 mph11.3 kmh 30.30 in1026.1 mb 0.00 in0.0 mm 0.00 in0.0 mm 0.00 in0.0 mm
03:35 AM 46.0°F7.8°C 40.5°F4.7°C 81% 5.0 mph SSW8.0 kmh SSW 7.0 mph11.3 kmh 30.29 in1025.7 mb 0.00 in0.0 mm 0.00 in0.0 mm 0.00 in0.0 mm
03:36 AM 46.0°F7.8°C 40.5°F4.7°C 81% 5.6 mph SSW9.0 kmh SSW 7.0 mph11.3 kmh 30.29 in1025.7 mb 0.00 in0.0 mm 0.00 in0.0 mm 0.00 in0.0 mm
03:37 AM 46.0°F7.8°C 40.5°F4.7°C 81% 4.3 mph SSW6.9 kmh SSW 7.0 mph11.3 kmh 30.29 in1025.7 mb 0.00 in0.0 mm 0.00 in0.0 mm 0.00 in0.0 mm
03:38 AM 46.0°F7.8°C 40.5°F4.7°C 81% 6.7 mph SW10.8 kmh SW 8.0 mph12.9 kmh 30.29 in1025.7 mb 0.00 in0.0 mm 0.00 in0.0 mm 0.00 in0.0 mm
03:39 AM 46.0°F7.8°C 40.5°F4.7°C 81% 6.9 mph SW11.1 kmh SW 9.0 mph14.5 kmh 30.30 in1026.1 mb 0.00 in0.0 mm 0.00 in0.0 mm 0.00 in0.0 mm
03:40 AM 46.1°F7.8°C 40.6°F4.8°C 81% 6.2 mph SW10.0 kmh SW 9.0 mph14.5 kmh 30.30 in1026.1 mb 0.00 in0.0 mm 0.00 in0.0 mm 0.00 in0.0 mm
03:41 AM 46.1°F7.8°C 40.6°F4.8°C 81% 7.0 mph SSW11.3 kmh SSW 8.0 mph12.9 kmh 30.30 in1026.1 mb 0.00 in0.0 mm 0.00 in0.0 mm 0.00 in0.0 mm
03:42 AM 46.1°F7.8°C 40.6°F4.8°C 81% 6.0 mph SSW9.7 kmh SSW 9.0 mph14.5 kmh 30.30 in1026.1 mb 0.00 in0.0 mm 0.00 in0.0 mm 0.00 in0.0 mm
03:43 AM 46.1°F7.8°C 40.6°F4.8°C 81% 6.0 mph SSW9.7 kmh SSW 7.0 mph11.3 kmh 30.29 in1025.7 mb 0.00 in0.0 mm 0.00 in0.0 mm 0.00 in0.0 mm
03:44 AM 46.1°F7.8°C 40.6°F4.8°C 81% 5.0 mph S8.0 kmh S 6.0 mph9.7 kmh 30.29 in1025.7 mb 0.00 in0.0 mm 0.00 in0.0 mm 0.00 in0.0 mm
03:45 AM 46.2°F7.9°C 40.7°F4.8°C 81% 5.0 mph SSW8.0 kmh SSW 7.0 mph11.3 kmh 30.29 in1025.7 mb 0.00 in0.0 mm 0.00 in0.0 mm 0.00 in0.0 mm
03:46 AM 46.2°F7.9°C 40.7°F4.8°C 81% 5.8 mph SW9.3 kmh SW 6.0 mph9.7 kmh 30.30 in1026.1 mb 0.00 in0.0 mm 0.00 in0.0 mm 0.00 in0.0 mm
03:47 AM 46.2°F7.9°C 40.7°F4.8°C 81% 6.0 mph SW9.7 kmh SW 8.0 mph12.9 kmh 30.30 in1026.1 mb 0.00 in0.0 mm 0.00 in0.0 mm 0.00 in0.0 mm
03:48 AM 46.2°F7.9°C 40.7°F4.8°C 81% 7.8 mph SW12.6 kmh SW 10.0 mph16.1 kmh 30.30 in1026.1 mb 0.00 in0.0 mm 0.00 in0.0 mm 0.00 in0.0 mm
03:49 AM 46.3°F7.9°C 40.8°F4.9°C 81% 7.0 mph SSW11.3 kmh SSW 11.0 mph17.7 kmh 30.30 in1026.1 mb 0.00 in0.0 mm 0.00 in0.0 mm 0.00 in0.0 mm
03:50 AM 46.3°F7.9°C 40.5°F4.7°C 80% 7.0 mph SW11.3 kmh SW 8.0 mph12.9 kmh 30.30 in1026.1 mb 0.00 in0.0 mm 0.00 in0.0 mm 0.00 in0.0 mm
03:51 AM 46.3°F7.9°C 40.5°F4.7°C 80% 6.1 mph SW9.8 kmh SW 8.0 mph12.9 kmh 30.30 in1026.1 mb 0.00 in0.0 mm 0.00 in0.0 mm 0.00 in0.0 mm
03:52 AM 46.3°F7.9°C 40.5°F4.7°C 80% 5.5 mph SW8.9 kmh SW 9.0 mph14.5 kmh 30.30 in1026.1 mb 0.00 in0.0 mm 0.00 in0.0 mm 0.00 in0.0 mm
03:53 AM 46.4°F8.0°C 40.6°F4.8°C 80% 8.1 mph SW13.0 kmh SW 10.0 mph16.1 kmh 30.30 in1026.1 mb 0.00 in0.0 mm 0.00 in0.0 mm 0.00 in0.0 mm
03:54 AM 46.4°F8.0°C 40.6°F4.8°C 80% 7.0 mph SW11.3 kmh SW 9.0 mph14.5 kmh 30.30 in1026.1 mb 0.00 in0.0 mm 0.00 in0.0 mm 0.00 in0.0 mm
03:55 AM 46.5°F8.1°C 40.7°F4.8°C 80% 7.0 mph SW11.3 kmh SW 9.0 mph14.5 kmh 30.30 in1026.1 mb 0.00 in0.0 mm 0.00 in0.0 mm 0.00 in0.0 mm
03:56 AM 46.5°F8.1°C 40.7°F4.8°C 80% 5.0 mph SW8.0 kmh SW 7.0 mph11.3 kmh 30.29 in1025.7 mb 0.00 in0.0 mm 0.00 in0.0 mm 0.00 in0.0 mm
03:57 AM 46.5°F8.1°C 40.7°F4.8°C 80% 6.0 mph SW9.7 kmh SW 9.0 mph14.5 kmh 30.29 in1025.7 mb 0.00 in0.0 mm 0.00 in0.0 mm 0.00 in0.0 mm
03:58 AM 46.5°F8.1°C 40.7°F4.8°C 80% 6.0 mph SW9.7 kmh SW 8.0 mph12.9 kmh 30.29 in1025.7 mb 0.00 in0.0 mm 0.00 in0.0 mm 0.00 in0.0 mm
03:59 AM 46.6°F8.1°C 40.8°F4.9°C 80% 6.3 mph SW10.1 kmh SW 8.0 mph12.9 kmh 30.30 in1026.1 mb 0.00 in0.0 mm 0.00 in0.0 mm 0.00 in0.0 mm
04:00 AM 46.5°F8.1°C 40.7°F4.8°C 80% 6.0 mph SW9.7 kmh SW 9.0 mph14.5 kmh 30.30 in1026.1 mb 0.00 in0.0 mm 0.00 in0.0 mm 0.00 in0.0 mm
04:01 AM 46.6°F8.1°C 40.8°F4.9°C 80% 7.0 mph SW11.3 kmh SW 10.0 mph16.1 kmh 30.30 in1026.1 mb 0.00 in0.0 mm 0.00 in0.0 mm 0.00 in0.0 mm
04:02 AM 46.6°F8.1°C 40.8°F4.9°C 80% 8.0 mph SSW12.9 kmh SSW 12.0 mph19.3 kmh 30.30 in1026.1 mb 0.00 in0.0 mm 0.00 in0.0 mm 0.00 in0.0 mm
04:03 AM 46.6°F8.1°C 40.8°F4.9°C 80% 6.0 mph SSW9.7 kmh SSW 8.0 mph12.9 kmh 30.30 in1026.1 mb 0.00 in0.0 mm 0.00 in0.0 mm 0.00 in0.0 mm
04:04 AM 46.6°F8.1°C 40.8°F4.9°C 80% 6.7 mph SW10.8 kmh SW 9.0 mph14.5 kmh 30.29 in1025.7 mb 0.00 in0.0 mm 0.00 in0.0 mm 0.00 in0.0 mm
04:05 AM 46.6°F8.1°C 40.8°F4.9°C 80% 6.2 mph SW10.0 kmh SW 9.0 mph14.5 kmh 30.30 in1026.1 mb 0.00 in0.0 mm 0.00 in0.0 mm 0.00 in0.0 mm
04:06 AM 46.7°F8.2°C 40.9°F4.9°C 80% 5.0 mph SSW8.0 kmh SSW 6.0 mph9.7 kmh 30.30 in1026.1 mb 0.00 in0.0 mm 0.00 in0.0 mm 0.00 in0.0 mm
04:07 AM 46.6°F8.1°C 40.8°F4.9°C 80% 7.0 mph SW11.3 kmh SW 10.0 mph16.1 kmh 30.30 in1026.1 mb 0.00 in0.0 mm 0.00 in0.0 mm 0.00 in0.0 mm
04:08 AM 46.6°F8.1°C 40.8°F4.9°C 80% 6.0 mph SSW9.7 kmh SSW 9.0 mph14.5 kmh 30.30 in1026.1 mb 0.00 in0.0 mm 0.00 in0.0 mm 0.00 in0.0 mm
04:09 AM 46.7°F8.2°C 40.9°F4.9°C 80% 5.5 mph SW8.9 kmh SW 7.0 mph11.3 kmh 30.30 in1026.1 mb 0.00 in0.0 mm 0.00 in0.0 mm 0.00 in0.0 mm
04:10 AM 46.7°F8.2°C 40.9°F4.9°C 80% 7.0 mph SW11.3 kmh SW 9.0 mph14.5 kmh 30.30 in1026.1 mb 0.00 in0.0 mm 0.00 in0.0 mm 0.00 in0.0 mm
04:11 AM 46.6°F8.1°C 40.8°F4.9°C 80% 5.0 mph SW8.0 kmh SW 7.0 mph11.3 kmh 30.30 in1026.1 mb 0.00 in0.0 mm 0.00 in0.0 mm 0.00 in0.0 mm
04:12 AM 46.7°F8.2°C 40.9°F4.9°C 80% 6.0 mph SSW9.7 kmh SSW 9.0 mph14.5 kmh 30.30 in1026.1 mb 0.00 in0.0 mm 0.00 in0.0 mm 0.00 in0.0 mm
04:13 AM 46.6°F8.1°C 40.8°F4.9°C 80% 7.0 mph SW11.3 kmh SW 9.0 mph14.5 kmh 30.30 in1026.1 mb 0.00 in0.0 mm 0.00 in0.0 mm 0.00 in0.0 mm
04:14 AM 46.6°F8.1°C 40.8°F4.9°C 80% 6.4 mph SW10.3 kmh SW 7.0 mph11.3 kmh 30.30 in1026.1 mb 0.00 in0.0 mm 0.00 in0.0 mm 0.00 in0.0 mm
04:15 AM 46.6°F8.1°C 40.8°F4.9°C 80% 7.5 mph SW12.1 kmh SW 9.0 mph14.5 kmh 30.30 in1026.1 mb 0.00 in0.0 mm 0.00 in0.0 mm 0.00 in0.0 mm
04:16 AM 46.7°F8.2°C 40.9°F4.9°C 80% 8.2 mph SW13.2 kmh SW 13.0 mph20.9 kmh 30.30 in1026.1 mb 0.00 in0.0 mm 0.00 in0.0 mm 0.00 in0.0 mm
04:17 AM 46.6°F8.1°C 40.8°F4.9°C 80% 8.9 mph SW14.3 kmh SW 13.0 mph20.9 kmh 30.30 in1026.1 mb 0.00 in0.0 mm 0.00 in0.0 mm 0.00 in0.0 mm
04:18 AM 46.7°F8.2°C 40.9°F4.9°C 80% 8.9 mph SW14.3 kmh SW 11.0 mph17.7 kmh 30.30 in1026.1 mb 0.00 in0.0 mm 0.00 in0.0 mm 0.00 in0.0 mm
04:19 AM 46.7°F8.2°C 40.9°F4.9°C 80% 8.2 mph SW13.2 kmh SW 11.0 mph17.7 kmh 30.30 in1026.1 mb 0.00 in0.0 mm 0.00 in0.0 mm 0.00 in0.0 mm
04:20 AM 46.7°F8.2°C 40.9°F4.9°C 80% 9.3 mph SW15.0 kmh SW 11.0 mph17.7 kmh 30.30 in1026.1 mb 0.00 in0.0 mm 0.00 in0.0 mm 0.00 in0.0 mm
04:21 AM 46.7°F8.2°C 40.9°F4.9°C 80% 9.6 mph SW15.4 kmh SW 13.0 mph20.9 kmh 30.30 in1026.1 mb 0.00 in0.0 mm 0.00 in0.0 mm 0.00 in0.0 mm
04:22 AM 46.7°F8.2°C 40.9°F4.9°C 80% 9.5 mph SW15.3 kmh SW 13.0 mph20.9 kmh 30.30 in1026.1 mb 0.00 in0.0 mm 0.00 in0.0 mm 0.00 in0.0 mm
04:23 AM 46.7°F8.2°C 40.9°F4.9°C 80% 7.5 mph SW12.1 kmh SW 13.0 mph20.9 kmh 30.30 in1026.1 mb 0.00 in0.0 mm 0.00 in0.0 mm 0.00 in0.0 mm
04:24 AM 46.7°F8.2°C 40.9°F4.9°C 80% 9.6 mph SW15.4 kmh SW 11.0 mph17.7 kmh 30.30 in1026.1 mb 0.00 in0.0 mm 0.00 in0.0 mm 0.00 in0.0 mm
04:25 AM 46.7°F8.2°C 40.9°F4.9°C 80% 9.0 mph SW14.5 kmh SW 11.0 mph17.7 kmh 30.30 in1026.1 mb 0.00 in0.0 mm 0.00 in0.0 mm 0.00 in0.0 mm
04:26 AM 46.7°F8.2°C 40.9°F4.9°C 80% 9.0 mph SW14.5 kmh SW 12.0 mph19.3 kmh 30.30 in1026.1 mb 0.00 in0.0 mm 0.00 in0.0 mm 0.00 in0.0 mm
04:27 AM 46.7°F8.2°C 40.9°F4.9°C 80% 7.0 mph SW11.3 kmh SW 9.0 mph14.5 kmh 30.30 in1026.1 mb 0.00 in0.0 mm 0.00 in0.0 mm 0.00 in0.0 mm
04:28 AM 46.7°F8.2°C 40.9°F4.9°C 80% 6.9 mph SW11.1 kmh SW 8.0 mph12.9 kmh 30.30 in1026.1 mb 0.00 in0.0 mm 0.00 in0.0 mm 0.00 in0.0 mm
04:29 AM 46.7°F8.2°C 40.9°F4.9°C 80% 8.7 mph SW14.0 kmh SW 11.0 mph17.7 kmh 30.30 in1026.1 mb 0.00 in0.0 mm 0.00 in0.0 mm 0.00 in0.0 mm
04:30 AM 46.7°F8.2°C 41.2°F5.1°C 81% 9.0 mph SW14.5 kmh SW 13.0 mph20.9 kmh 30.30 in1026.1 mb 0.00 in0.0 mm 0.00 in0.0 mm 0.00 in0.0 mm
04:31 AM 46.7°F8.2°C 41.2°F5.1°C 81% 10.0 mph SW16.1 kmh SW 12.0 mph19.3 kmh 30.30 in1026.1 mb 0.00 in0.0 mm 0.00 in0.0 mm 0.00 in0.0 mm
04:32 AM 46.7°F8.2°C 41.2°F5.1°C 81% 10.0 mph SW16.1 kmh SW 12.0 mph19.3 kmh 30.30 in1026.1 mb 0.00 in0.0 mm 0.00 in0.0 mm 0.00 in0.0 mm
04:33 AM 46.8°F8.2°C 41.3°F5.2°C 81% 10.5 mph SW16.9 kmh SW 13.0 mph20.9 kmh 30.30 in1026.1 mb 0.00 in0.0 mm 0.00 in0.0 mm 0.00 in0.0 mm
04:34 AM 46.7°F8.2°C 40.9°F4.9°C 80% 8.8 mph SW14.2 kmh SW 13.0 mph20.9 kmh 30.30 in1026.1 mb 0.00 in0.0 mm 0.00 in0.0 mm 0.00 in0.0 mm
04:35 AM 46.8°F8.2°C 41.3°F5.2°C 81% 8.5 mph SW13.7 kmh SW 11.0 mph17.7 kmh 30.30 in1026.1 mb 0.00 in0.0 mm 0.00 in0.0 mm 0.00 in0.0 mm
04:36 AM 46.8°F8.2°C 41.3°F5.2°C 81% 9.0 mph SW14.5 kmh SW 11.0 mph17.7 kmh 30.30 in1026.1 mb 0.00 in0.0 mm 0.00 in0.0 mm 0.00 in0.0 mm
04:37 AM 46.7°F8.2°C 41.2°F5.1°C 81% 8.8 mph SW14.2 kmh SW 11.0 mph17.7 kmh 30.30 in1026.1 mb 0.00 in0.0 mm 0.00 in0.0 mm 0.00 in0.0 mm
04:38 AM 46.7°F8.2°C 41.2°F5.1°C 81% 10.3 mph SW16.6 kmh SW 12.0 mph19.3 kmh 30.30 in1026.1 mb 0.00 in0.0 mm 0.00 in0.0 mm 0.00 in0.0 mm
04:39 AM 46.8°F8.2°C 41.3°F5.2°C 81% 9.0 mph SW14.5 kmh SW 11.0 mph17.7 kmh 30.30 in1026.1 mb 0.00 in0.0 mm 0.00 in0.0 mm 0.00 in0.0 mm
04:40 AM 46.7°F8.2°C 41.2°F5.1°C 81% 10.0 mph SW16.1 kmh SW 12.0 mph19.3 kmh 30.30 in1026.1 mb 0.00 in0.0 mm 0.00 in0.0 mm 0.00 in0.0 mm
04:41 AM 46.8°F8.2°C 41.3°F5.2°C 81% 10.0 mph SW16.1 kmh SW 12.0 mph19.3 kmh 30.30 in1026.1 mb 0.00 in0.0 mm 0.00 in0.0 mm 0.00 in0.0 mm
04:42 AM 46.7°F8.2°C 41.2°F5.1°C 81% 10.2 mph SW16.4 kmh SW 13.0 mph20.9 kmh 30.30 in1026.1 mb 0.00 in0.0 mm 0.00 in0.0 mm 0.00 in0.0 mm
04:43 AM 46.7°F8.2°C 41.2°F5.1°C 81% 8.2 mph SW13.2 kmh SW 13.0 mph20.9 kmh 30.30 in1026.1 mb 0.00 in0.0 mm 0.00 in0.0 mm 0.00 in0.0 mm
04:44 AM 46.7°F8.2°C 41.2°F5.1°C 81% 8.0 mph SW12.9 kmh SW 10.0 mph16.1 kmh 30.30 in1026.1 mb 0.00 in0.0 mm 0.00 in0.0 mm 0.00 in0.0 mm
04:45 AM 46.7°F8.2°C 41.2°F5.1°C 81% 10.0 mph SW16.1 kmh SW 12.0 mph19.3 kmh 30.30 in1026.1 mb 0.00 in0.0 mm 0.00 in0.0 mm 0.00 in0.0 mm
04:46 AM 46.7°F8.2°C 41.2°F5.1°C 81% 9.6 mph SW15.4 kmh SW 12.0 mph19.3 kmh 30.30 in1026.1 mb 0.00 in0.0 mm 0.00 in0.0 mm 0.00 in0.0 mm
04:47 AM 46.7°F8.2°C 41.2°F5.1°C 81% 9.1 mph SW14.6 kmh SW 12.0 mph19.3 kmh 30.30 in1026.1 mb 0.00 in0.0 mm 0.00 in0.0 mm 0.00 in0.0 mm
04:48 AM 46.7°F8.2°C 41.2°F5.1°C 81% 11.3 mph SW18.2 kmh SW 14.0 mph22.5 kmh 30.30 in1026.1 mb 0.00 in0.0 mm 0.00 in0.0 mm 0.00 in0.0 mm
04:49 AM 46.7°F8.2°C 41.2°F5.1°C 81% 9.0 mph SW14.5 kmh SW 14.0 mph22.5 kmh 30.30 in1026.1 mb 0.00 in0.0 mm 0.00 in0.0 mm 0.00 in0.0 mm
04:50 AM 46.7°F8.2°C 41.2°F5.1°C 81% 8.0 mph SW12.9 kmh SW 10.0 mph16.1 kmh 30.30 in1026.1 mb 0.00 in0.0 mm 0.00 in0.0 mm 0.00 in0.0 mm
04:51 AM 46.6°F8.1°C 41.1°F5.1°C 81% 10.0 mph SW16.1 kmh SW 13.0 mph20.9 kmh 30.30 in1026.1 mb 0.00 in0.0 mm 0.00 in0.0 mm 0.00 in0.0 mm
04:52 AM 46.6°F8.1°C 41.1°F5.1°C 81% 11.0 mph SW17.7 kmh SW 13.0 mph20.9 kmh 30.31 in1026.4 mb 0.00 in0.0 mm 0.00 in0.0 mm 0.00 in0.0 mm
04:53 AM 46.6°F8.1°C 41.1°F5.1°C 81% 8.6 mph SW13.8 kmh SW 13.0 mph20.9 kmh 30.30 in1026.1 mb 0.00 in0.0 mm 0.00 in0.0 mm 0.00 in0.0 mm
04:54 AM 46.5°F8.1°C 41.0°F5.0°C 81% 9.0 mph SW14.5 kmh SW 11.0 mph17.7 kmh 30.31 in1026.4 mb 0.00 in0.0 mm 0.00 in0.0 mm 0.00 in0.0 mm
04:55 AM 46.5°F8.1°C 41.0°F5.0°C 81% 8.0 mph SW12.9 kmh SW 10.0 mph16.1 kmh 30.31 in1026.4 mb 0.00 in0.0 mm 0.00 in0.0 mm 0.00 in0.0 mm
04:56 AM 46.5°F8.1°C 41.0°F5.0°C 81% 10.0 mph SW16.1 kmh SW 12.0 mph19.3 kmh 30.31 in1026.4 mb 0.00 in0.0 mm 0.00 in0.0 mm 0.00 in0.0 mm
04:57 AM 46.5°F8.1°C 41.0°F5.0°C 81% 8.5 mph SW13.7 kmh SW 10.0 mph16.1 kmh 30.31 in1026.4 mb 0.00 in0.0 mm 0.00 in0.0 mm 0.00 in0.0 mm
04:58 AM 46.5°F8.1°C 41.0°F5.0°C 81% 8.4 mph SW13.5 kmh SW 11.0 mph17.7 kmh 30.31 in1026.4 mb 0.00 in0.0 mm 0.00 in0.0 mm 0.00 in0.0 mm
04:59 AM 46.5°F8.1°C 41.0°F5.0°C 81% 9.0 mph SW14.5 kmh SW 11.0 mph17.7 kmh 30.31 in1026.4 mb 0.00 in0.0 mm 0.00 in0.0 mm 0.00 in0.0 mm
05:00 AM 46.5°F8.1°C 41.0°F5.0°C 81% 8.0 mph SW12.9 kmh SW 10.0 mph16.1 kmh 30.31 in1026.4 mb 0.00 in0.0 mm 0.00 in0.0 mm 0.00 in0.0 mm
05:01 AM 46.4°F8.0°C 40.9°F4.9°C 81% 9.0 mph SW14.5 kmh SW 12.0 mph19.3 kmh 30.31 in1026.4 mb 0.00 in0.0 mm 0.00 in0.0 mm 0.00 in0.0 mm
05:02 AM 46.3°F7.9°C 40.8°F4.9°C 81% 11.0 mph SW17.7 kmh SW 13.0 mph20.9 kmh 30.31 in1026.4 mb 0.00 in0.0 mm 0.00 in0.0 mm 0.00 in0.0 mm
05:03 AM 46.4°F8.0°C 40.9°F4.9°C 81% 8.5 mph SW13.7 kmh SW 13.0 mph20.9 kmh 30.31 in1026.4 mb 0.00 in0.0 mm 0.00 in0.0 mm 0.00 in0.0 mm
05:04 AM 46.3°F7.9°C 40.8°F4.9°C 81% 8.0 mph SW12.9 kmh SW 10.0 mph16.1 kmh 30.31 in1026.4 mb 0.00 in0.0 mm 0.00 in0.0 mm 0.00 in0.0 mm
05:05 AM 46.4°F8.0°C 40.9°F4.9°C 81% 10.0 mph SW16.1 kmh SW 13.0 mph20.9 kmh 30.31 in1026.4 mb 0.00 in0.0 mm 0.00 in0.0 mm 0.00 in0.0 mm
05:06 AM 46.4°F8.0°C 40.9°F4.9°C 81% 8.7 mph SW14.0 kmh SW 11.0 mph17.7 kmh 30.31 in1026.4 mb 0.00 in0.0 mm 0.00 in0.0 mm 0.00 in0.0 mm
05:07 AM 46.3°F7.9°C 40.8°F4.9°C 81% 9.0 mph SW14.5 kmh SW 11.0 mph17.7 kmh 30.31 in1026.4 mb 0.00 in0.0 mm 0.00 in0.0 mm 0.00 in0.0 mm
05:08 AM 46.3°F7.9°C 40.8°F4.9°C 81% 8.0 mph SW12.9 kmh SW 10.0 mph16.1 kmh 30.31 in1026.4 mb 0.00 in0.0 mm 0.00 in0.0 mm 0.00 in0.0 mm
05:09 AM 46.3°F7.9°C 40.8°F4.9°C 81% 8.0 mph SW12.9 kmh SW 11.0 mph17.7 kmh 30.31 in1026.4 mb 0.00 in0.0 mm 0.00 in0.0 mm 0.00 in0.0 mm
05:10 AM 46.3°F7.9°C 40.8°F4.9°C 81% 7.1 mph SW11.4 kmh SW 10.0 mph16.1 kmh 30.31 in1026.4 mb 0.00 in0.0 mm 0.00 in0.0 mm 0.00 in0.0 mm
05:11 AM 46.3°F7.9°C 40.8°F4.9°C 81% 8.4 mph SW13.5 kmh SW 12.0 mph19.3 kmh 30.31 in1026.4 mb 0.00 in0.0 mm 0.00 in0.0 mm 0.00 in0.0 mm
05:12 AM 46.2°F7.9°C 40.7°F4.8°C 81% 10.0 mph SW16.1 kmh SW 12.0 mph19.3 kmh 30.31 in1026.4 mb 0.00 in0.0 mm 0.00 in0.0 mm 0.00 in0.0 mm
05:13 AM 46.2°F7.9°C 40.7°F4.8°C 81% 9.0 mph SW14.5 kmh SW 11.0 mph17.7 kmh 30.31 in1026.4 mb 0.00 in0.0 mm 0.00 in0.0 mm 0.00 in0.0 mm
05:14 AM 46.2°F7.9°C 41.0°F5.0°C 82% 7.1 mph SW11.4 kmh SW 8.0 mph12.9 kmh 30.31 in1026.4 mb 0.00 in0.0 mm 0.00 in0.0 mm 0.00 in0.0 mm
05:15 AM 46.2°F7.9°C 41.0°F5.0°C 82% 7.1 mph SW11.4 kmh SW 10.0 mph16.1 kmh 30.31 in1026.4 mb 0.00 in0.0 mm 0.00 in0.0 mm 0.00 in0.0 mm
05:16 AM 46.2°F7.9°C 41.0°F5.0°C 82% 9.1 mph SW14.6 kmh SW 11.0 mph17.7 kmh 30.31 in1026.4 mb 0.00 in0.0 mm 0.00 in0.0 mm 0.00 in0.0 mm
05:17 AM 46.2°F7.9°C 41.0°F5.0°C 82% 9.4 mph SW15.1 kmh SW 11.0 mph17.7 kmh 30.31 in1026.4 mb 0.00 in0.0 mm 0.00 in0.0 mm 0.00 in0.0 mm
05:18 AM 46.2°F7.9°C 41.0°F5.0°C 82% 9.9 mph SW15.9 kmh SW 12.0 mph19.3 kmh 30.31 in1026.4 mb 0.00 in0.0 mm 0.00 in0.0 mm 0.00 in0.0 mm
05:19 AM 46.2°F7.9°C 40.7°F4.8°C 81% 8.7 mph SW14.0 kmh SW 12.0 mph19.3 kmh 30.31 in1026.4 mb 0.00 in0.0 mm 0.00 in0.0 mm 0.00 in0.0 mm
05:20 AM 46.1°F7.8°C 40.9°F4.9°C 82% 9.3 mph SW15.0 kmh SW 12.0 mph19.3 kmh 30.31 in1026.4 mb 0.00 in0.0 mm 0.00 in0.0 mm 0.00 in0.0 mm
05:21 AM 46.2°F7.9°C 41.0°F5.0°C 82% 7.3 mph SW11.7 kmh SW 12.0 mph19.3 kmh 30.31 in1026.4 mb 0.00 in0.0 mm 0.00 in0.0 mm 0.00 in0.0 mm
05:22 AM 46.2°F7.9°C 41.0°F5.0°C 82% 9.6 mph SW15.4 kmh SW 12.0 mph19.3 kmh 30.31 in1026.4 mb 0.00 in0.0 mm 0.00 in0.0 mm 0.00 in0.0 mm
05:23 AM 46.1°F7.8°C 40.9°F4.9°C 82% 9.7 mph SW15.6 kmh SW 12.0 mph19.3 kmh 30.31 in1026.4 mb 0.00 in0.0 mm 0.00 in0.0 mm 0.00 in0.0 mm
05:24 AM 46.1°F7.8°C 40.9°F4.9°C 82% 9.0 mph SW14.5 kmh SW 11.0 mph17.7 kmh 30.31 in1026.4 mb 0.00 in0.0 mm 0.00 in0.0 mm 0.00 in0.0 mm
05:25 AM 46.2°F7.9°C 41.0°F5.0°C 82% 9.0 mph SW14.5 kmh SW 11.0 mph17.7 kmh 30.31 in1026.4 mb 0.00 in0.0 mm 0.00 in0.0 mm 0.00 in0.0 mm
05:26 AM 46.2°F7.9°C 41.0°F5.0°C 82% 8.0 mph SW12.9 kmh SW 10.0 mph16.1 kmh 30.31 in1026.4 mb 0.00 in0.0 mm 0.00 in0.0 mm 0.00 in0.0 mm
05:27 AM 46.2°F7.9°C 41.0°F5.0°C 82% 8.0 mph SW12.9 kmh SW 11.0 mph17.7 kmh 30.31 in1026.4 mb 0.00 in0.0 mm 0.00 in0.0 mm 0.00 in0.0 mm
05:28 AM 46.2°F7.9°C 41.0°F5.0°C 82% 8.0 mph SW12.9 kmh SW 9.0 mph14.5 kmh 30.31 in1026.4 mb 0.00 in0.0 mm 0.00 in0.0 mm 0.00 in0.0 mm
05:29 AM 46.2°F7.9°C 41.0°F5.0°C 82% 8.0 mph SW12.9 kmh SW 9.0 mph14.5 kmh 30.31 in1026.4 mb 0.00 in0.0 mm 0.00 in0.0 mm 0.00 in0.0 mm
05:30 AM 46.2°F7.9°C 41.0°F5.0°C 82% 8.6 mph SW13.8 kmh SW 12.0 mph19.3 kmh 30.31 in1026.4 mb 0.00 in0.0 mm 0.00 in0.0 mm 0.00 in0.0 mm
05:31 AM 46.3°F7.9°C 41.1°F5.1°C 82% 7.8 mph SW12.6 kmh SW 12.0 mph19.3 kmh 30.31 in1026.4 mb 0.00 in0.0 mm 0.00 in0.0 mm 0.00 in0.0 mm
05:32 AM 46.2°F7.9°C 41.0°F5.0°C 82% 10.1 mph SW16.3 kmh SW 12.0 mph19.3 kmh 30.31 in1026.4 mb 0.00 in0.0 mm 0.00 in0.0 mm 0.00 in0.0 mm
05:33 AM 46.2°F7.9°C 41.0°F5.0°C 82% 9.0 mph SW14.5 kmh SW 12.0 mph19.3 kmh 30.31 in1026.4 mb 0.00 in0.0 mm 0.00 in0.0 mm 0.00 in0.0 mm
05:34 AM 46.3°F7.9°C 41.1°F5.1°C 82% 8.0 mph SW12.9 kmh SW 10.0 mph16.1 kmh 30.31 in1026.4 mb 0.00 in0.0 mm 0.00 in0.0 mm 0.00 in0.0 mm
05:35 AM 46.3°F7.9°C 41.1°F5.1°C 82% 8.0 mph SW12.9 kmh SW 11.0 mph17.7 kmh 30.31 in1026.4 mb 0.00 in0.0 mm 0.00 in0.0 mm 0.00 in0.0 mm
05:36 AM 46.3°F7.9°C 41.1°F5.1°C 82% 9.3 mph SW15.0 kmh SW 11.0 mph17.7 kmh 30.31 in1026.4 mb 0.00 in0.0 mm 0.00 in0.0 mm 0.00 in0.0 mm
05:37 AM 46.3°F7.9°C 41.1°F5.1°C 82% 9.2 mph SW14.8 kmh SW 12.0 mph19.3 kmh 30.31 in1026.4 mb 0.00 in0.0 mm 0.00 in0.0 mm 0.00 in0.0 mm
05:38 AM 46.3°F7.9°C 41.1°F5.1°C 82% 6.0 mph SW9.7 kmh SW 12.0 mph19.3 kmh 30.31 in1026.4 mb 0.00 in0.0 mm 0.00 in0.0 mm 0.00 in0.0 mm
05:39 AM 46.4°F8.0°C 41.2°F5.1°C 82% 8.2 mph SW13.2 kmh SW 11.0 mph17.7 kmh 30.31 in1026.4 mb 0.00 in0.0 mm 0.00 in0.0 mm 0.00 in0.0 mm
05:40 AM 46.4°F8.0°C 41.2°F5.1°C 82% 10.0 mph SW16.1 kmh SW 14.0 mph22.5 kmh 30.31 in1026.4 mb 0.00 in0.0 mm 0.00 in0.0 mm 0.00 in0.0 mm
05:41 AM 46.5°F8.1°C 41.3°F5.2°C 82% 9.0 mph SW14.5 kmh SW 12.0 mph19.3 kmh 30.31 in1026.4 mb 0.00 in0.0 mm 0.00 in0.0 mm 0.00 in0.0 mm
05:42 AM 46.5°F8.1°C 41.3°F5.2°C 82% 9.0 mph SW14.5 kmh SW 10.0 mph16.1 kmh 30.31 in1026.4 mb 0.00 in0.0 mm 0.00 in0.0 mm 0.00 in0.0 mm
05:43 AM 46.5°F8.1°C 41.3°F5.2°C 82% 7.4 mph SW11.9 kmh SW 9.0 mph14.5 kmh 30.31 in1026.4 mb 0.00 in0.0 mm 0.00 in0.0 mm 0.00 in0.0 mm
05:44 AM 46.6°F8.1°C 41.4°F5.2°C 82% 11.0 mph SW17.7 kmh SW 13.0 mph20.9 kmh 30.31 in1026.4 mb 0.00 in0.0 mm 0.00 in0.0 mm 0.00 in0.0 mm
05:45 AM 46.6°F8.1°C 41.4°F5.2°C 82% 9.0 mph SW14.5 kmh SW 13.0 mph20.9 kmh 30.31 in1026.4 mb 0.00 in0.0 mm 0.00 in0.0 mm 0.00 in0.0 mm
05:46 AM 46.7°F8.2°C 41.5°F5.3°C 82% 8.2 mph SW13.2 kmh SW 11.0 mph17.7 kmh 30.31 in1026.4 mb 0.00 in0.0 mm 0.00 in0.0 mm 0.00 in0.0 mm
05:47 AM 46.7°F8.2°C 41.2°F5.1°C 81% 11.0 mph SW17.7 kmh SW 13.0 mph20.9 kmh 30.31 in1026.4 mb 0.00 in0.0 mm 0.00 in0.0 mm 0.00 in0.0 mm
05:48 AM 46.7°F8.2°C 41.2°F5.1°C 81% 9.0 mph SW14.5 kmh SW 11.0 mph17.7 kmh 30.31 in1026.4 mb 0.00 in0.0 mm 0.00 in0.0 mm 0.00 in0.0 mm
05:49 AM 46.7°F8.2°C 41.2°F5.1°C 81% 8.2 mph SW13.2 kmh SW 9.0 mph14.5 kmh 30.31 in1026.4 mb 0.00 in0.0 mm 0.00 in0.0 mm 0.00 in0.0 mm
05:50 AM 46.7°F8.2°C 41.2°F5.1°C 81% 7.4 mph SW11.9 kmh SW 9.0 mph14.5 kmh 30.31 in1026.4 mb 0.00 in0.0 mm 0.00 in0.0 mm 0.00 in0.0 mm
05:51 AM 46.9°F8.3°C 41.4°F5.2°C 81% 6.8 mph SW10.9 kmh SW 9.0 mph14.5 kmh 30.31 in1026.4 mb 0.00 in0.0 mm 0.00 in0.0 mm 0.00 in0.0 mm
05:52 AM 46.9°F8.3°C 41.4°F5.2°C 81% 8.0 mph SW12.9 kmh SW 9.0 mph14.5 kmh 30.31 in1026.4 mb 0.00 in0.0 mm 0.00 in0.0 mm 0.00 in0.0 mm
05:53 AM 46.9°F8.3°C 41.4°F5.2°C 81% 9.0 mph SW14.5 kmh SW 12.0 mph19.3 kmh 30.31 in1026.4 mb 0.00 in0.0 mm 0.00 in0.0 mm 0.00 in0.0 mm
05:54 AM 47.0°F8.3°C 41.8°F5.4°C 82% 9.8 mph SW15.8 kmh SW 11.0 mph17.7 kmh 30.31 in1026.4 mb 0.00 in0.0 mm 0.00 in0.0 mm 0.00 in0.0 mm
05:55 AM 47.0°F8.3°C 41.5°F5.3°C 81% 7.8 mph SW12.6 kmh SW 11.0 mph17.7 kmh 30.31 in1026.4 mb 0.00 in0.0 mm 0.00 in0.0 mm 0.00 in0.0 mm
05:56 AM 47.0°F8.3°C 41.5°F5.3°C 81% 9.0 mph SW14.5 kmh SW 11.0 mph17.7 kmh 30.31 in1026.4 mb 0.00 in0.0 mm 0.00 in0.0 mm 0.00 in0.0 mm
05:57 AM 47.1°F8.4°C 41.9°F5.5°C 82% 10.0 mph SW16.1 kmh SW 11.0 mph17.7 kmh 30.31 in1026.4 mb 0.00 in0.0 mm 0.00 in0.0 mm 0.00 in0.0 mm
05:58 AM 47.1°F8.4°C 41.9°F5.5°C 82% 10.2 mph SW16.4 kmh SW 12.0 mph19.3 kmh 30.31 in1026.4 mb 0.00 in0.0 mm 0.00 in0.0 mm 0.00 in0.0 mm
05:59 AM 47.1°F8.4°C 41.9°F5.5°C 82% 10.0 mph SW16.1 kmh SW 12.0 mph19.3 kmh 30.31 in1026.4 mb 0.00 in0.0 mm 0.00 in0.0 mm 0.00 in0.0 mm
06:00 AM 47.2°F8.4°C 41.7°F5.4°C 81% 8.7 mph SW14.0 kmh SW 11.0 mph17.7 kmh 30.31 in1026.4 mb 0.00 in0.0 mm 0.00 in0.0 mm 0.00 in0.0 mm
06:01 AM 47.2°F8.4°C 42.0°F5.6°C 82% 9.8 mph SW15.8 kmh SW 12.0 mph19.3 kmh 30.31 in1026.4 mb 0.00 in0.0 mm 0.00 in0.0 mm 0.00 in0.0 mm
06:02 AM 47.2°F8.4°C 41.7°F5.4°C 81% 9.6 mph SW15.4 kmh SW 12.0 mph19.3 kmh 30.31 in1026.4 mb 0.00 in0.0 mm 0.00 in0.0 mm 0.00 in0.0 mm
06:03 AM 47.2°F8.4°C 41.7°F5.4°C 81% 9.3 mph SW15.0 kmh SW 14.0 mph22.5 kmh 30.32 in1026.8 mb 0.00 in0.0 mm 0.00 in0.0 mm 0.00 in0.0 mm
06:04 AM 47.2°F8.4°C 42.0°F5.6°C 82% 7.3 mph SW11.7 kmh SW 14.0 mph22.5 kmh 30.32 in1026.8 mb 0.00 in0.0 mm 0.00 in0.0 mm 0.00 in0.0 mm
06:05 AM 47.2°F8.4°C 42.0°F5.6°C 82% 9.1 mph SW14.6 kmh SW 13.0 mph20.9 kmh 30.32 in1026.8 mb 0.00 in0.0 mm 0.00 in0.0 mm 0.00 in0.0 mm
06:06 AM 47.2°F8.4°C 41.7°F5.4°C 81% 11.0 mph SW17.7 kmh SW 14.0 mph22.5 kmh 30.31 in1026.4 mb 0.00 in0.0 mm 0.00 in0.0 mm 0.00 in0.0 mm
06:07 AM 47.2°F8.4°C 41.7°F5.4°C 81% 11.0 mph SW17.7 kmh SW 13.0 mph20.9 kmh 30.31 in1026.4 mb 0.00 in0.0 mm 0.00 in0.0 mm 0.00 in0.0 mm
06:08 AM 47.3°F8.5°C 41.8°F5.4°C 81% 9.0 mph SW14.5 kmh SW 11.0 mph17.7 kmh 30.32 in1026.8 mb 0.00 in0.0 mm 0.00 in0.0 mm 0.00 in0.0 mm
06:09 AM 47.2°F8.4°C 41.7°F5.4°C 81% 7.3 mph SW11.7 kmh SW 9.0 mph14.5 kmh 30.32 in1026.8 mb 0.00 in0.0 mm 0.00 in0.0 mm 0.00 in0.0 mm
06:10 AM 47.3°F8.5°C 42.1°F5.6°C 82% 7.2 mph SW11.6 kmh SW 10.0 mph16.1 kmh 30.32 in1026.8 mb 0.00 in0.0 mm 0.00 in0.0 mm 0.00 in0.0 mm
06:11 AM 47.3°F8.5°C 42.1°F5.6°C 82% 8.0 mph SW12.9 kmh SW 12.0 mph19.3 kmh 30.32 in1026.8 mb 0.00 in0.0 mm 0.00 in0.0 mm 0.00 in0.0 mm
06:12 AM 47.3°F8.5°C 42.1°F5.6°C 82% 7.0 mph SW11.3 kmh SW 9.0 mph14.5 kmh 30.32 in1026.8 mb 0.00 in0.0 mm 0.00 in0.0 mm 0.00 in0.0 mm
06:13 AM 47.3°F8.5°C 42.1°F5.6°C 82% 10.5 mph SW16.9 kmh SW 11.0 mph17.7 kmh 30.32 in1026.8 mb 0.00 in0.0 mm 0.00 in0.0 mm 0.00 in0.0 mm
06:14 AM 47.3°F8.5°C 42.1°F5.6°C 82% 11.0 mph SW17.7 kmh SW 12.0 mph19.3 kmh 30.32 in1026.8 mb 0.00 in0.0 mm 0.00 in0.0 mm 0.00 in0.0 mm
06:15 AM 47.3°F8.5°C 42.1°F5.6°C 82% 10.0 mph SW16.1 kmh SW 12.0 mph19.3 kmh 30.32 in1026.8 mb 0.00 in0.0 mm 0.00 in0.0 mm 0.00 in0.0 mm
06:16 AM 47.3°F8.5°C 42.1°F5.6°C 82% 11.0 mph SW17.7 kmh SW 13.0 mph20.9 kmh 30.32 in1026.8 mb 0.00 in0.0 mm 0.00 in0.0 mm 0.00 in0.0 mm
06:17 AM 47.3°F8.5°C 42.1°F5.6°C 82% 7.7 mph SW12.4 kmh SW 11.0 mph17.7 kmh 30.32 in1026.8 mb 0.00 in0.0 mm 0.00 in0.0 mm 0.00 in0.0 mm
06:18 AM 47.3°F8.5°C 42.1°F5.6°C 82% 10.0 mph SW16.1 kmh SW 12.0 mph19.3 kmh 30.32 in1026.8 mb 0.00 in0.0 mm 0.00 in0.0 mm 0.00 in0.0 mm
06:19 AM 47.3°F8.5°C 42.1°F5.6°C 82% 9.5 mph SW15.3 kmh SW 14.0 mph22.5 kmh 30.32 in1026.8 mb 0.00 in0.0 mm 0.00 in0.0 mm 0.00 in0.0 mm
06:20 AM 47.4°F8.6°C 42.2°F5.7°C 82% 8.8 mph SW14.2 kmh SW 14.0 mph22.5 kmh 30.32 in1026.8 mb 0.00 in0.0 mm 0.00 in0.0 mm 0.00 in0.0 mm
06:21 AM 47.4°F8.6°C 42.2°F5.7°C 82% 11.2 mph SW18.0 kmh SW 14.0 mph22.5 kmh 30.32 in1026.8 mb 0.00 in0.0 mm 0.00 in0.0 mm 0.00 in0.0 mm
06:22 AM 47.4°F8.6°C 42.2°F5.7°C 82% 10.2 mph SW16.4 kmh SW 14.0 mph22.5 kmh 30.32 in1026.8 mb 0.00 in0.0 mm 0.00 in0.0 mm 0.00 in0.0 mm
06:23 AM 47.4°F8.6°C 42.2°F5.7°C 82% 9.4 mph SW15.1 kmh SW 13.0 mph20.9 kmh 30.32 in1026.8 mb 0.00 in0.0 mm 0.00 in0.0 mm 0.00 in0.0 mm
06:24 AM 47.5°F8.6°C 42.3°F5.7°C 82% 10.0 mph SW16.1 kmh SW 12.0 mph19.3 kmh 30.32 in1026.8 mb 0.00 in0.0 mm 0.00 in0.0 mm 0.00 in0.0 mm
06:25 AM 47.5°F8.6°C 42.3°F5.7°C 82% 8.6 mph SW13.8 kmh SW 12.0 mph19.3 kmh 30.32 in1026.8 mb 0.00 in0.0 mm 0.00 in0.0 mm 0.00 in0.0 mm
06:26 AM 47.6°F8.7°C 42.4°F5.8°C 82% 7.5 mph SW12.1 kmh SW 12.0 mph19.3 kmh 30.32 in1026.8 mb 0.00 in0.0 mm 0.00 in0.0 mm 0.00 in0.0 mm
06:27 AM 47.6°F8.7°C 42.4°F5.8°C 82% 7.9 mph SW12.7 kmh SW 10.0 mph16.1 kmh 30.32 in1026.8 mb 0.00 in0.0 mm 0.00 in0.0 mm 0.00 in0.0 mm
06:28 AM 47.7°F8.7°C 42.5°F5.8°C 82% 7.6 mph SW12.2 kmh SW 10.0 mph16.1 kmh 30.32 in1026.8 mb 0.00 in0.0 mm 0.00 in0.0 mm 0.00 in0.0 mm
06:29 AM 47.7°F8.7°C 42.5°F5.8°C 82% 8.1 mph SW13.0 kmh SW 10.0 mph16.1 kmh 30.32 in1026.8 mb 0.00 in0.0 mm 0.00 in0.0 mm 0.00 in0.0 mm
06:30 AM 47.8°F8.8°C 42.6°F5.9°C 82% 7.4 mph SW11.9 kmh SW 9.0 mph14.5 kmh 30.32 in1026.8 mb 0.00 in0.0 mm 0.00 in0.0 mm 0.00 in0.0 mm
06:31 AM 47.8°F8.8°C 42.6°F5.9°C 82% 9.1 mph SW14.6 kmh SW 11.0 mph17.7 kmh 30.32 in1026.8 mb 0.00 in0.0 mm 0.00 in0.0 mm 0.00 in0.0 mm
06:32 AM 47.8°F8.8°C 42.6°F5.9°C 82% 9.3 mph SW15.0 kmh SW 12.0 mph19.3 kmh 30.32 in1026.8 mb 0.00 in0.0 mm 0.00 in0.0 mm 0.00 in0.0 mm
06:33 AM 47.7°F8.7°C 42.2°F5.7°C 81% 9.4 mph SW15.1 kmh SW 12.0 mph19.3 kmh 30.32 in1026.8 mb 0.00 in0.0 mm 0.00 in0.0 mm 0.00 in0.0 mm
06:34 AM 47.8°F8.8°C 42.6°F5.9°C 82% 10.0 mph SW16.1 kmh SW 14.0 mph22.5 kmh 30.32 in1026.8 mb 0.00 in0.0 mm 0.00 in0.0 mm 0.00 in0.0 mm
06:35 AM 47.8°F8.8°C 42.6°F5.9°C 82% 11.3 mph SW18.2 kmh SW 14.0 mph22.5 kmh 30.32 in1026.8 mb 0.00 in0.0 mm 0.00 in0.0 mm 0.00 in0.0 mm
06:36 AM 47.8°F8.8°C 42.6°F5.9°C 82% 10.8 mph SW17.4 kmh SW 14.0 mph22.5 kmh 30.32 in1026.8 mb 0.00 in0.0 mm 0.00 in0.0 mm 0.00 in0.0 mm
06:37 AM 47.8°F8.8°C 42.3°F5.7°C 81% 9.2 mph SW14.8 kmh SW 14.0 mph22.5 kmh 30.32 in1026.8 mb 0.00 in0.0 mm 0.00 in0.0 mm 0.00 in0.0 mm
06:38 AM 47.8°F8.8°C 42.3°F5.7°C 81% 9.7 mph SW15.6 kmh SW 13.0 mph20.9 kmh 30.32 in1026.8 mb 0.00 in0.0 mm 0.00 in0.0 mm 0.00 in0.0 mm
06:39 AM 47.9°F8.8°C 42.4°F5.8°C 81% 7.9 mph SW12.7 kmh SW 13.0 mph20.9 kmh 30.32 in1026.8 mb 0.00 in0.0 mm 0.00 in0.0 mm 0.00 in0.0 mm
06:40 AM 47.8°F8.8°C 42.3°F5.7°C 81% 11.2 mph SW18.0 kmh SW 12.0 mph19.3 kmh 30.32 in1026.8 mb 0.00 in0.0 mm 0.00 in0.0 mm 0.00 in0.0 mm
06:41 AM 47.8°F8.8°C 42.3°F5.7°C 81% 11.0 mph SW17.7 kmh SW 14.0 mph22.5 kmh 30.32 in1026.8 mb 0.00 in0.0 mm 0.00 in0.0 mm 0.00 in0.0 mm
06:42 AM 47.8°F8.8°C 42.3°F5.7°C 81% 10.0 mph SW16.1 kmh SW 13.0 mph20.9 kmh 30.32 in1026.8 mb 0.00 in0.0 mm 0.00 in0.0 mm 0.00 in0.0 mm
06:43 AM 47.8°F8.8°C 42.3°F5.7°C 81% 11.1 mph SW17.9 kmh SW 13.0 mph20.9 kmh 30.32 in1026.8 mb 0.00 in0.0 mm 0.00 in0.0 mm 0.00 in0.0 mm
06:44 AM 47.8°F8.8°C 42.3°F5.7°C 81% 10.1 mph SW16.3 kmh SW 13.0 mph20.9 kmh 30.32 in1026.8 mb 0.00 in0.0 mm 0.00 in0.0 mm 0.00 in0.0 mm
06:45 AM 47.8°F8.8°C 42.3°F5.7°C 81% 11.0 mph SW17.7 kmh SW 13.0 mph20.9 kmh 30.32 in1026.8 mb 0.00 in0.0 mm 0.00 in0.0 mm 0.00 in0.0 mm
06:46 AM 47.9°F8.8°C 42.4°F5.8°C 81% 10.5 mph SW16.9 kmh SW 13.0 mph20.9 kmh 30.32 in1026.8 mb 0.00 in0.0 mm 0.00 in0.0 mm 0.00 in0.0 mm
06:47 AM 47.8°F8.8°C 42.3°F5.7°C 81% 10.0 mph SW16.1 kmh SW 13.0 mph20.9 kmh 30.33 in1027.1 mb 0.00 in0.0 mm 0.00 in0.0 mm 0.00 in0.0 mm
06:48 AM 47.8°F8.8°C 42.3°F5.7°C 81% 10.2 mph SW16.4 kmh SW 13.0 mph20.9 kmh 30.33 in1027.1 mb 0.00 in0.0 mm 0.00 in0.0 mm 0.00 in0.0 mm
06:49 AM 47.9°F8.8°C 42.4°F5.8°C 81% 9.0 mph SW14.5 kmh SW 12.0 mph19.3 kmh 30.33 in1027.1 mb 0.00 in0.0 mm 0.00 in0.0 mm 0.00 in0.0 mm
06:50 AM 47.8°F8.8°C 42.3°F5.7°C 81% 9.0 mph SW14.5 kmh SW 11.0 mph17.7 kmh 30.33 in1027.1 mb 0.00 in0.0 mm 0.00 in0.0 mm 0.00 in0.0 mm
06:51 AM 47.9°F8.8°C 42.4°F5.8°C 81% 10.0 mph WSW16.1 kmh WSW 12.0 mph19.3 kmh 30.33 in1027.1 mb 0.00 in0.0 mm 0.00 in0.0 mm 0.00 in0.0 mm
06:52 AM 47.9°F8.8°C 42.4°F5.8°C 81% 9.2 mph SW14.8 kmh SW 11.0 mph17.7 kmh 30.33 in1027.1 mb 0.00 in0.0 mm 0.00 in0.0 mm 0.00 in0.0 mm
06:53 AM 48.0°F8.9°C 42.5°F5.8°C 81% 9.1 mph SW14.6 kmh SW 11.0 mph17.7 kmh 30.33 in1027.1 mb 0.00 in0.0 mm 0.00 in0.0 mm 0.00 in0.0 mm
06:54 AM 48.0°F8.9°C 42.5°F5.8°C 81% 9.0 mph SW14.5 kmh SW 12.0 mph19.3 kmh 30.33 in1027.1 mb 0.00 in0.0 mm 0.00 in0.0 mm 0.00 in0.0 mm
06:55 AM 48.0°F8.9°C 42.5°F5.8°C 81% 11.0 mph SW17.7 kmh SW 12.0 mph19.3 kmh 30.33 in1027.1 mb 0.00 in0.0 mm 0.00 in0.0 mm 0.00 in0.0 mm
06:56 AM 48.0°F8.9°C 42.5°F5.8°C 81% 11.6 mph SW18.7 kmh SW 12.0 mph19.3 kmh 30.33 in1027.1 mb 0.00 in0.0 mm 0.00 in0.0 mm 0.00 in0.0 mm
06:57 AM 48.0°F8.9°C 42.5°F5.8°C 81% 10.1 mph SW16.3 kmh SW 12.0 mph19.3 kmh 30.33 in1027.1 mb 0.00 in0.0 mm 0.00 in0.0 mm 0.00 in0.0 mm
06:58 AM 47.9°F8.8°C 42.4°F5.8°C 81% 10.1 mph SW16.3 kmh SW 12.0 mph19.3 kmh 30.33 in1027.1 mb 0.00 in0.0 mm 0.00 in0.0 mm 0.00 in0.0 mm
06:59 AM 48.0°F8.9°C 42.5°F5.8°C 81% 10.2 mph WSW16.4 kmh WSW 12.0 mph19.3 kmh 30.33 in1027.1 mb 0.00 in0.0 mm 0.00 in0.0 mm 0.00 in0.0 mm
07:00 AM 48.0°F8.9°C 42.5°F5.8°C 81% 8.9 mph SW14.3 kmh SW 12.0 mph19.3 kmh 30.33 in1027.1 mb 0.00 in0.0 mm 0.00 in0.0 mm 0.00 in0.0 mm
07:01 AM 48.0°F8.9°C 42.5°F5.8°C 81% 10.5 mph SW16.9 kmh SW 12.0 mph19.3 kmh 30.33 in1027.1 mb 0.00 in0.0 mm 0.00 in0.0 mm 0.00 in0.0 mm
07:02 AM 48.0°F8.9°C 42.5°F5.8°C 81% 9.0 mph SW14.5 kmh SW 12.0 mph19.3 kmh 30.33 in1027.1 mb 0.00 in0.0 mm 0.00 in0.0 mm 0.00 in0.0 mm
07:03 AM 48.0°F8.9°C 42.5°F5.8°C 81% 8.9 mph SW14.3 kmh SW 11.0 mph17.7 kmh 30.33 in1027.1 mb 0.00 in0.0 mm 0.00 in0.0 mm 0.00 in0.0 mm
07:04 AM 48.1°F8.9°C 42.5°F5.8°C 81% 8.8 mph SW14.2 kmh SW 11.0 mph17.7 kmh 30.33 in1027.1 mb 0.00 in0.0 mm 0.00 in0.0 mm 0.00 in0.0 mm
07:05 AM 48.0°F8.9°C 42.5°F5.8°C 81% 9.3 mph SW15.0 kmh SW 11.0 mph17.7 kmh 30.33 in1027.1 mb 0.00 in0.0 mm 0.00 in0.0 mm 0.00 in0.0 mm
07:06 AM 48.1°F8.9°C 42.5°F5.8°C 81% 9.0 mph SW14.5 kmh SW 10.0 mph16.1 kmh 30.33 in1027.1 mb 0.00 in0.0 mm 0.00 in0.0 mm 0.00 in0.0 mm
07:07 AM 48.0°F8.9°C 42.5°F5.8°C 81% 7.0 mph SW11.3 kmh SW 10.0 mph16.1 kmh 30.33 in1027.1 mb 0.00 in0.0 mm 0.00 in0.0 mm 0.00 in0.0 mm
07:08 AM 48.0°F8.9°C 42.5°F5.8°C 81% 7.0 mph SW11.3 kmh SW 8.0 mph12.9 kmh 30.33 in1027.1 mb 0.00 in0.0 mm 0.00 in0.0 mm 0.00 in0.0 mm
07:09 AM 48.1°F8.9°C 42.5°F5.8°C 81% 7.0 mph SW11.3 kmh SW 10.0 mph16.1 kmh 30.33 in1027.1 mb 0.00 in0.0 mm 0.00 in0.0 mm 0.00 in0.0 mm
07:10 AM 48.1°F8.9°C 42.5°F5.8°C 81% 8.0 mph SW12.9 kmh SW 10.0 mph16.1 kmh 30.33 in1027.1 mb 0.00 in0.0 mm 0.00 in0.0 mm 0.00 in0.0 mm
07:11 AM 48.1°F8.9°C 42.5°F5.8°C 81% 10.0 mph SW16.1 kmh SW 12.0 mph19.3 kmh 30.33 in1027.1 mb 0.00 in0.0 mm 0.00 in0.0 mm 0.00 in0.0 mm
07:12 AM 48.1°F8.9°C 42.5°F5.8°C 81% 7.9 mph SW12.7 kmh SW 11.0 mph17.7 kmh 30.33 in1027.1 mb 0.00 in0.0 mm 0.00 in0.0 mm 0.00 in0.0 mm
07:13 AM 48.2°F9.0°C 42.6°F5.9°C 81% 11.0 mph SW17.7 kmh SW 13.0 mph20.9 kmh 30.33 in1027.1 mb 0.00 in0.0 mm 0.00 in0.0 mm 0.00 in0.0 mm
07:14 AM 48.2°F9.0°C 42.6°F5.9°C 81% 10.0 mph SW16.1 kmh SW 12.0 mph19.3 kmh 30.33 in1027.1 mb 0.00 in0.0 mm 0.00 in0.0 mm 0.00 in0.0 mm
07:15 AM 48.3°F9.1°C 42.7°F5.9°C 81% 9.0 mph SW14.5 kmh SW 11.0 mph17.7 kmh 30.33 in1027.1 mb 0.00 in0.0 mm 0.00 in0.0 mm 0.00 in0.0 mm
07:16 AM 48.3°F9.1°C 42.7°F5.9°C 81% 9.0 mph SW14.5 kmh SW 11.0 mph17.7 kmh 30.33 in1027.1 mb 0.00 in0.0 mm 0.00 in0.0 mm 0.00 in0.0 mm
07:17 AM 48.4°F9.1°C 42.8°F6.0°C 81% 9.0 mph SW14.5 kmh SW 12.0 mph19.3 kmh 30.33 in1027.1 mb 0.00 in0.0 mm 0.00 in0.0 mm 0.00 in0.0 mm
07:18 AM 48.4°F9.1°C 42.8°F6.0°C 81% 10.6 mph SW17.1 kmh SW 13.0 mph20.9 kmh 30.33 in1027.1 mb 0.00 in0.0 mm 0.00 in0.0 mm 0.00 in0.0 mm
07:19 AM 48.4°F9.1°C 42.8°F6.0°C 81% 9.8 mph SW15.8 kmh SW 13.0 mph20.9 kmh 30.34 in1027.4 mb 0.00 in0.0 mm 0.00 in0.0 mm 0.00 in0.0 mm
07:20 AM 48.5°F9.2°C 42.9°F6.1°C 81% 8.1 mph SW13.0 kmh SW 12.0 mph19.3 kmh 30.34 in1027.4 mb 0.00 in0.0 mm 0.00 in0.0 mm 0.00 in0.0 mm
07:21 AM 48.6°F9.2°C 43.0°F6.1°C 81% 8.0 mph SW12.9 kmh SW 11.0 mph17.7 kmh 30.34 in1027.4 mb 0.00 in0.0 mm 0.00 in0.0 mm 0.00 in0.0 mm
07:22 AM 48.7°F9.3°C 43.1°F6.2°C 81% 8.0 mph SW12.9 kmh SW 12.0 mph19.3 kmh 30.34 in1027.4 mb 0.00 in0.0 mm 0.00 in0.0 mm 0.00 in0.0 mm
07:23 AM 48.8°F9.3°C 43.2°F6.2°C 81% 8.1 mph SW13.0 kmh SW 10.0 mph16.1 kmh 30.34 in1027.4 mb 0.00 in0.0 mm 0.00 in0.0 mm 0.00 in0.0 mm
07:24 AM 48.8°F9.3°C 42.9°F6.1°C 80% 9.6 mph SW15.4 kmh SW 12.0 mph19.3 kmh 30.34 in1027.4 mb 0.00 in0.0 mm 0.00 in0.0 mm 0.00 in0.0 mm
07:25 AM 48.8°F9.3°C 42.9°F6.1°C 80% 9.4 mph SW15.1 kmh SW 12.0 mph19.3 kmh 30.34 in1027.4 mb 0.00 in0.0 mm 0.00 in0.0 mm 0.00 in0.0 mm
07:26 AM 48.8°F9.3°C 42.6°F5.9°C 79% 9.7 mph SW15.6 kmh SW 12.0 mph19.3 kmh 30.34 in1027.4 mb 0.00 in0.0 mm 0.00 in0.0 mm 0.00 in0.0 mm
07:27 AM 48.8°F9.3°C 42.6°F5.9°C 79% 10.0 mph SW16.1 kmh SW 12.0 mph19.3 kmh 30.33 in1027.1 mb 0.00 in0.0 mm 0.00 in0.0 mm 0.00 in0.0 mm
07:28 AM 48.8°F9.3°C 42.9°F6.1°C 80% 11.6 mph SW18.7 kmh SW 14.0 mph22.5 kmh 30.33 in1027.1 mb 0.00 in0.0 mm 0.00 in0.0 mm 0.00 in0.0 mm
07:29 AM 48.8°F9.3°C 42.9°F6.1°C 80% 11.1 mph SW17.9 kmh SW 14.0 mph22.5 kmh 30.33 in1027.1 mb 0.00 in0.0 mm 0.00 in0.0 mm 0.00 in0.0 mm
07:30 AM 48.8°F9.3°C 42.9°F6.1°C 80% 10.7 mph SW17.2 kmh SW 13.0 mph20.9 kmh 30.33 in1027.1 mb 0.00 in0.0 mm 0.00 in0.0 mm 0.00 in0.0 mm
07:31 AM 48.8°F9.3°C 42.9°F6.1°C 80% 12.0 mph SW19.3 kmh SW 13.0 mph20.9 kmh 30.33 in1027.1 mb 0.00 in0.0 mm 0.00 in0.0 mm 0.00 in0.0 mm
07:32 AM 48.8°F9.3°C 42.9°F6.1°C 80% 10.0 mph SW16.1 kmh SW 12.0 mph19.3 kmh 30.33 in1027.1 mb 0.00 in0.0 mm 0.00 in0.0 mm 0.00 in0.0 mm
07:33 AM 48.7°F9.3°C 42.8°F6.0°C 80% 9.0 mph SW14.5 kmh SW 12.0 mph19.3 kmh 30.33 in1027.1 mb 0.00 in0.0 mm 0.00 in0.0 mm 0.00 in0.0 mm
07:34 AM 48.7°F9.3°C 42.8°F6.0°C 80% 9.0 mph SW14.5 kmh SW 11.0 mph17.7 kmh 30.33 in1027.1 mb 0.00 in0.0 mm 0.00 in0.0 mm 0.00 in0.0 mm
07:35 AM 48.7°F9.3°C 42.8°F6.0°C 80% 8.0 mph SW12.9 kmh SW 10.0 mph16.1 kmh 30.34 in1027.4 mb 0.00 in0.0 mm 0.00 in0.0 mm 0.00 in0.0 mm
07:36 AM 48.7°F9.3°C 42.8°F6.0°C 80% 9.3 mph SW15.0 kmh SW 12.0 mph19.3 kmh 30.33 in1027.1 mb 0.00 in0.0 mm 0.00 in0.0 mm 0.00 in0.0 mm
07:37 AM 48.8°F9.3°C 42.9°F6.1°C 80% 9.6 mph SW15.4 kmh SW 12.0 mph19.3 kmh 30.33 in1027.1 mb 0.00 in0.0 mm 0.00 in0.0 mm 0.00 in0.0 mm
07:38 AM 48.8°F9.3°C 42.9°F6.1°C 80% 7.0 mph SW11.3 kmh SW 9.0 mph14.5 kmh 30.33 in1027.1 mb 0.00 in0.0 mm 0.00 in0.0 mm 0.00 in0.0 mm
07:39 AM 48.9°F9.4°C 43.0°F6.1°C 80% 7.0 mph SW11.3 kmh SW 9.0 mph14.5 kmh 30.33 in1027.1 mb 0.00 in0.0 mm 0.00 in0.0 mm 0.00 in0.0 mm
07:40 AM 49.0°F9.4°C 43.1°F6.2°C 80% 6.0 mph SW9.7 kmh SW 10.0 mph16.1 kmh 30.34 in1027.4 mb 0.00 in0.0 mm 0.00 in0.0 mm 0.00 in0.0 mm
07:41 AM 49.0°F9.4°C 43.1°F6.2°C 80% 8.9 mph SW14.3 kmh SW 10.0 mph16.1 kmh 30.34 in1027.4 mb 0.00 in0.0 mm 0.00 in0.0 mm 0.00 in0.0 mm
07:42 AM 49.1°F9.5°C 43.2°F6.2°C 80% 7.0 mph SSW11.3 kmh SSW 9.0 mph14.5 kmh 30.34 in1027.4 mb 0.00 in0.0 mm 0.00 in0.0 mm 0.00 in0.0 mm
07:43 AM 49.2°F9.6°C 43.3°F6.3°C 80% 8.0 mph SW12.9 kmh SW 10.0 mph16.1 kmh 30.34 in1027.4 mb 0.00 in0.0 mm 0.00 in0.0 mm 0.00 in0.0 mm
07:44 AM 49.2°F9.6°C 43.3°F6.3°C 80% 6.9 mph SW11.1 kmh SW 7.0 mph11.3 kmh 30.34 in1027.4 mb 0.00 in0.0 mm 0.00 in0.0 mm 0.00 in0.0 mm
07:45 AM 49.3°F9.6°C 43.4°F6.3°C 80% 6.8 mph SW10.9 kmh SW 8.0 mph12.9 kmh 30.34 in1027.4 mb 0.00 in0.0 mm 0.00 in0.0 mm 0.00 in0.0 mm
07:46 AM 49.4°F9.7°C 43.5°F6.4°C 80% 7.4 mph SW11.9 kmh SW 8.0 mph12.9 kmh 30.34 in1027.4 mb 0.00 in0.0 mm 0.00 in0.0 mm 0.00 in0.0 mm
07:47 AM 49.5°F9.7°C 43.6°F6.4°C 80% 8.2 mph SW13.2 kmh SW 11.0 mph17.7 kmh 30.34 in1027.4 mb 0.00 in0.0 mm 0.00 in0.0 mm 0.00 in0.0 mm
07:48 AM 49.6°F9.8°C 43.4°F6.3°C 79% 7.5 mph SW12.1 kmh SW 11.0 mph17.7 kmh 30.34 in1027.4 mb 0.00 in0.0 mm 0.00 in0.0 mm 0.00 in0.0 mm
07:49 AM 49.6°F9.8°C 43.4°F6.3°C 79% 7.5 mph SW12.1 kmh SW 11.0 mph17.7 kmh 30.34 in1027.4 mb 0.00 in0.0 mm 0.00 in0.0 mm 0.00 in0.0 mm
07:50 AM 49.7°F9.8°C 43.5°F6.4°C 79% 7.6 mph SW12.2 kmh SW 11.0 mph17.7 kmh 30.34 in1027.4 mb 0.00 in0.0 mm 0.00 in0.0 mm 0.00 in0.0 mm
07:51 AM 49.9°F9.9°C 43.7°F6.5°C 79% 6.0 mph SW9.7 kmh SW 8.0 mph12.9 kmh 30.34 in1027.4 mb 0.00 in0.0 mm 0.00 in0.0 mm 0.00 in0.0 mm
07:52 AM 49.9°F9.9°C 43.7°F6.5°C 79% 8.0 mph SW12.9 kmh SW 10.0 mph16.1 kmh 30.34 in1027.4 mb 0.00 in0.0 mm 0.00 in0.0 mm 0.00 in0.0 mm
07:53 AM 49.9°F9.9°C 43.7°F6.5°C 79% 9.0 mph SW14.5 kmh SW 11.0 mph17.7 kmh 30.34 in1027.4 mb 0.00 in0.0 mm 0.00 in0.0 mm 0.00 in0.0 mm
07:54 AM 50.0°F10.0°C 43.7°F6.5°C 79% 8.5 mph SW13.7 kmh SW 10.0 mph16.1 kmh 30.34 in1027.4 mb 0.00 in0.0 mm 0.00 in0.0 mm 0.00 in0.0 mm
07:55 AM 50.0°F10.0°C 43.7°F6.5°C 79% 9.0 mph SW14.5 kmh SW 10.0 mph16.1 kmh 30.34 in1027.4 mb 0.00 in0.0 mm 0.00 in0.0 mm 0.00 in0.0 mm
07:56 AM 50.1°F10.1°C 43.8°F6.6°C 79% 8.0 mph SSW12.9 kmh SSW 11.0 mph17.7 kmh 30.34 in1027.4 mb 0.00 in0.0 mm 0.00 in0.0 mm 0.00 in0.0 mm
07:57 AM 50.1°F10.1°C 43.8°F6.6°C 79% 9.0 mph SW14.5 kmh SW 11.0 mph17.7 kmh 30.34 in1027.4 mb 0.00 in0.0 mm 0.00 in0.0 mm 0.00 in0.0 mm
07:58 AM 50.1°F10.1°C 43.8°F6.6°C 79% 8.0 mph SW12.9 kmh SW 11.0 mph17.7 kmh 30.34 in1027.4 mb 0.00 in0.0 mm 0.00 in0.0 mm 0.00 in0.0 mm
07:59 AM 50.1°F10.1°C 43.5°F6.4°C 78% 8.0 mph SW12.9 kmh SW 10.0 mph16.1 kmh 30.34 in1027.4 mb 0.00 in0.0 mm 0.00 in0.0 mm 0.00 in0.0 mm
08:00 AM 50.1°F10.1°C 43.8°F6.6°C 79% 8.0 mph SSW12.9 kmh SSW 10.0 mph16.1 kmh 30.34 in1027.4 mb 0.00 in0.0 mm 0.00 in0.0 mm 0.00 in0.0 mm
08:01 AM 50.1°F10.1°C 43.8°F6.6°C 79% 7.9 mph SW12.7 kmh SW 10.0 mph16.1 kmh 30.34 in1027.4 mb 0.00 in0.0 mm 0.00 in0.0 mm 0.00 in0.0 mm
08:02 AM 50.2°F10.1°C 43.9°F6.6°C 79% 7.0 mph SW11.3 kmh SW 9.0 mph14.5 kmh 30.34 in1027.4 mb 0.00 in0.0 mm 0.00 in0.0 mm 0.00 in0.0 mm
08:03 AM 50.3°F10.2°C 44.0°F6.7°C 79% 10.0 mph WSW16.1 kmh WSW 13.0 mph20.9 kmh 30.34 in1027.4 mb 0.00 in0.0 mm 0.00 in0.0 mm 0.00 in0.0 mm
08:04 AM 50.4°F10.2°C 44.1°F6.7°C 79% 8.9 mph SW14.3 kmh SW 10.0 mph16.1 kmh 30.35 in1027.8 mb 0.00 in0.0 mm 0.00 in0.0 mm 0.00 in0.0 mm
08:05 AM 50.4°F10.2°C 44.1°F6.7°C 79% 9.1 mph SW14.6 kmh SW 12.0 mph19.3 kmh 30.34 in1027.4 mb 0.00 in0.0 mm 0.00 in0.0 mm 0.00 in0.0 mm
08:06 AM 50.5°F10.3°C 44.2°F6.8°C 79% 8.8 mph SW14.2 kmh SW 12.0 mph19.3 kmh 30.35 in1027.8 mb 0.00 in0.0 mm 0.00 in0.0 mm 0.00 in0.0 mm
08:07 AM 50.6°F10.3°C 44.3°F6.8°C 79% 10.4 mph SW16.7 kmh SW 12.0 mph19.3 kmh 30.34 in1027.4 mb 0.00 in0.0 mm 0.00 in0.0 mm 0.00 in0.0 mm
08:08 AM 50.6°F10.3°C 44.3°F6.8°C 79% 9.0 mph SW14.5 kmh SW 12.0 mph19.3 kmh 30.34 in1027.4 mb 0.00 in0.0 mm 0.00 in0.0 mm 0.00 in0.0 mm
08:09 AM 50.7°F10.4°C 44.1°F6.7°C 78% 8.7 mph SW14.0 kmh SW 11.0 mph17.7 kmh 30.34 in1027.4 mb 0.00 in0.0 mm 0.00 in0.0 mm 0.00 in0.0 mm
08:10 AM 50.7°F10.4°C 44.1°F6.7°C 78% 10.0 mph SW16.1 kmh SW 11.0 mph17.7 kmh 30.35 in1027.8 mb 0.00 in0.0 mm 0.00 in0.0 mm 0.00 in0.0 mm
08:11 AM 50.7°F10.4°C 44.1°F6.7°C 78% 10.0 mph SW16.1 kmh SW 11.0 mph17.7 kmh 30.34 in1027.4 mb 0.00 in0.0 mm 0.00 in0.0 mm 0.00 in0.0 mm
08:12 AM 50.6°F10.3°C 44.0°F6.7°C 78% 10.0 mph SW16.1 kmh SW 11.0 mph17.7 kmh 30.35 in1027.8 mb 0.00 in0.0 mm 0.00 in0.0 mm 0.00 in0.0 mm
08:13 AM 50.7°F10.4°C 44.1°F6.7°C 78% 9.4 mph SW15.1 kmh SW 11.0 mph17.7 kmh 30.34 in1027.4 mb 0.00 in0.0 mm 0.00 in0.0 mm 0.00 in0.0 mm
08:14 AM 50.7°F10.4°C 44.1°F6.7°C 78% 7.0 mph SW11.3 kmh SW 10.0 mph16.1 kmh 30.34 in1027.4 mb 0.00 in0.0 mm 0.00 in0.0 mm 0.00 in0.0 mm
08:15 AM 50.9°F10.5°C 44.3°F6.8°C 78% 6.0 mph SW9.7 kmh SW 9.0 mph14.5 kmh 30.34 in1027.4 mb 0.00 in0.0 mm 0.00 in0.0 mm 0.00 in0.0 mm
08:16 AM 51.0°F10.6°C 44.4°F6.9°C 78% 9.0 mph SW14.5 kmh SW 10.0 mph16.1 kmh 30.34 in1027.4 mb 0.00 in0.0 mm 0.00 in0.0 mm 0.00 in0.0 mm
08:17 AM 51.1°F10.6°C 44.5°F6.9°C 78% 7.1 mph SW11.4 kmh SW 10.0 mph16.1 kmh 30.35 in1027.8 mb 0.00 in0.0 mm 0.00 in0.0 mm 0.00 in0.0 mm
08:18 AM 51.1°F10.6°C 44.5°F6.9°C 78% 7.0 mph SW11.3 kmh SW 8.0 mph12.9 kmh 30.34 in1027.4 mb 0.00 in0.0 mm 0.00 in0.0 mm 0.00 in0.0 mm
08:19 AM 51.2°F10.7°C 44.6°F7.0°C 78% 8.1 mph SW13.0 kmh SW 11.0 mph17.7 kmh 30.35 in1027.8 mb 0.00 in0.0 mm 0.00 in0.0 mm 0.00 in0.0 mm
08:20 AM 51.3°F10.7°C 44.7°F7.1°C 78% 8.8 mph SW14.2 kmh SW 11.0 mph17.7 kmh 30.35 in1027.8 mb 0.00 in0.0 mm 0.00 in0.0 mm 0.00 in0.0 mm
08:21 AM 51.3°F10.7°C 44.7°F7.1°C 78% 7.4 mph SW11.9 kmh SW 11.0 mph17.7 kmh 30.34 in1027.4 mb 0.00 in0.0 mm 0.00 in0.0 mm 0.00 in0.0 mm
08:22 AM 51.4°F10.8°C 44.8°F7.1°C 78% 9.2 mph SW14.8 kmh SW 12.0 mph19.3 kmh 30.35 in1027.8 mb 0.00 in0.0 mm 0.00 in0.0 mm 0.00 in0.0 mm
08:23 AM 51.4°F10.8°C 44.8°F7.1°C 78% 7.9 mph SW12.7 kmh SW 12.0 mph19.3 kmh 30.34 in1027.4 mb 0.00 in0.0 mm 0.00 in0.0 mm 0.00 in0.0 mm
08:24 AM 51.5°F10.8°C 44.5°F6.9°C 77% 8.6 mph SW13.8 kmh SW 10.0 mph16.1 kmh 30.34 in1027.4 mb 0.00 in0.0 mm 0.00 in0.0 mm 0.00 in0.0 mm
08:25 AM 51.6°F10.9°C 44.6°F7.0°C 77% 7.7 mph SW12.4 kmh SW 10.0 mph16.1 kmh 30.34 in1027.4 mb 0.00 in0.0 mm 0.00 in0.0 mm 0.00 in0.0 mm
08:26 AM 51.6°F10.9°C 44.6°F7.0°C 77% 7.3 mph SW11.7 kmh SW 9.0 mph14.5 kmh 30.35 in1027.8 mb 0.00 in0.0 mm 0.00 in0.0 mm 0.00 in0.0 mm
08:27 AM 51.7°F10.9°C 44.7°F7.1°C 77% 7.9 mph SW12.7 kmh SW 10.0 mph16.1 kmh 30.35 in1027.8 mb 0.00 in0.0 mm 0.00 in0.0 mm 0.00 in0.0 mm
08:28 AM 51.7°F10.9°C 44.7°F7.1°C 77% 8.7 mph SW14.0 kmh SW 11.0 mph17.7 kmh 30.35 in1027.8 mb 0.00 in0.0 mm 0.00 in0.0 mm 0.00 in0.0 mm
08:29 AM 51.8°F11.0°C 44.8°F7.1°C 77% 9.8 mph SW15.8 kmh SW 11.0 mph17.7 kmh 30.35 in1027.8 mb 0.00 in0.0 mm 0.00 in0.0 mm 0.00 in0.0 mm
08:30 AM 51.8°F11.0°C 44.8°F7.1°C 77% 9.1 mph SW14.6 kmh SW 11.0 mph17.7 kmh 30.35 in1027.8 mb 0.00 in0.0 mm 0.00 in0.0 mm 0.00 in0.0 mm
08:31 AM 51.9°F11.1°C 44.9°F7.2°C 77% 8.4 mph SW13.5 kmh SW 10.0 mph16.1 kmh 30.35 in1027.8 mb 0.00 in0.0 mm 0.00 in0.0 mm 0.00 in0.0 mm
08:32 AM 51.9°F11.1°C 44.6°F7.0°C 76% 9.4 mph SW15.1 kmh SW 11.0 mph17.7 kmh 30.35 in1027.8 mb 0.00 in0.0 mm 0.00 in0.0 mm 0.00 in0.0 mm
08:33 AM 51.9°F11.1°C 44.9°F7.2°C 77% 8.2 mph SW13.2 kmh SW 11.0 mph17.7 kmh 30.35 in1027.8 mb 0.00 in0.0 mm 0.00 in0.0 mm 0.00 in0.0 mm
08:34 AM 52.0°F11.1°C 44.7°F7.1°C 76% 8.3 mph SW13.4 kmh SW 10.0 mph16.1 kmh 30.35 in1027.8 mb 0.00 in0.0 mm 0.00 in0.0 mm 0.00 in0.0 mm
08:35 AM 52.0°F11.1°C 44.7°F7.1°C 76% 8.2 mph SW13.2 kmh SW 10.0 mph16.1 kmh 30.35 in1027.8 mb 0.00 in0.0 mm 0.00 in0.0 mm 0.00 in0.0 mm
08:36 AM 52.0°F11.1°C 44.7°F7.1°C 76% 9.9 mph SW15.9 kmh SW 11.0 mph17.7 kmh 30.35 in1027.8 mb 0.00 in0.0 mm 0.00 in0.0 mm 0.00 in0.0 mm
08:37 AM 52.1°F11.2°C 45.1°F7.3°C 77% 10.0 mph SW16.1 kmh SW 11.0 mph17.7 kmh 30.35 in1027.8 mb 0.00 in0.0 mm 0.00 in0.0 mm 0.00 in0.0 mm
08:38 AM 52.1°F11.2°C 45.1°F7.3°C 77% 9.0 mph SW14.5 kmh SW 10.0 mph16.1 kmh 30.35 in1027.8 mb 0.00 in0.0 mm 0.00 in0.0 mm 0.00 in0.0 mm
08:39 AM 52.1°F11.2°C 45.1°F7.3°C 77% 8.3 mph SW13.4 kmh SW 10.0 mph16.1 kmh 30.35 in1027.8 mb 0.00 in0.0 mm 0.00 in0.0 mm 0.00 in0.0 mm
08:40 AM 52.2°F11.2°C 45.2°F7.3°C 77% 9.9 mph SW15.9 kmh SW 11.0 mph17.7 kmh 30.35 in1027.8 mb 0.00 in0.0 mm 0.00 in0.0 mm 0.00 in0.0 mm
08:41 AM 52.2°F11.2°C 44.9°F7.2°C 76% 7.8 mph SW12.6 kmh SW 11.0 mph17.7 kmh 30.35 in1027.8 mb 0.00 in0.0 mm 0.00 in0.0 mm 0.00 in0.0 mm
08:42 AM 52.2°F11.2°C 45.2°F7.3°C 77% 8.9 mph SW14.3 kmh SW 10.0 mph16.1 kmh 30.35 in1027.8 mb 0.00 in0.0 mm 0.00 in0.0 mm 0.00 in0.0 mm
08:43 AM 52.3°F11.3°C 45.0°F7.2°C 76% 9.1 mph SW14.6 kmh SW 11.0 mph17.7 kmh 30.35 in1027.8 mb 0.00 in0.0 mm 0.00 in0.0 mm 0.00 in0.0 mm
08:44 AM 52.3°F11.3°C 45.0°F7.2°C 76% 8.4 mph SW13.5 kmh SW 11.0 mph17.7 kmh 30.35 in1027.8 mb 0.00 in0.0 mm 0.00 in0.0 mm 0.00 in0.0 mm
08:45 AM 52.3°F11.3°C 45.0°F7.2°C 76% 7.6 mph SW12.2 kmh SW 10.0 mph16.1 kmh 30.35 in1027.8 mb 0.00 in0.0 mm 0.00 in0.0 mm 0.00 in0.0 mm
08:46 AM 52.4°F11.3°C 45.1°F7.3°C 76% 6.2 mph SW10.0 kmh SW 9.0 mph14.5 kmh 30.35 in1027.8 mb 0.00 in0.0 mm 0.00 in0.0 mm 0.00 in0.0 mm
08:47 AM 52.5°F11.4°C 45.2°F7.3°C 76% 7.0 mph SW11.3 kmh SW 9.0 mph14.5 kmh 30.35 in1027.8 mb 0.00 in0.0 mm 0.00 in0.0 mm 0.00 in0.0 mm
08:48 AM 52.5°F11.4°C 45.2°F7.3°C 76% 8.0 mph WSW12.9 kmh WSW 9.0 mph14.5 kmh 30.35 in1027.8 mb 0.00 in0.0 mm 0.00 in0.0 mm 0.00 in0.0 mm
08:49 AM 52.5°F11.4°C 45.2°F7.3°C 76% 7.0 mph SW11.3 kmh SW 8.0 mph12.9 kmh 30.35 in1027.8 mb 0.00 in0.0 mm 0.00 in0.0 mm 0.00 in0.0 mm
08:50 AM 52.6°F11.4°C 45.3°F7.4°C 76% 6.5 mph SW10.5 kmh SW 9.0 mph14.5 kmh 30.35 in1027.8 mb 0.00 in0.0 mm 0.00 in0.0 mm 0.00 in0.0 mm
08:51 AM 52.7°F11.5°C 45.3°F7.4°C 76% 5.7 mph SW9.2 kmh SW 9.0 mph14.5 kmh 30.35 in1027.8 mb 0.00 in0.0 mm 0.00 in0.0 mm 0.00 in0.0 mm
08:52 AM 52.8°F11.6°C 45.4°F7.4°C 76% 7.0 mph SW11.3 kmh SW 8.0 mph12.9 kmh 30.35 in1027.8 mb 0.00 in0.0 mm 0.00 in0.0 mm 0.00 in0.0 mm
08:53 AM 52.8°F11.6°C 45.4°F7.4°C 76% 9.0 mph SW14.5 kmh SW 11.0 mph17.7 kmh 30.35 in1027.8 mb 0.00 in0.0 mm 0.00 in0.0 mm 0.00 in0.0 mm
08:54 AM 52.9°F11.6°C 45.2°F7.3°C 75% 6.0 mph SW9.7 kmh SW 8.0 mph12.9 kmh 30.35 in1027.8 mb 0.00 in0.0 mm 0.00 in0.0 mm 0.00 in0.0 mm
08:55 AM 53.0°F11.7°C 45.3°F7.4°C 75% 7.7 mph SW12.4 kmh SW 9.0 mph14.5 kmh 30.35 in1027.8 mb 0.00 in0.0 mm 0.00 in0.0 mm 0.00 in0.0 mm
08:56 AM 53.1°F11.7°C 45.4°F7.4°C 75% 7.7 mph SW12.4 kmh SW 11.0 mph17.7 kmh 30.35 in1027.8 mb 0.00 in0.0 mm 0.00 in0.0 mm 0.00 in0.0 mm
08:57 AM 53.1°F11.7°C 45.4°F7.4°C 75% 9.4 mph SW15.1 kmh SW 11.0 mph17.7 kmh 30.35 in1027.8 mb 0.00 in0.0 mm 0.00 in0.0 mm 0.00 in0.0 mm
08:58 AM 53.2°F11.8°C 45.1°F7.3°C 74% 8.3 mph SW13.4 kmh SW 11.0 mph17.7 kmh 30.35 in1027.8 mb 0.00 in0.0 mm 0.00 in0.0 mm 0.00 in0.0 mm
08:59 AM 53.3°F11.8°C 45.2°F7.3°C 74% 9.0 mph SW14.5 kmh SW 11.0 mph17.7 kmh 30.35 in1027.8 mb 0.00 in0.0 mm 0.00 in0.0 mm 0.00 in0.0 mm
09:00 AM 53.4°F11.9°C 45.7°F7.6°C 75% 7.9 mph SW12.7 kmh SW 11.0 mph17.7 kmh 30.35 in1027.8 mb 0.00 in0.0 mm 0.00 in0.0 mm 0.00 in0.0 mm
09:01 AM 53.5°F11.9°C 45.4°F7.4°C 74% 8.9 mph SW14.3 kmh SW 10.0 mph16.1 kmh 30.35 in1027.8 mb 0.00 in0.0 mm 0.00 in0.0 mm 0.00 in0.0 mm
09:02 AM 53.5°F11.9°C 45.4°F7.4°C 74% 8.9 mph SW14.3 kmh SW 11.0 mph17.7 kmh 30.35 in1027.8 mb 0.00 in0.0 mm 0.00 in0.0 mm 0.00 in0.0 mm
09:03 AM 53.6°F12.0°C 45.5°F7.5°C 74% 8.2 mph SW13.2 kmh SW 11.0 mph17.7 kmh 30.35 in1027.8 mb 0.00 in0.0 mm 0.00 in0.0 mm 0.00 in0.0 mm
09:04 AM 53.7°F12.1°C 45.6°F7.6°C 74% 9.1 mph SW14.6 kmh SW 11.0 mph17.7 kmh 30.35 in1027.8 mb 0.00 in0.0 mm 0.00 in0.0 mm 0.00 in0.0 mm
09:05 AM 53.8°F12.1°C 45.7°F7.6°C 74% 8.5 mph SW13.7 kmh SW 11.0 mph17.7 kmh 30.35 in1027.8 mb 0.00 in0.0 mm 0.00 in0.0 mm 0.00 in0.0 mm
09:06 AM 53.8°F12.1°C 45.7°F7.6°C 74% 10.0 mph SW16.1 kmh SW 12.0 mph19.3 kmh 30.35 in1027.8 mb 0.00 in0.0 mm 0.00 in0.0 mm 0.00 in0.0 mm
09:07 AM 53.9°F12.2°C 45.4°F7.4°C 73% 9.9 mph SW15.9 kmh SW 12.0 mph19.3 kmh 30.35 in1027.8 mb 0.00 in0.0 mm 0.00 in0.0 mm 0.00 in0.0 mm
09:08 AM 53.8°F12.1°C 45.0°F7.2°C 72% 10.3 mph WSW16.6 kmh WSW 12.0 mph19.3 kmh 30.35 in1027.8 mb 0.00 in0.0 mm 0.00 in0.0 mm 0.00 in0.0 mm
09:09 AM 53.9°F12.2°C 45.1°F7.3°C 72% 11.1 mph SW17.9 kmh SW 13.0 mph20.9 kmh 30.35 in1027.8 mb 0.00 in0.0 mm 0.00 in0.0 mm 0.00 in0.0 mm
09:10 AM 53.9°F12.2°C 45.4°F7.4°C 73% 10.8 mph SW17.4 kmh SW 13.0 mph20.9 kmh 30.35 in1027.8 mb 0.00 in0.0 mm 0.00 in0.0 mm 0.00 in0.0 mm
09:11 AM 54.0°F12.2°C 45.2°F7.3°C 72% 10.9 mph SW17.5 kmh SW 12.0 mph19.3 kmh 30.35 in1027.8 mb 0.00 in0.0 mm 0.00 in0.0 mm 0.00 in0.0 mm
09:12 AM 53.9°F12.2°C 45.1°F7.3°C 72% 10.7 mph SW17.2 kmh SW 12.0 mph19.3 kmh 30.35 in1027.8 mb 0.00 in0.0 mm 0.00 in0.0 mm 0.00 in0.0 mm
09:13 AM 54.0°F12.2°C 45.2°F7.3°C 72% 10.9 mph SW17.5 kmh SW 12.0 mph19.3 kmh 30.35 in1027.8 mb 0.00 in0.0 mm 0.00 in0.0 mm 0.00 in0.0 mm
09:14 AM 54.1°F12.3°C 45.6°F7.6°C 73% 10.4 mph SW16.7 kmh SW 12.0 mph19.3 kmh 30.35 in1027.8 mb 0.00 in0.0 mm 0.00 in0.0 mm 0.00 in0.0 mm
09:15 AM 54.1°F12.3°C 45.6°F7.6°C 73% 9.3 mph SW15.0 kmh SW 11.0 mph17.7 kmh 30.35 in1027.8 mb 0.00 in0.0 mm 0.00 in0.0 mm 0.00 in0.0 mm
09:16 AM 54.2°F12.3°C 45.7°F7.6°C 73% 9.9 mph SW15.9 kmh SW 11.0 mph17.7 kmh 30.35 in1027.8 mb 0.00 in0.0 mm 0.00 in0.0 mm 0.00 in0.0 mm
09:17 AM 54.2°F12.3°C 45.4°F7.4°C 72% 10.0 mph SW16.1 kmh SW 12.0 mph19.3 kmh 30.35 in1027.8 mb 0.00 in0.0 mm 0.00 in0.0 mm 0.00 in0.0 mm
09:18 AM 54.2°F12.3°C 45.4°F7.4°C 72% 9.7 mph SW15.6 kmh SW 12.0 mph19.3 kmh 30.35 in1027.8 mb 0.00 in0.0 mm 0.00 in0.0 mm 0.00 in0.0 mm
09:19 AM 54.3°F12.4°C 45.5°F7.5°C 72% 9.4 mph SW15.1 kmh SW 12.0 mph19.3 kmh 30.35 in1027.8 mb 0.00 in0.0 mm 0.00 in0.0 mm 0.00 in0.0 mm
09:20 AM 54.3°F12.4°C 45.5°F7.5°C 72% 9.7 mph SW15.6 kmh SW 12.0 mph19.3 kmh 30.36 in1028.1 mb 0.00 in0.0 mm 0.00 in0.0 mm 0.00 in0.0 mm
09:21 AM 54.4°F12.4°C 45.6°F7.6°C 72% 10.4 mph SW16.7 kmh SW 12.0 mph19.3 kmh 30.36 in1028.1 mb 0.00 in0.0 mm 0.00 in0.0 mm 0.00 in0.0 mm
09:22 AM 54.4°F12.4°C 45.6°F7.6°C 72% 10.8 mph SW17.4 kmh SW 12.0 mph19.3 kmh 30.36 in1028.1 mb 0.00 in0.0 mm 0.00 in0.0 mm 0.00 in0.0 mm
09:23 AM 54.4°F12.4°C 45.2°F7.3°C 71% 11.0 mph SW17.7 kmh SW 12.0 mph19.3 kmh 30.36 in1028.1 mb 0.00 in0.0 mm 0.00 in0.0 mm 0.00 in0.0 mm
09:24 AM 54.5°F12.5°C 45.3°F7.4°C 71% 8.0 mph SW12.9 kmh SW 10.0 mph16.1 kmh 30.36 in1028.1 mb 0.00 in0.0 mm 0.00 in0.0 mm 0.00 in0.0 mm
09:25 AM 54.6°F12.6°C 45.8°F7.7°C 72% 9.0 mph SW14.5 kmh SW 11.0 mph17.7 kmh 30.36 in1028.1 mb 0.00 in0.0 mm 0.00 in0.0 mm 0.00 in0.0 mm
09:26 AM 54.6°F12.6°C 45.4°F7.4°C 71% 9.1 mph SW14.6 kmh SW 11.0 mph17.7 kmh 30.35 in1027.8 mb 0.00 in0.0 mm 0.00 in0.0 mm 0.00 in0.0 mm
09:27 AM 54.7°F12.6°C 45.9°F7.7°C 72% 10.9 mph SW17.5 kmh SW 12.0 mph19.3 kmh 30.36 in1028.1 mb 0.00 in0.0 mm 0.00 in0.0 mm 0.00 in0.0 mm
09:28 AM 54.7°F12.6°C 45.9°F7.7°C 72% 10.1 mph SW16.3 kmh SW 12.0 mph19.3 kmh 30.36 in1028.1 mb 0.00 in0.0 mm 0.00 in0.0 mm 0.00 in0.0 mm
09:29 AM 54.7°F12.6°C 45.9°F7.7°C 72% 9.6 mph SW15.4 kmh SW 12.0 mph19.3 kmh 30.36 in1028.1 mb 0.00 in0.0 mm 0.00 in0.0 mm 0.00 in0.0 mm
09:30 AM 54.7°F12.6°C 45.9°F7.7°C 72% 9.8 mph SW15.8 kmh SW 13.0 mph20.9 kmh 30.36 in1028.1 mb 0.00 in0.0 mm 0.00 in0.0 mm 0.00 in0.0 mm
09:31 AM 54.7°F12.6°C 45.5°F7.5°C 71% 11.1 mph SW17.9 kmh SW 13.0 mph20.9 kmh 30.36 in1028.1 mb 0.00 in0.0 mm 0.00 in0.0 mm 0.00 in0.0 mm
09:32 AM 54.8°F12.7°C 45.6°F7.6°C 71% 10.7 mph SW17.2 kmh SW 12.0 mph19.3 kmh 30.36 in1028.1 mb 0.00 in0.0 mm 0.00 in0.0 mm 0.00 in0.0 mm
09:33 AM 54.8°F12.7°C 45.6°F7.6°C 71% 9.1 mph SW14.6 kmh SW 12.0 mph19.3 kmh 30.36 in1028.1 mb 0.00 in0.0 mm 0.00 in0.0 mm 0.00 in0.0 mm
09:34 AM 54.8°F12.7°C 45.6°F7.6°C 71% 10.9 mph SW17.5 kmh SW 12.0 mph19.3 kmh 30.36 in1028.1 mb 0.00 in0.0 mm 0.00 in0.0 mm 0.00 in0.0 mm
09:35 AM 54.9°F12.7°C 46.0°F7.8°C 72% 10.5 mph SW16.9 kmh SW 12.0 mph19.3 kmh 30.36 in1028.1 mb 0.00 in0.0 mm 0.00 in0.0 mm 0.00 in0.0 mm
09:36 AM 54.9°F12.7°C 45.7°F7.6°C 71% 11.6 mph WSW18.7 kmh WSW 12.0 mph19.3 kmh 30.36 in1028.1 mb 0.00 in0.0 mm 0.00 in0.0 mm 0.00 in0.0 mm
09:37 AM 54.9°F12.7°C 46.0°F7.8°C 72% 10.3 mph SW16.6 kmh SW 12.0 mph19.3 kmh 30.35 in1027.8 mb 0.00 in0.0 mm 0.00 in0.0 mm 0.00 in0.0 mm
09:38 AM 55.0°F12.8°C 46.1°F7.8°C 72% 11.4 mph SW18.3 kmh SW 13.0 mph20.9 kmh 30.36 in1028.1 mb 0.00 in0.0 mm 0.00 in0.0 mm 0.00 in0.0 mm
09:39 AM 54.9°F12.7°C 45.7°F7.6°C 71% 12.3 mph SW19.8 kmh SW 14.0 mph22.5 kmh 30.36 in1028.1 mb 0.00 in0.0 mm 0.00 in0.0 mm 0.00 in0.0 mm
09:40 AM 54.9°F12.7°C 45.3°F7.4°C 70% 11.4 mph SW18.3 kmh SW 14.0 mph22.5 kmh 30.36 in1028.1 mb 0.00 in0.0 mm 0.00 in0.0 mm 0.00 in0.0 mm
09:41 AM 55.0°F12.8°C 45.8°F7.7°C 71% 11.0 mph SW17.7 kmh SW 13.0 mph20.9 kmh 30.36 in1028.1 mb 0.00 in0.0 mm 0.00 in0.0 mm 0.00 in0.0 mm
09:42 AM 55.0°F12.8°C 45.8°F7.7°C 71% 9.0 mph WSW14.5 kmh WSW 12.0 mph19.3 kmh 30.36 in1028.1 mb 0.00 in0.0 mm 0.00 in0.0 mm 0.00 in0.0 mm
09:43 AM 55.0°F12.8°C 45.8°F7.7°C 71% 11.4 mph SW18.3 kmh SW 12.0 mph19.3 kmh 30.36 in1028.1 mb 0.00 in0.0 mm 0.00 in0.0 mm 0.00 in0.0 mm
09:44 AM 55.0°F12.8°C 45.8°F7.7°C 71% 11.2 mph SW18.0 kmh SW 13.0 mph20.9 kmh 30.36 in1028.1 mb 0.00 in0.0 mm 0.00 in0.0 mm 0.00 in0.0 mm
09:45 AM 55.1°F12.8°C 45.9°F7.7°C 71% 11.8 mph SW19.0 kmh SW 14.0 mph22.5 kmh 30.35 in1027.8 mb 0.00 in0.0 mm 0.00 in0.0 mm 0.00 in0.0 mm
09:46 AM 55.1°F12.8°C 45.9°F7.7°C 71% 11.1 mph SW17.9 kmh SW 14.0 mph22.5 kmh 30.35 in1027.8 mb 0.00 in0.0 mm 0.00 in0.0 mm 0.00 in0.0 mm
09:47 AM 55.2°F12.9°C 46.0°F7.8°C 71% 10.6 mph SW17.1 kmh SW 13.0 mph20.9 kmh 30.35 in1027.8 mb 0.00 in0.0 mm 0.00 in0.0 mm 0.00 in0.0 mm
09:48 AM 55.3°F12.9°C 46.1°F7.8°C 71% 9.5 mph SW15.3 kmh SW 12.0 mph19.3 kmh 30.35 in1027.8 mb 0.00 in0.0 mm 0.00 in0.0 mm 0.00 in0.0 mm
09:49 AM 55.2°F12.9°C 46.0°F7.8°C 71% 10.9 mph SW17.5 kmh SW 12.0 mph19.3 kmh 30.36 in1028.1 mb 0.00 in0.0 mm 0.00 in0.0 mm 0.00 in0.0 mm
09:50 AM 55.3°F12.9°C 46.1°F7.8°C 71% 10.7 mph SW17.2 kmh SW 12.0 mph19.3 kmh 30.36 in1028.1 mb 0.00 in0.0 mm 0.00 in0.0 mm 0.00 in0.0 mm
09:51 AM 55.3°F12.9°C 46.1°F7.8°C 71% 7.8 mph SW12.6 kmh SW 12.0 mph19.3 kmh 30.36 in1028.1 mb 0.00 in0.0 mm 0.00 in0.0 mm 0.00 in0.0 mm
09:52 AM 55.4°F13.0°C 46.2°F7.9°C 71% 10.7 mph SW17.2 kmh SW 12.0 mph19.3 kmh 30.36 in1028.1 mb 0.00 in0.0 mm 0.00 in0.0 mm 0.00 in0.0 mm
09:53 AM 55.5°F13.1°C 46.3°F7.9°C 71% 11.0 mph SW17.7 kmh SW 13.0 mph20.9 kmh 30.36 in1028.1 mb 0.00 in0.0 mm 0.00 in0.0 mm 0.00 in0.0 mm
09:54 AM 55.4°F13.0°C 45.8°F7.7°C 70% 10.6 mph SW17.1 kmh SW 13.0 mph20.9 kmh 30.36 in1028.1 mb 0.00 in0.0 mm 0.00 in0.0 mm 0.00 in0.0 mm
09:55 AM 55.5°F13.1°C 45.9°F7.7°C 70% 10.0 mph SW16.1 kmh SW 13.0 mph20.9 kmh 30.36 in1028.1 mb 0.00 in0.0 mm 0.00 in0.0 mm 0.00 in0.0 mm
09:56 AM 55.5°F13.1°C 45.9°F7.7°C 70% 9.5 mph SW15.3 kmh SW 12.0 mph19.3 kmh 30.36 in1028.1 mb 0.00 in0.0 mm 0.00 in0.0 mm 0.00 in0.0 mm
09:57 AM 55.6°F13.1°C 46.0°F7.8°C 70% 9.2 mph SW14.8 kmh SW 12.0 mph19.3 kmh 30.36 in1028.1 mb 0.00 in0.0 mm 0.00 in0.0 mm 0.00 in0.0 mm
09:58 AM 55.7°F13.2°C 46.1°F7.8°C 70% 10.1 mph SW16.3 kmh SW 12.0 mph19.3 kmh 30.36 in1028.1 mb 0.00 in0.0 mm 0.00 in0.0 mm 0.00 in0.0 mm
09:59 AM 55.7°F13.2°C 46.1°F7.8°C 70% 9.7 mph SW15.6 kmh SW 12.0 mph19.3 kmh 30.36 in1028.1 mb 0.00 in0.0 mm 0.00 in0.0 mm 0.00 in0.0 mm
10:00 AM 55.8°F13.2°C 46.2°F7.9°C 70% 10.7 mph SW17.2 kmh SW 13.0 mph20.9 kmh 30.36 in1028.1 mb 0.00 in0.0 mm 0.00 in0.0 mm 0.00 in0.0 mm
10:01 AM 55.7°F13.2°C 46.1°F7.8°C 70% 10.5 mph SW16.9 kmh SW 13.0 mph20.9 kmh 30.36 in1028.1 mb 0.00 in0.0 mm 0.00 in0.0 mm 0.00 in0.0 mm
10:02 AM 55.8°F13.2°C 46.2°F7.9°C 70% 9.9 mph SW15.9 kmh SW 13.0 mph20.9 kmh 30.36 in1028.1 mb 0.00 in0.0 mm 0.00 in0.0 mm 0.00 in0.0 mm
10:03 AM 55.9°F13.3°C 46.3°F7.9°C 70% 12.8 mph SW20.6 kmh SW 14.0 mph22.5 kmh 30.36 in1028.1 mb 0.00 in0.0 mm 0.00 in0.0 mm 0.00 in0.0 mm
10:04 AM 55.9°F13.3°C 46.3°F7.9°C 70% 11.7 mph SW18.8 kmh SW 14.0 mph22.5 kmh 30.36 in1028.1 mb 0.00 in0.0 mm 0.00 in0.0 mm 0.00 in0.0 mm
10:05 AM 55.9°F13.3°C 46.3°F7.9°C 70% 11.6 mph SW18.7 kmh SW 14.0 mph22.5 kmh 30.36 in1028.1 mb 0.00 in0.0 mm 0.00 in0.0 mm 0.00 in0.0 mm
10:06 AM 56.0°F13.3°C 46.4°F8.0°C 70% 10.3 mph SW16.6 kmh SW 13.0 mph20.9 kmh 30.36 in1028.1 mb 0.00 in0.0 mm 0.00 in0.0 mm 0.00 in0.0 mm
10:07 AM 56.0°F13.3°C 46.0°F7.8°C 69% 10.3 mph SW16.6 kmh SW 12.0 mph19.3 kmh 30.36 in1028.1 mb 0.00 in0.0 mm 0.00 in0.0 mm 0.00 in0.0 mm
10:08 AM 56.0°F13.3°C 46.0°F7.8°C 69% 11.5 mph SW18.5 kmh SW 13.0 mph20.9 kmh 30.36 in1028.1 mb 0.00 in0.0 mm 0.00 in0.0 mm 0.00 in0.0 mm
10:09 AM 56.0°F13.3°C 46.0°F7.8°C 69% 11.0 mph SW17.7 kmh SW 12.0 mph19.3 kmh 30.36 in1028.1 mb 0.00 in0.0 mm 0.00 in0.0 mm 0.00 in0.0 mm
10:10 AM 56.0°F13.3°C 46.0°F7.8°C 69% 12.0 mph SW19.3 kmh SW 14.0 mph22.5 kmh 30.36 in1028.1 mb 0.00 in0.0 mm 0.00 in0.0 mm 0.00 in0.0 mm
10:11 AM 56.1°F13.4°C 46.1°F7.8°C 69% 10.0 mph SW16.1 kmh SW 12.0 mph19.3 kmh 30.36 in1028.1 mb 0.00 in0.0 mm 0.00 in0.0 mm 0.00 in0.0 mm
10:12 AM 56.0°F13.3°C 46.0°F7.8°C 69% 10.3 mph SW16.6 kmh SW 13.0 mph20.9 kmh 30.36 in1028.1 mb 0.00 in0.0 mm 0.00 in0.0 mm 0.00 in0.0 mm
10:13 AM 56.1°F13.4°C 46.1°F7.8°C 69% 11.8 mph SW19.0 kmh SW 13.0 mph20.9 kmh 30.36 in1028.1 mb 0.00 in0.0 mm 0.00 in0.0 mm 0.00 in0.0 mm
10:14 AM 56.1°F13.4°C 46.1°F7.8°C 69% 11.5 mph SW18.5 kmh SW 13.0 mph20.9 kmh 30.36 in1028.1 mb 0.00 in0.0 mm 0.00 in0.0 mm 0.00 in0.0 mm
10:15 AM 56.2°F13.4°C 46.2°F7.9°C 69% 11.2 mph SW18.0 kmh SW 14.0 mph22.5 kmh 30.36 in1028.1 mb 0.00 in0.0 mm 0.00 in0.0 mm 0.00 in0.0 mm
10:16 AM 56.3°F13.5°C 46.3°F7.9°C 69% 12.1 mph SW19.5 kmh SW 14.0 mph22.5 kmh 30.36 in1028.1 mb 0.00 in0.0 mm 0.00 in0.0 mm 0.00 in0.0 mm
10:17 AM 56.3°F13.5°C 46.3°F7.9°C 69% 10.1 mph SW16.3 kmh SW 14.0 mph22.5 kmh 30.36 in1028.1 mb 0.00 in0.0 mm 0.00 in0.0 mm 0.00 in0.0 mm
10:18 AM 56.3°F13.5°C 46.3°F7.9°C 69% 10.6 mph SW17.1 kmh SW 12.0 mph19.3 kmh 30.36 in1028.1 mb 0.00 in0.0 mm 0.00 in0.0 mm 0.00 in0.0 mm
10:19 AM 56.4°F13.6°C 46.4°F8.0°C 69% 10.0 mph SW16.1 kmh SW 12.0 mph19.3 kmh 30.36 in1028.1 mb 0.00 in0.0 mm 0.00 in0.0 mm 0.00 in0.0 mm
10:20 AM 56.4°F13.6°C 46.4°F8.0°C 69% 11.0 mph WSW17.7 kmh WSW 13.0 mph20.9 kmh 30.36 in1028.1 mb 0.00 in0.0 mm 0.00 in0.0 mm 0.00 in0.0 mm
10:21 AM 56.4°F13.6°C 46.4°F8.0°C 69% 10.6 mph SW17.1 kmh SW 12.0 mph19.3 kmh 30.36 in1028.1 mb 0.00 in0.0 mm 0.00 in0.0 mm 0.00 in0.0 mm
10:22 AM 56.4°F13.6°C 46.4°F8.0°C 69% 11.1 mph SW17.9 kmh SW 13.0 mph20.9 kmh 30.36 in1028.1 mb 0.00 in0.0 mm 0.00 in0.0 mm 0.00 in0.0 mm
10:23 AM 56.3°F13.5°C 46.3°F7.9°C 69% 12.3 mph WSW19.8 kmh WSW 14.0 mph22.5 kmh 30.36 in1028.1 mb 0.00 in0.0 mm 0.00 in0.0 mm 0.00 in0.0 mm
10:24 AM 56.3°F13.5°C 46.3°F7.9°C 69% 11.4 mph WSW18.3 kmh WSW 13.0 mph20.9 kmh 30.36 in1028.1 mb 0.00 in0.0 mm 0.00 in0.0 mm 0.00 in0.0 mm
10:25 AM 56.3°F13.5°C 46.3°F7.9°C 69% 12.0 mph WSW19.3 kmh WSW 13.0 mph20.9 kmh 30.36 in1028.1 mb 0.00 in0.0 mm 0.00 in0.0 mm 0.00 in0.0 mm
10:26 AM 56.3°F13.5°C 45.9°F7.7°C 68% 10.0 mph WSW16.1 kmh WSW 12.0 mph19.3 kmh 30.36 in1028.1 mb 0.00 in0.0 mm 0.00 in0.0 mm 0.00 in0.0 mm
10:27 AM 56.3°F13.5°C 46.3°F7.9°C 69% 10.1 mph SW16.3 kmh SW 11.0 mph17.7 kmh 30.36 in1028.1 mb 0.00 in0.0 mm 0.00 in0.0 mm 0.00 in0.0 mm
10:28 AM 56.3°F13.5°C 46.6°F8.1°C 70% 9.3 mph SW15.0 kmh SW 11.0 mph17.7 kmh 30.36 in1028.1 mb 0.00 in0.0 mm 0.00 in0.0 mm 0.00 in0.0 mm
10:29 AM 56.4°F13.6°C 46.7°F8.2°C 70% 10.7 mph WSW17.2 kmh WSW 13.0 mph20.9 kmh 30.36 in1028.1 mb 0.00 in0.0 mm 0.00 in0.0 mm 0.00 in0.0 mm
10:30 AM 56.4°F13.6°C 46.4°F8.0°C 69% 7.5 mph SW12.1 kmh SW 13.0 mph20.9 kmh 30.36 in1028.1 mb 0.00 in0.0 mm 0.00 in0.0 mm 0.00 in0.0 mm
10:31 AM 56.6°F13.7°C 46.9°F8.3°C 70% 8.9 mph WSW14.3 kmh WSW 11.0 mph17.7 kmh 30.36 in1028.1 mb 0.00 in0.0 mm 0.00 in0.0 mm 0.00 in0.0 mm
10:32 AM 56.6°F13.7°C 46.5°F8.1°C 69% 9.0 mph SW14.5 kmh SW 11.0 mph17.7 kmh 30.36 in1028.1 mb 0.00 in0.0 mm 0.00 in0.0 mm 0.00 in0.0 mm
10:33 AM 56.7°F13.7°C 46.6°F8.1°C 69% 10.0 mph SW16.1 kmh SW 12.0 mph19.3 kmh 30.36 in1028.1 mb 0.00 in0.0 mm 0.00 in0.0 mm 0.00 in0.0 mm
10:34 AM 56.7°F13.7°C 46.6°F8.1°C 69% 10.0 mph SW16.1 kmh SW 12.0 mph19.3 kmh 30.36 in1028.1 mb 0.00 in0.0 mm 0.00 in0.0 mm 0.00 in0.0 mm
10:35 AM 56.7°F13.7°C 46.3°F7.9°C 68% 10.6 mph SW17.1 kmh SW 12.0 mph19.3 kmh 30.36 in1028.1 mb 0.00 in0.0 mm 0.00 in0.0 mm 0.00 in0.0 mm
10:36 AM 56.7°F13.7°C 46.6°F8.1°C 69% 11.5 mph SW18.5 kmh SW 13.0 mph20.9 kmh 30.36 in1028.1 mb 0.00 in0.0 mm 0.00 in0.0 mm 0.00 in0.0 mm
10:37 AM 56.7°F13.7°C 46.6°F8.1°C 69% 10.6 mph SW17.1 kmh SW 13.0 mph20.9 kmh 30.36 in1028.1 mb 0.00 in0.0 mm 0.00 in0.0 mm 0.00 in0.0 mm
10:38 AM 56.7°F13.7°C 46.6°F8.1°C 69% 8.5 mph SW13.7 kmh SW 12.0 mph19.3 kmh 30.36 in1028.1 mb 0.00 in0.0 mm 0.00 in0.0 mm 0.00 in0.0 mm
10:39 AM 56.8°F13.8°C 46.7°F8.2°C 69% 7.1 mph SW11.4 kmh SW 11.0 mph17.7 kmh 30.36 in1028.1 mb 0.00 in0.0 mm 0.00 in0.0 mm 0.00 in0.0 mm
10:40 AM 56.9°F13.8°C 46.4°F8.0°C 68% 9.8 mph SW15.8 kmh SW 12.0 mph19.3 kmh 30.36 in1028.1 mb 0.00 in0.0 mm 0.00 in0.0 mm 0.00 in0.0 mm
10:41 AM 57.0°F13.9°C 46.9°F8.3°C 69% 10.0 mph SW16.1 kmh SW 12.0 mph19.3 kmh 30.36 in1028.1 mb 0.00 in0.0 mm 0.00 in0.0 mm 0.00 in0.0 mm
10:42 AM 57.0°F13.9°C 46.5°F8.1°C 68% 9.9 mph WSW15.9 kmh WSW 11.0 mph17.7 kmh 30.36 in1028.1 mb 0.00 in0.0 mm 0.00 in0.0 mm 0.00 in0.0 mm
10:43 AM 57.1°F13.9°C 46.2°F7.9°C 67% 8.9 mph SW14.3 kmh SW 11.0 mph17.7 kmh 30.36 in1028.1 mb 0.00 in0.0 mm 0.00 in0.0 mm 0.00 in0.0 mm
10:44 AM 57.1°F13.9°C 46.6°F8.1°C 68% 8.5 mph SW13.7 kmh SW 11.0 mph17.7 kmh 30.36 in1028.1 mb 0.00 in0.0 mm 0.00 in0.0 mm 0.00 in0.0 mm
10:45 AM 57.1°F13.9°C 46.6°F8.1°C 68% 9.5 mph WSW15.3 kmh WSW 12.0 mph19.3 kmh 30.36 in1028.1 mb 0.00 in0.0 mm 0.00 in0.0 mm 0.00 in0.0 mm
10:46 AM 57.1°F13.9°C 46.2°F7.9°C 67% 10.5 mph WSW16.9 kmh WSW 13.0 mph20.9 kmh 30.36 in1028.1 mb 0.00 in0.0 mm 0.00 in0.0 mm 0.00 in0.0 mm
10:47 AM 57.0°F13.9°C 46.2°F7.9°C 67% 11.9 mph WSW19.2 kmh WSW 13.0 mph20.9 kmh 30.36 in1028.1 mb 0.00 in0.0 mm 0.00 in0.0 mm 0.00 in0.0 mm
10:48 AM 57.0°F13.9°C 46.2°F7.9°C 67% 10.5 mph WSW16.9 kmh WSW 13.0 mph20.9 kmh 30.36 in1028.1 mb 0.00 in0.0 mm 0.00 in0.0 mm 0.00 in0.0 mm
10:49 AM 57.0°F13.9°C 46.2°F7.9°C 67% 10.0 mph WSW16.1 kmh WSW 12.0 mph19.3 kmh 30.36 in1028.1 mb 0.00 in0.0 mm 0.00 in0.0 mm 0.00 in0.0 mm
10:50 AM 56.9°F13.8°C 46.4°F8.0°C 68% 10.0 mph WSW16.1 kmh WSW 12.0 mph19.3 kmh 30.36 in1028.1 mb 0.00 in0.0 mm 0.00 in0.0 mm 0.00 in0.0 mm
10:51 AM 56.9°F13.8°C 46.1°F7.8°C 67% 11.9 mph WSW19.2 kmh WSW 13.0 mph20.9 kmh 30.36 in1028.1 mb 0.00 in0.0 mm 0.00 in0.0 mm 0.00 in0.0 mm
10:52 AM 56.9°F13.8°C 46.1°F7.8°C 67% 11.2 mph WSW18.0 kmh WSW 13.0 mph20.9 kmh 30.36 in1028.1 mb 0.00 in0.0 mm 0.00 in0.0 mm 0.00 in0.0 mm
10:53 AM 56.8°F13.8°C 46.4°F8.0°C 68% 11.6 mph WSW18.7 kmh WSW 13.0 mph20.9 kmh 30.36 in1028.1 mb 0.00 in0.0 mm 0.00 in0.0 mm 0.00 in0.0 mm
10:54 AM 56.7°F13.7°C 45.9°F7.7°C 67% 11.6 mph WSW18.7 kmh WSW 13.0 mph20.9 kmh 30.36 in1028.1 mb 0.00 in0.0 mm 0.00 in0.0 mm 0.00 in0.0 mm
10:55 AM 56.5°F13.6°C 45.7°F7.6°C 67% 10.5 mph WSW16.9 kmh WSW 13.0 mph20.9 kmh 30.36 in1028.1 mb 0.00 in0.0 mm 0.00 in0.0 mm 0.00 in0.0 mm
10:56 AM 56.5°F13.6°C 45.7°F7.6°C 67% 8.7 mph WSW14.0 kmh WSW 12.0 mph19.3 kmh 30.36 in1028.1 mb 0.00 in0.0 mm 0.00 in0.0 mm 0.00 in0.0 mm
10:57 AM 56.6°F13.7°C 46.2°F7.9°C 68% 9.3 mph WSW15.0 kmh WSW 11.0 mph17.7 kmh 30.36 in1028.1 mb 0.00 in0.0 mm 0.00 in0.0 mm 0.00 in0.0 mm
10:58 AM 56.5°F13.6°C 46.1°F7.8°C 68% 9.3 mph WSW15.0 kmh WSW 12.0 mph19.3 kmh 30.36 in1028.1 mb 0.00 in0.0 mm 0.00 in0.0 mm 0.00 in0.0 mm
10:59 AM 56.5°F13.6°C 45.7°F7.6°C 67% 11.1 mph WSW17.9 kmh WSW 13.0 mph20.9 kmh 30.36 in1028.1 mb 0.00 in0.0 mm 0.00 in0.0 mm 0.00 in0.0 mm
11:00 AM 56.4°F13.6°C 45.2°F7.3°C 66% 12.0 mph WSW19.3 kmh WSW 13.0 mph20.9 kmh 30.36 in1028.1 mb 0.00 in0.0 mm 0.00 in0.0 mm 0.00 in0.0 mm
11:01 AM 56.3°F13.5°C 45.5°F7.5°C 67% 10.4 mph WSW16.7 kmh WSW 13.0 mph20.9 kmh 30.36 in1028.1 mb 0.00 in0.0 mm 0.00 in0.0 mm 0.00 in0.0 mm
11:02 AM 56.4°F13.6°C 45.6°F7.6°C 67% 9.8 mph WSW15.8 kmh WSW 11.0 mph17.7 kmh 30.36 in1028.1 mb 0.00 in0.0 mm 0.00 in0.0 mm 0.00 in0.0 mm
11:03 AM 56.4°F13.6°C 45.6°F7.6°C 67% 10.0 mph WSW16.1 kmh WSW 12.0 mph19.3 kmh 30.36 in1028.1 mb 0.00 in0.0 mm 0.00 in0.0 mm 0.00 in0.0 mm
11:04 AM 56.4°F13.6°C 46.0°F7.8°C 68% 11.0 mph WSW17.7 kmh WSW 13.0 mph20.9 kmh 30.36 in1028.1 mb 0.00 in0.0 mm 0.00 in0.0 mm 0.00 in0.0 mm
11:05 AM 56.4°F13.6°C 45.6°F7.6°C 67% 12.0 mph WSW19.3 kmh WSW 13.0 mph20.9 kmh 30.36 in1028.1 mb 0.00 in0.0 mm 0.00 in0.0 mm 0.00 in0.0 mm
11:06 AM 56.4°F13.6°C 45.6°F7.6°C 67% 10.4 mph WSW16.7 kmh WSW 11.0 mph17.7 kmh 30.36 in1028.1 mb 0.00 in0.0 mm 0.00 in0.0 mm 0.00 in0.0 mm
11:07 AM 56.6°F13.7°C 46.2°F7.9°C 68% 9.5 mph WSW15.3 kmh WSW 11.0 mph17.7 kmh 30.36 in1028.1 mb 0.00 in0.0 mm 0.00 in0.0 mm 0.00 in0.0 mm
11:08 AM 56.7°F13.7°C 46.3°F7.9°C 68% 9.5 mph SW15.3 kmh SW 11.0 mph17.7 kmh 30.36 in1028.1 mb 0.00 in0.0 mm 0.00 in0.0 mm 0.00 in0.0 mm
11:09 AM 56.8°F13.8°C 46.4°F8.0°C 68% 9.0 mph SW14.5 kmh SW 10.0 mph16.1 kmh 30.36 in1028.1 mb 0.00 in0.0 mm 0.00 in0.0 mm 0.00 in0.0 mm
11:10 AM 56.9°F13.8°C 46.1°F7.8°C 67% 8.0 mph SW12.9 kmh SW 10.0 mph16.1 kmh 30.36 in1028.1 mb 0.00 in0.0 mm 0.00 in0.0 mm 0.00 in0.0 mm
11:11 AM 57.1°F13.9°C 46.2°F7.9°C 67% 9.5 mph SW15.3 kmh SW 10.0 mph16.1 kmh 30.36 in1028.1 mb 0.00 in0.0 mm 0.00 in0.0 mm 0.00 in0.0 mm
11:12 AM 57.3°F14.1°C 46.4°F8.0°C 67% 9.3 mph SW15.0 kmh SW 11.0 mph17.7 kmh 30.36 in1028.1 mb 0.00 in0.0 mm 0.00 in0.0 mm 0.00 in0.0 mm
11:13 AM 57.3°F14.1°C 46.4°F8.0°C 67% 10.2 mph SW16.4 kmh SW 12.0 mph19.3 kmh 30.36 in1028.1 mb 0.00 in0.0 mm 0.00 in0.0 mm 0.00 in0.0 mm
11:14 AM 57.4°F14.1°C 46.1°F7.8°C 66% 9.6 mph SW15.4 kmh SW 12.0 mph19.3 kmh 30.36 in1028.1 mb 0.00 in0.0 mm 0.00 in0.0 mm 0.00 in0.0 mm
11:15 AM 57.5°F14.2°C 46.2°F7.9°C 66% 11.0 mph WSW17.7 kmh WSW 13.0 mph20.9 kmh 30.36 in1028.1 mb 0.00 in0.0 mm 0.00 in0.0 mm 0.00 in0.0 mm
11:16 AM 57.4°F14.1°C 46.1°F7.8°C 66% 12.0 mph WSW19.3 kmh WSW 13.0 mph20.9 kmh 30.36 in1028.1 mb 0.00 in0.0 mm 0.00 in0.0 mm 0.00 in0.0 mm
11:17 AM 57.3°F14.1°C 46.0°F7.8°C 66% 11.0 mph WSW17.7 kmh WSW 12.0 mph19.3 kmh 30.36 in1028.1 mb 0.00 in0.0 mm 0.00 in0.0 mm 0.00 in0.0 mm
11:18 AM 57.0°F13.9°C 46.2°F7.9°C 67% 10.8 mph WSW17.4 kmh WSW 12.0 mph19.3 kmh 30.36 in1028.1 mb 0.00 in0.0 mm 0.00 in0.0 mm 0.00 in0.0 mm
11:19 AM 57.0°F13.9°C 46.2°F7.9°C 67% 8.3 mph SW13.4 kmh SW 12.0 mph19.3 kmh 30.36 in1028.1 mb 0.00 in0.0 mm 0.00 in0.0 mm 0.00 in0.0 mm
11:20 AM 57.0°F13.9°C 46.2°F7.9°C 67% 10.0 mph SW16.1 kmh SW 11.0 mph17.7 kmh 30.36 in1028.1 mb 0.00 in0.0 mm 0.00 in0.0 mm 0.00 in0.0 mm
11:21 AM 57.0°F13.9°C 45.8°F7.7°C 66% 10.1 mph WSW16.3 kmh WSW 12.0 mph19.3 kmh 30.36 in1028.1 mb 0.00 in0.0 mm 0.00 in0.0 mm 0.00 in0.0 mm
11:22 AM 57.2°F14.0°C 46.3°F7.9°C 67% 9.5 mph WSW15.3 kmh WSW 12.0 mph19.3 kmh 30.35 in1027.8 mb 0.00 in0.0 mm 0.00 in0.0 mm 0.00 in0.0 mm
11:23 AM 57.1°F13.9°C 46.2°F7.9°C 67% 10.7 mph WSW17.2 kmh WSW 12.0 mph19.3 kmh 30.36 in1028.1 mb 0.00 in0.0 mm 0.00 in0.0 mm 0.00 in0.0 mm
11:24 AM 57.0°F13.9°C 46.2°F7.9°C 67% 10.6 mph WSW17.1 kmh WSW 12.0 mph19.3 kmh 30.35 in1027.8 mb 0.00 in0.0 mm 0.00 in0.0 mm 0.00 in0.0 mm
11:25 AM 56.9°F13.8°C 45.7°F7.6°C 66% 12.5 mph WSW20.1 kmh WSW 14.0 mph22.5 kmh 30.36 in1028.1 mb 0.00 in0.0 mm 0.00 in0.0 mm 0.00 in0.0 mm
11:26 AM 56.9°F13.8°C 45.7°F7.6°C 66% 11.7 mph SW18.8 kmh SW 14.0 mph22.5 kmh 30.35 in1027.8 mb 0.00 in0.0 mm 0.00 in0.0 mm 0.00 in0.0 mm
11:27 AM 57.0°F13.9°C 45.8°F7.7°C 66% 9.8 mph WSW15.8 kmh WSW 13.0 mph20.9 kmh 30.35 in1027.8 mb 0.00 in0.0 mm 0.00 in0.0 mm 0.00 in0.0 mm
11:28 AM 57.1°F13.9°C 45.8°F7.7°C 66% 9.8 mph WSW15.8 kmh WSW 11.0 mph17.7 kmh 30.35 in1027.8 mb 0.00 in0.0 mm 0.00 in0.0 mm 0.00 in0.0 mm
11:29 AM 57.1°F13.9°C 45.4°F7.4°C 65% 10.7 mph WSW17.2 kmh WSW 12.0 mph19.3 kmh 30.35 in1027.8 mb 0.00 in0.0 mm 0.00 in0.0 mm 0.00 in0.0 mm
11:30 AM 57.1°F13.9°C 45.8°F7.7°C 66% 11.0 mph WSW17.7 kmh WSW 13.0 mph20.9 kmh 30.35 in1027.8 mb 0.00 in0.0 mm 0.00 in0.0 mm 0.00 in0.0 mm
11:31 AM 57.1°F13.9°C 45.8°F7.7°C 66% 11.0 mph WSW17.7 kmh WSW 13.0 mph20.9 kmh 30.35 in1027.8 mb 0.00 in0.0 mm 0.00 in0.0 mm 0.00 in0.0 mm
11:32 AM 57.1°F13.9°C 45.4°F7.4°C 65% 12.8 mph WSW20.6 kmh WSW 13.0 mph20.9 kmh 30.35 in1027.8 mb 0.00 in0.0 mm 0.00 in0.0 mm 0.00 in0.0 mm
11:33 AM 57.0°F13.9°C 45.8°F7.7°C 66% 11.7 mph WSW18.8 kmh WSW 13.0 mph20.9 kmh 30.35 in1027.8 mb 0.00 in0.0 mm 0.00 in0.0 mm 0.00 in0.0 mm
11:34 AM 56.9°F13.8°C 45.7°F7.6°C 66% 11.5 mph WSW18.5 kmh WSW 13.0 mph20.9 kmh 30.35 in1027.8 mb 0.00 in0.0 mm 0.00 in0.0 mm 0.00 in0.0 mm
11:35 AM 56.9°F13.8°C 45.7°F7.6°C 66% 11.9 mph WSW19.2 kmh WSW 14.0 mph22.5 kmh 30.35 in1027.8 mb 0.00 in0.0 mm 0.00 in0.0 mm 0.00 in0.0 mm
11:36 AM 56.8°F13.8°C 45.2°F7.3°C 65% 13.0 mph WSW20.9 kmh WSW 14.0 mph22.5 kmh 30.35 in1027.8 mb 0.00 in0.0 mm 0.00 in0.0 mm 0.00 in0.0 mm
11:37 AM 56.9°F13.8°C 45.3°F7.4°C 65% 13.0 mph WSW20.9 kmh WSW 14.0 mph22.5 kmh 30.35 in1027.8 mb 0.00 in0.0 mm 0.00 in0.0 mm 0.00 in0.0 mm
11:38 AM 57.0°F13.9°C 45.8°F7.7°C 66% 11.0 mph WSW17.7 kmh WSW 13.0 mph20.9 kmh 30.35 in1027.8 mb 0.00 in0.0 mm 0.00 in0.0 mm 0.00 in0.0 mm
11:39 AM 57.0°F13.9°C 45.4°F7.4°C 65% 9.4 mph WSW15.1 kmh WSW 12.0 mph19.3 kmh 30.35 in1027.8 mb 0.00 in0.0 mm 0.00 in0.0 mm 0.00 in0.0 mm
11:40 AM 57.1°F13.9°C 45.8°F7.7°C 66% 9.6 mph WSW15.4 kmh WSW 12.0 mph19.3 kmh 30.35 in1027.8 mb 0.00 in0.0 mm 0.00 in0.0 mm 0.00 in0.0 mm
11:41 AM 57.3°F14.1°C 46.0°F7.8°C 66% 10.6 mph SW17.1 kmh SW 12.0 mph19.3 kmh 30.35 in1027.8 mb 0.00 in0.0 mm 0.00 in0.0 mm 0.00 in0.0 mm
11:42 AM 57.4°F14.1°C 46.1°F7.8°C 66% 9.2 mph WSW14.8 kmh WSW 12.0 mph19.3 kmh 30.35 in1027.8 mb 0.00 in0.0 mm 0.00 in0.0 mm 0.00 in0.0 mm
11:43 AM 57.5°F14.2°C 45.8°F7.7°C 65% 9.7 mph WSW15.6 kmh WSW 11.0 mph17.7 kmh 30.35 in1027.8 mb 0.00 in0.0 mm 0.00 in0.0 mm 0.00 in0.0 mm
11:44 AM 57.6°F14.2°C 45.9°F7.7°C 65% 9.7 mph WSW15.6 kmh WSW 12.0 mph19.3 kmh 30.35 in1027.8 mb 0.00 in0.0 mm 0.00 in0.0 mm 0.00 in0.0 mm
11:45 AM 57.7°F14.3°C 46.0°F7.8°C 65% 10.8 mph WSW17.4 kmh WSW 13.0 mph20.9 kmh 30.35 in1027.8 mb 0.00 in0.0 mm 0.00 in0.0 mm 0.00 in0.0 mm
11:46 AM 57.7°F14.3°C 46.0°F7.8°C 65% 11.4 mph WSW18.3 kmh WSW 13.0 mph20.9 kmh 30.35 in1027.8 mb 0.00 in0.0 mm 0.00 in0.0 mm 0.00 in0.0 mm
11:47 AM 57.8°F14.3°C 46.1°F7.8°C 65% 11.6 mph SW18.7 kmh SW 13.0 mph20.9 kmh 30.35 in1027.8 mb 0.00 in0.0 mm 0.00 in0.0 mm 0.00 in0.0 mm
11:48 AM 57.8°F14.3°C 45.7°F7.6°C 64% 10.9 mph SW17.5 kmh SW 13.0 mph20.9 kmh 30.35 in1027.8 mb 0.00 in0.0 mm 0.00 in0.0 mm 0.00 in0.0 mm
11:49 AM 57.9°F14.4°C 45.8°F7.7°C 64% 12.0 mph WSW19.3 kmh WSW 13.0 mph20.9 kmh 30.35 in1027.8 mb 0.00 in0.0 mm 0.00 in0.0 mm 0.00 in0.0 mm
11:50 AM 58.0°F14.4°C 46.3°F7.9°C 65% 10.7 mph WSW17.2 kmh WSW 13.0 mph20.9 kmh 30.35 in1027.8 mb 0.00 in0.0 mm 0.00 in0.0 mm 0.00 in0.0 mm
11:51 AM 58.0°F14.4°C 46.7°F8.2°C 66% 10.7 mph WSW17.2 kmh WSW 12.0 mph19.3 kmh 30.35 in1027.8 mb 0.00 in0.0 mm 0.00 in0.0 mm 0.00 in0.0 mm
11:52 AM 58.0°F14.4°C 46.3°F7.9°C 65% 9.7 mph WSW15.6 kmh WSW 12.0 mph19.3 kmh 30.35 in1027.8 mb 0.00 in0.0 mm 0.00 in0.0 mm 0.00 in0.0 mm
11:53 AM 58.0°F14.4°C 46.3°F7.9°C 65% 9.0 mph WSW14.5 kmh WSW 11.0 mph17.7 kmh 30.35 in1027.8 mb 0.00 in0.0 mm 0.00 in0.0 mm 0.00 in0.0 mm
11:54 AM 58.0°F14.4°C 46.3°F7.9°C 65% 8.0 mph WSW12.9 kmh WSW 10.0 mph16.1 kmh 30.35 in1027.8 mb 0.00 in0.0 mm 0.00 in0.0 mm 0.00 in0.0 mm
11:55 AM 58.1°F14.5°C 46.4°F8.0°C 65% 8.4 mph SW13.5 kmh SW 10.0 mph16.1 kmh 30.35 in1027.8 mb 0.00 in0.0 mm 0.00 in0.0 mm 0.00 in0.0 mm
11:56 AM 58.2°F14.6°C 46.1°F7.8°C 64% 8.5 mph SW13.7 kmh SW 10.0 mph16.1 kmh 30.35 in1027.8 mb 0.00 in0.0 mm 0.00 in0.0 mm 0.00 in0.0 mm
11:57 AM 58.2°F14.6°C 46.1°F7.8°C 64% 8.1 mph SW13.0 kmh SW 10.0 mph16.1 kmh 30.35 in1027.8 mb 0.00 in0.0 mm 0.00 in0.0 mm 0.00 in0.0 mm
11:58 AM 58.4°F14.7°C 46.3°F7.9°C 64% 8.0 mph SW12.9 kmh SW 10.0 mph16.1 kmh 30.35 in1027.8 mb 0.00 in0.0 mm 0.00 in0.0 mm 0.00 in0.0 mm
11:59 AM 58.4°F14.7°C 46.3°F7.9°C 64% 8.8 mph WSW14.2 kmh WSW 11.0 mph17.7 kmh 30.35 in1027.8 mb 0.00 in0.0 mm 0.00 in0.0 mm 0.00 in0.0 mm
12:00 PM 58.5°F14.7°C 46.8°F8.2°C 65% 11.0 mph WSW17.7 kmh WSW 13.0 mph20.9 kmh 30.35 in1027.8 mb 0.00 in0.0 mm 0.00 in0.0 mm 0.00 in0.0 mm
12:01 PM 58.4°F14.7°C 45.9°F7.7°C 63% 10.0 mph WSW16.1 kmh WSW 12.0 mph19.3 kmh 30.35 in1027.8 mb 0.00 in0.0 mm 0.00 in0.0 mm 0.00 in0.0 mm
12:02 PM 58.4°F14.7°C 45.9°F7.7°C 63% 9.0 mph WSW14.5 kmh WSW 11.0 mph17.7 kmh 30.35 in1027.8 mb 0.00 in0.0 mm 0.00 in0.0 mm 0.00 in0.0 mm
12:03 PM 58.3°F14.6°C 46.2°F7.9°C 64% 8.4 mph WSW13.5 kmh WSW 11.0 mph17.7 kmh 30.35 in1027.8 mb 0.00 in0.0 mm 0.00 in0.0 mm 0.00 in0.0 mm
12:04 PM 58.2°F14.6°C 46.5°F8.1°C 65% 8.5 mph WSW13.7 kmh WSW 11.0 mph17.7 kmh 30.35 in1027.8 mb 0.00 in0.0 mm 0.00 in0.0 mm 0.00 in0.0 mm
12:05 PM 58.1°F14.5°C 46.4°F8.0°C 65% 8.7 mph SW14.0 kmh SW 10.0 mph16.1 kmh 30.35 in1027.8 mb 0.00 in0.0 mm 0.00 in0.0 mm 0.00 in0.0 mm
12:06 PM 58.2°F14.6°C 46.1°F7.8°C 64% 7.3 mph SW11.7 kmh SW 10.0 mph16.1 kmh 30.35 in1027.8 mb 0.00 in0.0 mm 0.00 in0.0 mm 0.00 in0.0 mm
12:07 PM 58.2°F14.6°C 46.1°F7.8°C 64% 8.6 mph WSW13.8 kmh WSW 10.0 mph16.1 kmh 30.35 in1027.8 mb 0.00 in0.0 mm 0.00 in0.0 mm 0.00 in0.0 mm
12:08 PM 58.4°F14.7°C 46.3°F7.9°C 64% 8.7 mph WSW14.0 kmh WSW 10.0 mph16.1 kmh 30.35 in1027.8 mb 0.00 in0.0 mm 0.00 in0.0 mm 0.00 in0.0 mm
12:09 PM 58.4°F14.7°C 46.3°F7.9°C 64% 7.5 mph WSW12.1 kmh WSW 10.0 mph16.1 kmh 30.35 in1027.8 mb 0.00 in0.0 mm 0.00 in0.0 mm 0.00 in0.0 mm
12:10 PM 58.6°F14.8°C 46.5°F8.1°C 64% 9.5 mph SW15.3 kmh SW 12.0 mph19.3 kmh 30.35 in1027.8 mb 0.00 in0.0 mm 0.00 in0.0 mm 0.00 in0.0 mm
12:11 PM 58.6°F14.8°C 46.0°F7.8°C 63% 10.9 mph WSW17.5 kmh WSW 12.0 mph19.3 kmh 30.35 in1027.8 mb 0.00 in0.0 mm 0.00 in0.0 mm 0.00 in0.0 mm
12:12 PM 58.6°F14.8°C 45.6°F7.6°C 62% 9.7 mph WSW15.6 kmh WSW 12.0 mph19.3 kmh 30.35 in1027.8 mb 0.00 in0.0 mm 0.00 in0.0 mm 0.00 in0.0 mm
12:13 PM 58.7°F14.8°C 46.1°F7.8°C 63% 8.0 mph WSW12.9 kmh WSW 12.0 mph19.3 kmh 30.35 in1027.8 mb 0.00 in0.0 mm 0.00 in0.0 mm 0.00 in0.0 mm
12:14 PM 58.7°F14.8°C 45.7°F7.6°C 62% 10.6 mph WSW17.1 kmh WSW 12.0 mph19.3 kmh 30.35 in1027.8 mb 0.00 in0.0 mm 0.00 in0.0 mm 0.00 in0.0 mm
12:15 PM 58.8°F14.9°C 45.8°F7.7°C 62% 9.5 mph SW15.3 kmh SW 12.0 mph19.3 kmh 30.35 in1027.8 mb 0.00 in0.0 mm 0.00 in0.0 mm 0.00 in0.0 mm
12:16 PM 58.9°F14.9°C 45.9°F7.7°C 62% 10.1 mph SW16.3 kmh SW 12.0 mph19.3 kmh 30.35 in1027.8 mb 0.00 in0.0 mm 0.00 in0.0 mm 0.00 in0.0 mm
12:17 PM 59.0°F15.0°C 46.0°F7.8°C 62% 9.9 mph SW15.9 kmh SW 12.0 mph19.3 kmh 30.35 in1027.8 mb 0.00 in0.0 mm 0.00 in0.0 mm 0.00 in0.0 mm
12:18 PM 59.1°F15.1°C 46.1°F7.8°C 62% 9.1 mph SW14.6 kmh SW 12.0 mph19.3 kmh 30.35 in1027.8 mb 0.00 in0.0 mm 0.00 in0.0 mm 0.00 in0.0 mm
12:19 PM 59.2°F15.1°C 45.8°F7.7°C 61% 10.4 mph SW16.7 kmh SW 12.0 mph19.3 kmh 30.35 in1027.8 mb 0.00 in0.0 mm 0.00 in0.0 mm 0.00 in0.0 mm
12:20 PM 59.3°F15.2°C 45.9°F7.7°C 61% 10.5 mph WSW16.9 kmh WSW 12.0 mph19.3 kmh 30.35 in1027.8 mb 0.00 in0.0 mm 0.00 in0.0 mm 0.00 in0.0 mm
12:21 PM 59.3°F15.2°C 45.9°F7.7°C 61% 8.9 mph WSW14.3 kmh WSW 11.0 mph17.7 kmh 30.35 in1027.8 mb 0.00 in0.0 mm 0.00 in0.0 mm 0.00 in0.0 mm
12:22 PM 59.3°F15.2°C 46.3°F7.9°C 62% 8.6 mph WSW13.8 kmh WSW 11.0 mph17.7 kmh 30.35 in1027.8 mb 0.00 in0.0 mm 0.00 in0.0 mm 0.00 in0.0 mm
12:23 PM 59.3°F15.2°C 46.3°F7.9°C 62% 9.7 mph WSW15.6 kmh WSW 11.0 mph17.7 kmh 30.35 in1027.8 mb 0.00 in0.0 mm 0.00 in0.0 mm 0.00 in0.0 mm
12:24 PM 59.3°F15.2°C 46.3°F7.9°C 62% 10.2 mph SW16.4 kmh SW 11.0 mph17.7 kmh 30.35 in1027.8 mb 0.00 in0.0 mm 0.00 in0.0 mm 0.00 in0.0 mm
12:25 PM 59.4°F15.2°C 45.5°F7.5°C 60% 9.9 mph SW15.9 kmh SW 11.0 mph17.7 kmh 30.35 in1027.8 mb 0.00 in0.0 mm 0.00 in0.0 mm 0.00 in0.0 mm
12:26 PM 59.3°F15.2°C 45.0°F7.2°C 59% 10.6 mph SW17.1 kmh SW 12.0 mph19.3 kmh 30.35 in1027.8 mb 0.00 in0.0 mm 0.00 in0.0 mm 0.00 in0.0 mm
12:27 PM 59.3°F15.2°C 45.9°F7.7°C 61% 10.0 mph SW16.1 kmh SW 12.0 mph19.3 kmh 30.35 in1027.8 mb 0.00 in0.0 mm 0.00 in0.0 mm 0.00 in0.0 mm
12:28 PM 59.4°F15.2°C 45.5°F7.5°C 60% 11.3 mph SW18.2 kmh SW 13.0 mph20.9 kmh 30.35 in1027.8 mb 0.00 in0.0 mm 0.00 in0.0 mm 0.00 in0.0 mm
12:29 PM 59.4°F15.2°C 45.9°F7.7°C 61% 9.5 mph SW15.3 kmh SW 13.0 mph20.9 kmh 30.35 in1027.8 mb 0.00 in0.0 mm 0.00 in0.0 mm 0.00 in0.0 mm
12:30 PM 59.4°F15.2°C 45.5°F7.5°C 60% 9.3 mph SW15.0 kmh SW 11.0 mph17.7 kmh 30.35 in1027.8 mb 0.00 in0.0 mm 0.00 in0.0 mm 0.00 in0.0 mm
12:31 PM 59.4°F15.2°C 45.9°F7.7°C 61% 9.0 mph SW14.5 kmh SW 11.0 mph17.7 kmh 30.35 in1027.8 mb 0.00 in0.0 mm 0.00 in0.0 mm 0.00 in0.0 mm
12:32 PM 59.4°F15.2°C 45.9°F7.7°C 61% 10.4 mph WSW16.7 kmh WSW 13.0 mph20.9 kmh 30.35 in1027.8 mb 0.00 in0.0 mm 0.00 in0.0 mm 0.00 in0.0 mm
12:33 PM 59.5°F15.3°C 45.2°F7.3°C 59% 12.1 mph SW19.5 kmh SW 13.0 mph20.9 kmh 30.35 in1027.8 mb 0.00 in0.0 mm 0.00 in0.0 mm 0.00 in0.0 mm
12:34 PM 59.4°F15.2°C 45.5°F7.5°C 60% 9.8 mph WSW15.8 kmh WSW 14.0 mph22.5 kmh 30.35 in1027.8 mb 0.00 in0.0 mm 0.00 in0.0 mm 0.00 in0.0 mm
12:35 PM 59.5°F15.3°C 45.2°F7.3°C 59% 10.6 mph WSW17.1 kmh WSW 14.0 mph22.5 kmh 30.35 in1027.8 mb 0.00 in0.0 mm 0.00 in0.0 mm 0.00 in0.0 mm
12:36 PM 59.4°F15.2°C 45.5°F7.5°C 60% 10.6 mph WSW17.1 kmh WSW 12.0 mph19.3 kmh 30.35 in1027.8 mb 0.00 in0.0 mm 0.00 in0.0 mm 0.00 in0.0 mm
12:37 PM 59.5°F15.3°C 45.6°F7.6°C 60% 10.5 mph WSW16.9 kmh WSW 12.0 mph19.3 kmh 30.35 in1027.8 mb 0.00 in0.0 mm 0.00 in0.0 mm 0.00 in0.0 mm
12:38 PM 59.5°F15.3°C 46.0°F7.8°C 61% 10.4 mph SW16.7 kmh SW 12.0 mph19.3 kmh 30.36 in1028.1 mb 0.00 in0.0 mm 0.00 in0.0 mm 0.00 in0.0 mm
12:39 PM 59.5°F15.3°C 45.6°F7.6°C 60% 10.8 mph SW17.4 kmh SW 12.0 mph19.3 kmh 30.35 in1027.8 mb 0.00 in0.0 mm 0.00 in0.0 mm 0.00 in0.0 mm
12:40 PM 59.5°F15.3°C 45.2°F7.3°C 59% 9.5 mph SW15.3 kmh SW 12.0 mph19.3 kmh 30.35 in1027.8 mb 0.00 in0.0 mm 0.00 in0.0 mm 0.00 in0.0 mm
12:41 PM 59.5°F15.3°C 45.2°F7.3°C 59% 9.4 mph WSW15.1 kmh WSW 12.0 mph19.3 kmh 30.35 in1027.8 mb 0.00 in0.0 mm 0.00 in0.0 mm 0.00 in0.0 mm
12:42 PM 59.6°F15.3°C 45.7°F7.6°C 60% 11.2 mph SW18.0 kmh SW 13.0 mph20.9 kmh 30.35 in1027.8 mb 0.00 in0.0 mm 0.00 in0.0 mm 0.00 in0.0 mm
12:43 PM 59.5°F15.3°C 45.2°F7.3°C 59% 10.9 mph SW17.5 kmh SW 13.0 mph20.9 kmh 30.35 in1027.8 mb 0.00 in0.0 mm 0.00 in0.0 mm 0.00 in0.0 mm
12:44 PM 59.6°F15.3°C 44.8°F7.1°C 58% 11.5 mph SW18.5 kmh SW 13.0 mph20.9 kmh 30.35 in1027.8 mb 0.00 in0.0 mm 0.00 in0.0 mm 0.00 in0.0 mm
12:45 PM 59.6°F15.3°C 45.3°F7.4°C 59% 9.7 mph SW15.6 kmh SW 13.0 mph20.9 kmh 30.35 in1027.8 mb 0.00 in0.0 mm 0.00 in0.0 mm 0.00 in0.0 mm
12:46 PM 59.7°F15.4°C 44.9°F7.2°C 58% 10.0 mph SW16.1 kmh SW 12.0 mph19.3 kmh 30.35 in1027.8 mb 0.00 in0.0 mm 0.00 in0.0 mm 0.00 in0.0 mm
12:47 PM 59.8°F15.4°C 45.0°F7.2°C 58% 9.1 mph SW14.6 kmh SW 12.0 mph19.3 kmh 30.35 in1027.8 mb 0.00 in0.0 mm 0.00 in0.0 mm 0.00 in0.0 mm
12:48 PM 59.8°F15.4°C 44.5°F6.9°C 57% 7.7 mph SW12.4 kmh SW 11.0 mph17.7 kmh 30.35 in1027.8 mb 0.00 in0.0 mm 0.00 in0.0 mm 0.00 in0.0 mm
12:49 PM 59.9°F15.5°C 44.2°F6.8°C 56% 7.4 mph SW11.9 kmh SW 12.0 mph19.3 kmh 30.35 in1027.8 mb 0.00 in0.0 mm 0.00 in0.0 mm 0.00 in0.0 mm
12:50 PM 60.0°F15.6°C 44.3°F6.8°C 56% 9.3 mph SW15.0 kmh SW 12.0 mph19.3 kmh 30.35 in1027.8 mb 0.00 in0.0 mm 0.00 in0.0 mm 0.00 in0.0 mm
12:51 PM 59.9°F15.5°C 45.1°F7.3°C 58% 10.7 mph WSW17.2 kmh WSW 13.0 mph20.9 kmh 30.35 in1027.8 mb 0.00 in0.0 mm 0.00 in0.0 mm 0.00 in0.0 mm
12:52 PM 59.8°F15.4°C 45.4°F7.4°C 59% 8.4 mph WSW13.5 kmh WSW 13.0 mph20.9 kmh 30.35 in1027.8 mb 0.00 in0.0 mm 0.00 in0.0 mm 0.00 in0.0 mm
12:53 PM 59.5°F15.3°C 45.2°F7.3°C 59% 7.3 mph WSW11.7 kmh WSW 10.0 mph16.1 kmh 30.35 in1027.8 mb 0.00 in0.0 mm 0.00 in0.0 mm 0.00 in0.0 mm
12:54 PM 59.3°F15.2°C 45.9°F7.7°C 61% 5.8 mph WSW9.3 kmh WSW 9.0 mph14.5 kmh 30.35 in1027.8 mb 0.00 in0.0 mm 0.00 in0.0 mm 0.00 in0.0 mm
12:55 PM 59.4°F15.2°C 46.4°F8.0°C 62% 6.2 mph WSW10.0 kmh WSW 9.0 mph14.5 kmh 30.36 in1028.1 mb 0.00 in0.0 mm 0.00 in0.0 mm 0.00 in0.0 mm
12:56 PM 59.3°F15.2°C 46.3°F7.9°C 62% 6.9 mph WSW11.1 kmh WSW 9.0 mph14.5 kmh 30.35 in1027.8 mb 0.00 in0.0 mm 0.00 in0.0 mm 0.00 in0.0 mm
12:57 PM 59.3°F15.2°C 46.3°F7.9°C 62% 6.4 mph WSW10.3 kmh WSW 9.0 mph14.5 kmh 30.36 in1028.1 mb 0.00 in0.0 mm 0.00 in0.0 mm 0.00 in0.0 mm
12:58 PM 59.3°F15.2°C 46.3°F7.9°C 62% 5.0 mph WSW8.0 kmh WSW 8.0 mph12.9 kmh 30.36 in1028.1 mb 0.00 in0.0 mm 0.00 in0.0 mm 0.00 in0.0 mm
12:59 PM 59.2°F15.1°C 46.2°F7.9°C 62% 5.0 mph WSW8.0 kmh WSW 7.0 mph11.3 kmh 30.36 in1028.1 mb 0.00 in0.0 mm 0.00 in0.0 mm 0.00 in0.0 mm
01:00 PM 59.1°F15.1°C 45.7°F7.6°C 61% 4.8 mph WSW7.7 kmh WSW 5.0 mph8.0 kmh 30.36 in1028.1 mb 0.00 in0.0 mm 0.00 in0.0 mm 0.00 in0.0 mm
01:01 PM 59.1°F15.1°C 44.8°F7.1°C 59% 4.6 mph WSW7.4 kmh WSW 7.0 mph11.3 kmh 30.36 in1028.1 mb 0.00 in0.0 mm 0.00 in0.0 mm 0.00 in0.0 mm
01:02 PM 59.2°F15.1°C 44.9°F7.2°C 59% 4.3 mph SW6.9 kmh SW 7.0 mph11.3 kmh 30.36 in1028.1 mb 0.00 in0.0 mm 0.00 in0.0 mm 0.00 in0.0 mm
01:03 PM 59.3°F15.2°C 45.4°F7.4°C 60% 4.9 mph SW7.9 kmh SW 6.0 mph9.7 kmh 30.36 in1028.1 mb 0.00 in0.0 mm 0.00 in0.0 mm 0.00 in0.0 mm
01:04 PM 59.4°F15.2°C 45.1°F7.3°C 59% 3.6 mph SW5.8 kmh SW 6.0 mph9.7 kmh 30.36 in1028.1 mb 0.00 in0.0 mm 0.00 in0.0 mm 0.00 in0.0 mm
01:05 PM 59.5°F15.3°C 45.6°F7.6°C 60% 4.0 mph WSW6.4 kmh WSW 5.0 mph8.0 kmh 30.36 in1028.1 mb 0.00 in0.0 mm 0.00 in0.0 mm 0.00 in0.0 mm
01:06 PM 59.6°F15.3°C 45.3°F7.4°C 59% 4.8 mph WSW7.7 kmh WSW 7.0 mph11.3 kmh 30.36 in1028.1 mb 0.00 in0.0 mm 0.00 in0.0 mm 0.00 in0.0 mm
01:07 PM 59.6°F15.3°C 45.7°F7.6°C 60% 4.5 mph WSW7.2 kmh WSW 7.0 mph11.3 kmh 30.36 in1028.1 mb 0.00 in0.0 mm 0.00 in0.0 mm 0.00 in0.0 mm
01:08 PM 59.5°F15.3°C 46.0°F7.8°C 61% 7.0 mph WSW11.3 kmh WSW 9.0 mph14.5 kmh 30.36 in1028.1 mb 0.00 in0.0 mm 0.00 in0.0 mm 0.00 in0.0 mm
01:09 PM 59.5°F15.3°C 46.0°F7.8°C 61% 6.0 mph WSW9.7 kmh WSW 8.0 mph12.9 kmh 30.36 in1028.1 mb 0.00 in0.0 mm 0.00 in0.0 mm 0.00 in0.0 mm
01:10 PM 59.5°F15.3°C 45.2°F7.3°C 59% 7.0 mph WSW11.3 kmh WSW 8.0 mph12.9 kmh 30.36 in1028.1 mb 0.00 in0.0 mm 0.00 in0.0 mm 0.00 in0.0 mm
01:11 PM 59.5°F15.3°C 44.3°F6.8°C 57% 5.9 mph WSW9.5 kmh WSW 7.0 mph11.3 kmh 30.36 in1028.1 mb 0.00 in0.0 mm 0.00 in0.0 mm 0.00 in0.0 mm
01:12 PM 59.5°F15.3°C 44.3°F6.8°C 57% 5.0 mph WSW8.0 kmh WSW 7.0 mph11.3 kmh 30.36 in1028.1 mb 0.00 in0.0 mm 0.00 in0.0 mm 0.00 in0.0 mm
01:13 PM 59.5°F15.3°C 45.2°F7.3°C 59% 6.0 mph WSW9.7 kmh WSW 7.0 mph11.3 kmh 30.36 in1028.1 mb 0.00 in0.0 mm 0.00 in0.0 mm 0.00 in0.0 mm
01:14 PM 59.4°F15.2°C 45.5°F7.5°C 60% 5.9 mph WSW9.5 kmh WSW 8.0 mph12.9 kmh 30.36 in1028.1 mb 0.00 in0.0 mm 0.00 in0.0 mm 0.00 in0.0 mm
01:15 PM 59.3°F15.2°C 45.0°F7.2°C 59% 4.8 mph WSW7.7 kmh WSW 8.0 mph12.9 kmh 30.36 in1028.1 mb 0.00 in0.0 mm 0.00 in0.0 mm 0.00 in0.0 mm
01:16 PM 59.4°F15.2°C 44.2°F6.8°C 57% 3.3 mph WSW5.3 kmh WSW 7.0 mph11.3 kmh 30.36 in1028.1 mb 0.00 in0.0 mm 0.00 in0.0 mm 0.00 in0.0 mm
01:17 PM 59.4°F15.2°C 44.2°F6.8°C 57% 2.9 mph WSW4.7 kmh WSW 4.0 mph6.4 kmh 30.36 in1028.1 mb 0.00 in0.0 mm 0.00 in0.0 mm 0.00 in0.0 mm
01:18 PM 59.5°F15.3°C 44.3°F6.8°C 57% 2.5 mph WSW4.0 kmh WSW 4.0 mph6.4 kmh 30.36 in1028.1 mb 0.00 in0.0 mm 0.00 in0.0 mm 0.00 in0.0 mm
01:19 PM 59.5°F15.3°C 44.7°F7.1°C 58% 4.1 mph SW6.6 kmh SW 5.0 mph8.0 kmh 30.36 in1028.1 mb 0.00 in0.0 mm 0.00 in0.0 mm 0.00 in0.0 mm
01:20 PM 59.6°F15.3°C 45.3°F7.4°C 59% 4.5 mph WSW7.2 kmh WSW 5.0 mph8.0 kmh 30.36 in1028.1 mb 0.00 in0.0 mm 0.00 in0.0 mm 0.00 in0.0 mm
01:21 PM 59.7°F15.4°C 45.8°F7.7°C 60% 4.5 mph WSW7.2 kmh WSW 8.0 mph12.9 kmh 30.36 in1028.1 mb 0.00 in0.0 mm 0.00 in0.0 mm 0.00 in0.0 mm
01:22 PM 59.7°F15.4°C 45.3°F7.4°C 59% 5.7 mph WSW9.2 kmh WSW 8.0 mph12.9 kmh 30.36 in1028.1 mb 0.00 in0.0 mm 0.00 in0.0 mm 0.00 in0.0 mm
01:23 PM 59.7°F15.4°C 45.3°F7.4°C 59% 8.0 mph WSW12.9 kmh WSW 9.0 mph14.5 kmh 30.36 in1028.1 mb 0.00 in0.0 mm 0.00 in0.0 mm 0.00 in0.0 mm
01:24 PM 59.6°F15.3°C 45.7°F7.6°C 60% 7.2 mph WSW11.6 kmh WSW 9.0 mph14.5 kmh 30.36 in1028.1 mb 0.00 in0.0 mm 0.00 in0.0 mm 0.00 in0.0 mm
01:25 PM 59.6°F15.3°C 45.3°F7.4°C 59% 5.9 mph WSW9.5 kmh WSW 8.0 mph12.9 kmh 30.36 in1028.1 mb 0.00 in0.0 mm 0.00 in0.0 mm 0.00 in0.0 mm
01:26 PM 59.6°F15.3°C 45.3°F7.4°C 59% 4.4 mph WSW7.1 kmh WSW 7.0 mph11.3 kmh 30.36 in1028.1 mb 0.00 in0.0 mm 0.00 in0.0 mm 0.00 in0.0 mm
01:27 PM 59.6°F15.3°C 44.8°F7.1°C 58% 3.9 mph WSW6.3 kmh WSW 6.0 mph9.7 kmh 30.36 in1028.1 mb 0.00 in0.0 mm 0.00 in0.0 mm 0.00 in0.0 mm
01:28 PM 59.6°F15.3°C 43.9°F6.6°C 56% 3.6 mph WSW5.8 kmh WSW 6.0 mph9.7 kmh 30.36 in1028.1 mb 0.00 in0.0 mm 0.00 in0.0 mm 0.00 in0.0 mm
01:29 PM 59.7°F15.4°C 44.9°F7.2°C 58% 6.1 mph WSW9.8 kmh WSW 8.0 mph12.9 kmh 30.36 in1028.1 mb 0.00 in0.0 mm 0.00 in0.0 mm 0.00 in0.0 mm
01:30 PM 59.7°F15.4°C 44.9°F7.2°C 58% 5.0 mph WSW8.0 kmh WSW 7.0 mph11.3 kmh 30.36 in1028.1 mb 0.00 in0.0 mm 0.00 in0.0 mm 0.00 in0.0 mm
01:31 PM 59.7°F15.4°C 44.9°F7.2°C 58% 6.0 mph WSW9.7 kmh WSW 8.0 mph12.9 kmh 30.36 in1028.1 mb 0.00 in0.0 mm 0.00 in0.0 mm 0.00 in0.0 mm
01:32 PM 59.7°F15.4°C 45.3°F7.4°C 59% 7.0 mph W11.3 kmh W 9.0 mph14.5 kmh 30.36 in1028.1 mb 0.00 in0.0 mm 0.00 in0.0 mm 0.00 in0.0 mm
01:33 PM 59.6°F15.3°C 44.8°F7.1°C 58% 7.7 mph W12.4 kmh W 9.0 mph14.5 kmh 30.36 in1028.1 mb 0.00 in0.0 mm 0.00 in0.0 mm 0.00 in0.0 mm
01:34 PM 59.5°F15.3°C 45.2°F7.3°C 59% 6.0 mph W9.7 kmh W 8.0 mph12.9 kmh 30.36 in1028.1 mb 0.00 in0.0 mm 0.00 in0.0 mm 0.00 in0.0 mm
01:35 PM 59.4°F15.2°C 45.5°F7.5°C 60% 6.0 mph W9.7 kmh W 8.0 mph12.9 kmh 30.36 in1028.1 mb 0.00 in0.0 mm 0.00 in0.0 mm 0.00 in0.0 mm
01:36 PM 59.4°F15.2°C 45.5°F7.5°C 60% 8.2 mph W13.2 kmh W 9.0 mph14.5 kmh 30.36 in1028.1 mb 0.00 in0.0 mm 0.00 in0.0 mm 0.00 in0.0 mm
01:37 PM 59.3°F15.2°C 45.0°F7.2°C 59% 8.3 mph W13.4 kmh W 9.0 mph14.5 kmh 30.36 in1028.1 mb 0.00 in0.0 mm 0.00 in0.0 mm 0.00 in0.0 mm
01:38 PM 59.3°F15.2°C 44.5°F6.9°C 58% 8.0 mph W12.9 kmh W 9.0 mph14.5 kmh 30.36 in1028.1 mb 0.00 in0.0 mm 0.00 in0.0 mm 0.00 in0.0 mm
01:39 PM 59.3°F15.2°C 45.4°F7.4°C 60% 6.9 mph W11.1 kmh W 9.0 mph14.5 kmh 30.36 in1028.1 mb 0.00 in0.0 mm 0.00 in0.0 mm 0.00 in0.0 mm
01:40 PM 59.3°F15.2°C 45.4°F7.4°C 60% 4.6 mph W7.4 kmh W 8.0 mph12.9 kmh 30.36 in1028.1 mb 0.00 in0.0 mm 0.00 in0.0 mm 0.00 in0.0 mm
01:41 PM 59.3°F15.2°C 45.0°F7.2°C 59% 5.9 mph W9.5 kmh W 8.0 mph12.9 kmh 30.36 in1028.1 mb 0.00 in0.0 mm 0.00 in0.0 mm 0.00 in0.0 mm
01:42 PM 59.3°F15.2°C 44.5°F6.9°C 58% 7.4 mph W11.9 kmh W 8.0 mph12.9 kmh 30.36 in1028.1 mb 0.00 in0.0 mm 0.00 in0.0 mm 0.00 in0.0 mm
01:43 PM 59.2°F15.1°C 44.0°F6.7°C 57% 5.5 mph W8.9 kmh W 8.0 mph12.9 kmh 30.36 in1028.1 mb 0.00 in0.0 mm 0.00 in0.0 mm 0.00 in0.0 mm
01:44 PM 59.2°F15.1°C 44.9°F7.2°C 59% 4.4 mph W7.1 kmh W 7.0 mph11.3 kmh 30.36 in1028.1 mb 0.00 in0.0 mm 0.00 in0.0 mm 0.00 in0.0 mm
01:45 PM 59.3°F15.2°C 45.0°F7.2°C 59% 6.0 mph W9.7 kmh W 7.0 mph11.3 kmh 30.36 in1028.1 mb 0.00 in0.0 mm 0.00 in0.0 mm 0.00 in0.0 mm
01:46 PM 59.3°F15.2°C 44.5°F6.9°C 58% 5.0 mph W8.0 kmh W 6.0 mph9.7 kmh 30.36 in1028.1 mb 0.00 in0.0 mm 0.00 in0.0 mm 0.00 in0.0 mm
01:47 PM 59.3°F15.2°C 45.9°F7.7°C 61% 7.0 mph W11.3 kmh W 10.0 mph16.1 kmh 30.36 in1028.1 mb 0.00 in0.0 mm 0.00 in0.0 mm 0.00 in0.0 mm
01:48 PM 59.4°F15.2°C 44.6°F7.0°C 58% 6.9 mph WSW11.1 kmh WSW 8.0 mph12.9 kmh 30.36 in1028.1 mb 0.00 in0.0 mm 0.00 in0.0 mm 0.00 in0.0 mm
01:49 PM 59.5°F15.3°C 44.3°F6.8°C 57% 5.7 mph W9.2 kmh W 8.0 mph12.9 kmh 30.36 in1028.1 mb 0.00 in0.0 mm 0.00 in0.0 mm 0.00 in0.0 mm
01:50 PM 59.5°F15.3°C 44.3°F6.8°C 57% 6.5 mph W10.5 kmh W 8.0 mph12.9 kmh 30.36 in1028.1 mb 0.00 in0.0 mm 0.00 in0.0 mm 0.00 in0.0 mm
01:51 PM 59.5°F15.3°C 44.7°F7.1°C 58% 8.5 mph W13.7 kmh W 9.0 mph14.5 kmh 30.36 in1028.1 mb 0.00 in0.0 mm 0.00 in0.0 mm 0.00 in0.0 mm
01:52 PM 59.4°F15.2°C 45.1°F7.3°C 59% 7.9 mph W12.7 kmh W 9.0 mph14.5 kmh 30.36 in1028.1 mb 0.00 in0.0 mm 0.00 in0.0 mm 0.00 in0.0 mm
01:53 PM 59.4°F15.2°C 45.1°F7.3°C 59% 8.5 mph W13.7 kmh W 10.0 mph16.1 kmh 30.36 in1028.1 mb 0.00 in0.0 mm 0.00 in0.0 mm 0.00 in0.0 mm
01:54 PM 59.2°F15.1°C 45.3°F7.4°C 60% 7.9 mph W12.7 kmh W 10.0 mph16.1 kmh 30.36 in1028.1 mb 0.00 in0.0 mm 0.00 in0.0 mm 0.00 in0.0 mm
01:55 PM 59.2°F15.1°C 45.3°F7.4°C 60% 9.4 mph W15.1 kmh W 11.0 mph17.7 kmh 30.36 in1028.1 mb 0.00 in0.0 mm 0.00 in0.0 mm 0.00 in0.0 mm
01:56 PM 59.2°F15.1°C 44.4°F6.9°C 58% 9.8 mph WNW15.8 kmh WNW 12.0 mph19.3 kmh 30.36 in1028.1 mb 0.00 in0.0 mm 0.00 in0.0 mm 0.00 in0.0 mm
01:57 PM 59.1°F15.1°C 43.9°F6.6°C 57% 7.5 mph WNW12.1 kmh WNW 12.0 mph19.3 kmh 30.36 in1028.1 mb 0.00 in0.0 mm 0.00 in0.0 mm 0.00 in0.0 mm
01:58 PM 59.1°F15.1°C 43.9°F6.6°C 57% 5.8 mph WNW9.3 kmh WNW 9.0 mph14.5 kmh 30.36 in1028.1 mb 0.00 in0.0 mm 0.00 in0.0 mm 0.00 in0.0 mm
01:59 PM 59.1°F15.1°C 44.3°F6.8°C 58% 4.0 mph W6.4 kmh W 7.0 mph11.3 kmh 30.36 in1028.1 mb 0.00 in0.0 mm 0.00 in0.0 mm 0.00 in0.0 mm
02:00 PM 59.1°F15.1°C 44.8°F7.1°C 59% 3.0 mph W4.8 kmh W 4.0 mph6.4 kmh 30.36 in1028.1 mb 0.00 in0.0 mm 0.00 in0.0 mm 0.00 in0.0 mm
02:01 PM 59.2°F15.1°C 44.4°F6.9°C 58% 6.5 mph W10.5 kmh W 7.0 mph11.3 kmh 30.36 in1028.1 mb 0.00 in0.0 mm 0.00 in0.0 mm 0.00 in0.0 mm
02:02 PM 59.2°F15.1°C 44.4°F6.9°C 58% 5.7 mph W9.2 kmh W 7.0 mph11.3 kmh 30.36 in1028.1 mb 0.00 in0.0 mm 0.00 in0.0 mm 0.00 in0.0 mm
02:03 PM 59.3°F15.2°C 45.0°F7.2°C 59% 4.5 mph W7.2 kmh W 7.0 mph11.3 kmh 30.36 in1028.1 mb 0.00 in0.0 mm 0.00 in0.0 mm 0.00 in0.0 mm
02:04 PM 59.3°F15.2°C 45.9°F7.7°C 61% 8.8 mph W14.2 kmh W 10.0 mph16.1 kmh 30.36 in1028.1 mb 0.00 in0.0 mm 0.00 in0.0 mm 0.00 in0.0 mm
02:05 PM 59.3°F15.2°C 45.4°F7.4°C 60% 8.9 mph W14.3 kmh W 10.0 mph16.1 kmh 30.36 in1028.1 mb 0.00 in0.0 mm 0.00 in0.0 mm 0.00 in0.0 mm
02:06 PM 59.3°F15.2°C 45.4°F7.4°C 60% 7.7 mph W12.4 kmh W 10.0 mph16.1 kmh 30.36 in1028.1 mb 0.00 in0.0 mm 0.00 in0.0 mm 0.00 in0.0 mm
02:07 PM 59.3°F15.2°C 45.4°F7.4°C 60% 9.0 mph W14.5 kmh W 11.0 mph17.7 kmh 30.36 in1028.1 mb 0.00 in0.0 mm 0.00 in0.0 mm 0.00 in0.0 mm
02:08 PM 59.3°F15.2°C 45.4°F7.4°C 60% 9.4 mph W15.1 kmh W 11.0 mph17.7 kmh 30.36 in1028.1 mb 0.00 in0.0 mm 0.00 in0.0 mm 0.00 in0.0 mm
02:09 PM 59.3°F15.2°C 44.5°F6.9°C 58% 8.0 mph W12.9 kmh W 11.0 mph17.7 kmh 30.36 in1028.1 mb 0.00 in0.0 mm 0.00 in0.0 mm 0.00 in0.0 mm
02:10 PM 59.4°F15.2°C 44.6°F7.0°C 58% 5.7 mph W9.2 kmh W 9.0 mph14.5 kmh 30.36 in1028.1 mb 0.00 in0.0 mm 0.00 in0.0 mm 0.00 in0.0 mm
02:11 PM 59.4°F15.2°C 44.6°F7.0°C 58% 6.6 mph W10.6 kmh W 8.0 mph12.9 kmh 30.36 in1028.1 mb 0.00 in0.0 mm 0.00 in0.0 mm 0.00 in0.0 mm
02:12 PM 59.5°F15.3°C 44.7°F7.1°C 58% 6.8 mph WNW10.9 kmh WNW 8.0 mph12.9 kmh 30.36 in1028.1 mb 0.00 in0.0 mm 0.00 in0.0 mm 0.00 in0.0 mm
02:13 PM 59.5°F15.3°C 44.7°F7.1°C 58% 4.9 mph WNW7.9 kmh WNW 8.0 mph12.9 kmh 30.36 in1028.1 mb 0.00 in0.0 mm 0.00 in0.0 mm 0.00 in0.0 mm
02:14 PM 59.5°F15.3°C 44.7°F7.1°C 58% 4.0 mph WNW6.4 kmh WNW 7.0 mph11.3 kmh 30.36 in1028.1 mb 0.00 in0.0 mm 0.00 in0.0 mm 0.00 in0.0 mm
02:15 PM 59.5°F15.3°C 45.2°F7.3°C 59% 8.4 mph W13.5 kmh W 11.0 mph17.7 kmh 30.36 in1028.1 mb 0.00 in0.0 mm 0.00 in0.0 mm 0.00 in0.0 mm
02:16 PM 59.5°F15.3°C 45.2°F7.3°C 59% 6.8 mph W10.9 kmh W 11.0 mph17.7 kmh 30.36 in1028.1 mb 0.00 in0.0 mm 0.00 in0.0 mm 0.00 in0.0 mm
02:17 PM 59.4°F15.2°C 45.5°F7.5°C 60% 7.1 mph W11.4 kmh W 9.0 mph14.5 kmh 30.36 in1028.1 mb 0.00 in0.0 mm 0.00 in0.0 mm 0.00 in0.0 mm
02:18 PM 59.3°F15.2°C 45.4°F7.4°C 60% 7.3 mph W11.7 kmh W 8.0 mph12.9 kmh 30.36 in1028.1 mb 0.00 in0.0 mm 0.00 in0.0 mm 0.00 in0.0 mm
02:19 PM 59.4°F15.2°C 45.1°F7.3°C 59% 8.1 mph W13.0 kmh W 9.0 mph14.5 kmh 30.36 in1028.1 mb 0.00 in0.0 mm 0.00 in0.0 mm 0.00 in0.0 mm
02:20 PM 59.4°F15.2°C 44.6°F7.0°C 58% 7.0 mph W11.3 kmh W 9.0 mph14.5 kmh 30.36 in1028.1 mb 0.00 in0.0 mm 0.00 in0.0 mm 0.00 in0.0 mm
02:21 PM 59.4°F15.2°C 45.1°F7.3°C 59% 6.4 mph W10.3 kmh W 9.0 mph14.5 kmh 30.36 in1028.1 mb 0.00 in0.0 mm 0.00 in0.0 mm 0.00 in0.0 mm
02:22 PM 59.4°F15.2°C 45.1°F7.3°C 59% 6.0 mph WNW9.7 kmh WNW 8.0 mph12.9 kmh 30.36 in1028.1 mb 0.00 in0.0 mm 0.00 in0.0 mm 0.00 in0.0 mm
02:23 PM 59.4°F15.2°C 45.5°F7.5°C 60% 9.4 mph W15.1 kmh W 11.0 mph17.7 kmh 30.36 in1028.1 mb 0.00 in0.0 mm 0.00 in0.0 mm 0.00 in0.0 mm
02:24 PM 59.4°F15.2°C 45.5°F7.5°C 60% 9.6 mph W15.4 kmh W 11.0 mph17.7 kmh 30.36 in1028.1 mb 0.00 in0.0 mm 0.00 in0.0 mm 0.00 in0.0 mm
02:25 PM 59.4°F15.2°C 44.6°F7.0°C 58% 8.5 mph W13.7 kmh W 11.0 mph17.7 kmh 30.36 in1028.1 mb 0.00 in0.0 mm 0.00 in0.0 mm 0.00 in0.0 mm
02:26 PM 59.3°F15.2°C 45.0°F7.2°C 59% 7.2 mph W11.6 kmh W 10.0 mph16.1 kmh 30.36 in1028.1 mb 0.00 in0.0 mm 0.00 in0.0 mm 0.00 in0.0 mm
02:27 PM 59.3°F15.2°C 45.0°F7.2°C 59% 8.2 mph W13.2 kmh W 10.0 mph16.1 kmh 30.36 in1028.1 mb 0.00 in0.0 mm 0.00 in0.0 mm 0.00 in0.0 mm
02:28 PM 59.3°F15.2°C 45.0°F7.2°C 59% 8.5 mph W13.7 kmh W 10.0 mph16.1 kmh 30.36 in1028.1 mb 0.00 in0.0 mm 0.00 in0.0 mm 0.00 in0.0 mm
02:29 PM 59.4°F15.2°C 45.1°F7.3°C 59% 7.5 mph W12.1 kmh W 10.0 mph16.1 kmh 30.36 in1028.1 mb 0.00 in0.0 mm 0.00 in0.0 mm 0.00 in0.0 mm
02:30 PM 59.4°F15.2°C 45.5°F7.5°C 60% 8.9 mph W14.3 kmh W 10.0 mph16.1 kmh 30.36 in1028.1 mb 0.00 in0.0 mm 0.00 in0.0 mm 0.00 in0.0 mm
02:31 PM 59.4°F15.2°C 45.5°F7.5°C 60% 8.5 mph WSW13.7 kmh WSW 10.0 mph16.1 kmh 30.36 in1028.1 mb 0.00 in0.0 mm 0.00 in0.0 mm 0.00 in0.0 mm
02:32 PM 59.4°F15.2°C 45.1°F7.3°C 59% 9.0 mph W14.5 kmh W 11.0 mph17.7 kmh 30.36 in1028.1 mb 0.00 in0.0 mm 0.00 in0.0 mm 0.00 in0.0 mm
02:33 PM 59.3°F15.2°C 44.5°F6.9°C 58% 8.0 mph W12.9 kmh W 9.0 mph14.5 kmh 30.36 in1028.1 mb 0.00 in0.0 mm 0.00 in0.0 mm 0.00 in0.0 mm
02:34 PM 59.4°F15.2°C 44.6°F7.0°C 58% 8.8 mph W14.2 kmh W 9.0 mph14.5 kmh 30.36 in1028.1 mb 0.00 in0.0 mm 0.00 in0.0 mm 0.00 in0.0 mm
02:35 PM 59.3°F15.2°C 45.4°F7.4°C 60% 7.2 mph W11.6 kmh W 9.0 mph14.5 kmh 30.36 in1028.1 mb 0.00 in0.0 mm 0.00 in0.0 mm 0.00 in0.0 mm
02:36 PM 59.3°F15.2°C 45.9°F7.7°C 61% 5.8 mph W9.3 kmh W 9.0 mph14.5 kmh 30.36 in1028.1 mb 0.00 in0.0 mm 0.00 in0.0 mm 0.00 in0.0 mm
02:37 PM 59.4°F15.2°C 45.1°F7.3°C 59% 6.4 mph W10.3 kmh W 8.0 mph12.9 kmh 30.36 in1028.1 mb 0.00 in0.0 mm 0.00 in0.0 mm 0.00 in0.0 mm
02:38 PM 59.4°F15.2°C 44.2°F6.8°C 57% 7.2 mph W11.6 kmh W 8.0 mph12.9 kmh 30.36 in1028.1 mb 0.00 in0.0 mm 0.00 in0.0 mm 0.00 in0.0 mm
02:39 PM 59.5°F15.3°C 44.7°F7.1°C 58% 6.5 mph W10.5 kmh W 9.0 mph14.5 kmh 30.36 in1028.1 mb 0.00 in0.0 mm 0.00 in0.0 mm 0.00 in0.0 mm
02:40 PM 59.5°F15.3°C 44.3°F6.8°C 57% 8.0 mph WNW12.9 kmh WNW 10.0 mph16.1 kmh 30.36 in1028.1 mb 0.00 in0.0 mm 0.00 in0.0 mm 0.00 in0.0 mm
02:41 PM 59.5°F15.3°C 44.3°F6.8°C 57% 5.9 mph WNW9.5 kmh WNW 10.0 mph16.1 kmh 30.36 in1028.1 mb 0.00 in0.0 mm 0.00 in0.0 mm 0.00 in0.0 mm
02:42 PM 59.6°F15.3°C 45.3°F7.4°C 59% 5.9 mph W9.5 kmh W 7.0 mph11.3 kmh 30.36 in1028.1 mb 0.00 in0.0 mm 0.00 in0.0 mm 0.00 in0.0 mm
02:43 PM 59.6°F15.3°C 45.3°F7.4°C 59% 5.1 mph W8.2 kmh W 9.0 mph14.5 kmh 30.36 in1028.1 mb 0.00 in0.0 mm 0.00 in0.0 mm 0.00 in0.0 mm
02:44 PM 59.5°F15.3°C 45.6°F7.6°C 60% 8.9 mph W14.3 kmh W 10.0 mph16.1 kmh 30.36 in1028.1 mb 0.00 in0.0 mm 0.00 in0.0 mm 0.00 in0.0 mm
02:45 PM 59.6°F15.3°C 45.3°F7.4°C 59% 7.5 mph W12.1 kmh W 10.0 mph16.1 kmh 30.36 in1028.1 mb 0.00 in0.0 mm 0.00 in0.0 mm 0.00 in0.0 mm
02:46 PM 59.6°F15.3°C 45.3°F7.4°C 59% 7.2 mph W11.6 kmh W 8.0 mph12.9 kmh 30.36 in1028.1 mb 0.00 in0.0 mm 0.00 in0.0 mm 0.00 in0.0 mm
02:47 PM 59.6°F15.3°C 45.3°F7.4°C 59% 6.6 mph W10.6 kmh W 8.0 mph12.9 kmh 30.36 in1028.1 mb 0.00 in0.0 mm 0.00 in0.0 mm 0.00 in0.0 mm
02:48 PM 59.6°F15.3°C 45.7°F7.6°C 60% 6.8 mph W10.9 kmh W 9.0 mph14.5 kmh 30.35 in1027.8 mb 0.00 in0.0 mm 0.00 in0.0 mm 0.00 in0.0 mm
02:49 PM 59.5°F15.3°C 45.6°F7.6°C 60% 6.6 mph W10.6 kmh W 9.0 mph14.5 kmh 30.36 in1028.1 mb 0.00 in0.0 mm 0.00 in0.0 mm 0.00 in0.0 mm
02:50 PM 59.6°F15.3°C 46.1°F7.8°C 61% 7.2 mph W11.6 kmh W 8.0 mph12.9 kmh 30.35 in1027.8 mb 0.00 in0.0 mm 0.00 in0.0 mm 0.00 in0.0 mm
02:51 PM 59.5°F15.3°C 45.2°F7.3°C 59% 6.7 mph W10.8 kmh W 8.0 mph12.9 kmh 30.35 in1027.8 mb 0.00 in0.0 mm 0.00 in0.0 mm 0.00 in0.0 mm
02:52 PM 59.5°F15.3°C 45.2°F7.3°C 59% 6.0 mph W9.7 kmh W 7.0 mph11.3 kmh 30.35 in1027.8 mb 0.00 in0.0 mm 0.00 in0.0 mm 0.00 in0.0 mm
02:53 PM 59.6°F15.3°C 45.7°F7.6°C 60% 7.0 mph W11.3 kmh W 8.0 mph12.9 kmh 30.35 in1027.8 mb 0.00 in0.0 mm 0.00 in0.0 mm 0.00 in0.0 mm
02:54 PM 59.7°F15.4°C 45.3°F7.4°C 59% 6.0 mph W9.7 kmh W 8.0 mph12.9 kmh 30.35 in1027.8 mb 0.00 in0.0 mm 0.00 in0.0 mm 0.00 in0.0 mm
02:55 PM 59.7°F15.4°C 45.8°F7.7°C 60% 4.8 mph WNW7.7 kmh WNW 7.0 mph11.3 kmh 30.35 in1027.8 mb 0.00 in0.0 mm 0.00 in0.0 mm 0.00 in0.0 mm
02:56 PM 59.8°F15.4°C 45.9°F7.7°C 60% 4.2 mph WNW6.8 kmh WNW 7.0 mph11.3 kmh 30.35 in1027.8 mb 0.00 in0.0 mm 0.00 in0.0 mm 0.00 in0.0 mm
02:57 PM 59.8°F15.4°C 45.9°F7.7°C 60% 3.2 mph W5.1 kmh W 7.0 mph11.3 kmh 30.35 in1027.8 mb 0.00 in0.0 mm 0.00 in0.0 mm 0.00 in0.0 mm
02:58 PM 59.8°F15.4°C 45.9°F7.7°C 60% 6.2 mph WSW10.0 kmh WSW 8.0 mph12.9 kmh 30.35 in1027.8 mb 0.00 in0.0 mm 0.00 in0.0 mm 0.00 in0.0 mm
02:59 PM 59.9°F15.5°C 46.0°F7.8°C 60% 7.2 mph W11.6 kmh W 9.0 mph14.5 kmh 30.35 in1027.8 mb 0.00 in0.0 mm 0.00 in0.0 mm 0.00 in0.0 mm
03:00 PM 59.9°F15.5°C 46.0°F7.8°C 60% 8.5 mph WSW13.7 kmh WSW 10.0 mph16.1 kmh 30.35 in1027.8 mb 0.00 in0.0 mm 0.00 in0.0 mm 0.00 in0.0 mm
03:01 PM 59.9°F15.5°C 44.6°F7.0°C 57% 7.0 mph W11.3 kmh W 10.0 mph16.1 kmh 30.35 in1027.8 mb 0.00 in0.0 mm 0.00 in0.0 mm 0.00 in0.0 mm
03:02 PM 59.9°F15.5°C 45.1°F7.3°C 58% 6.8 mph W10.9 kmh W 10.0 mph16.1 kmh 30.35 in1027.8 mb 0.00 in0.0 mm 0.00 in0.0 mm 0.00 in0.0 mm
03:03 PM 60.0°F15.6°C 45.6°F7.6°C 59% 4.5 mph W7.2 kmh W 8.0 mph12.9 kmh 30.35 in1027.8 mb 0.00 in0.0 mm 0.00 in0.0 mm 0.00 in0.0 mm
03:04 PM 59.9°F15.5°C 46.0°F7.8°C 60% 8.4 mph W13.5 kmh W 10.0 mph16.1 kmh 30.35 in1027.8 mb 0.00 in0.0 mm 0.00 in0.0 mm 0.00 in0.0 mm
03:05 PM 59.8°F15.4°C 45.4°F7.4°C 59% 9.5 mph W15.3 kmh W 11.0 mph17.7 kmh 30.35 in1027.8 mb 0.00 in0.0 mm 0.00 in0.0 mm 0.00 in0.0 mm
03:06 PM 59.8°F15.4°C 45.4°F7.4°C 59% 9.5 mph WSW15.3 kmh WSW 11.0 mph17.7 kmh 30.35 in1027.8 mb 0.00 in0.0 mm 0.00 in0.0 mm 0.00 in0.0 mm
03:07 PM 59.8°F15.4°C 45.0°F7.2°C 58% 7.1 mph W11.4 kmh W 11.0 mph17.7 kmh 30.35 in1027.8 mb 0.00 in0.0 mm 0.00 in0.0 mm 0.00 in0.0 mm
03:08 PM 59.8°F15.4°C 45.4°F7.4°C 59% 6.8 mph W10.9 kmh W 9.0 mph14.5 kmh 30.35 in1027.8 mb 0.00 in0.0 mm 0.00 in0.0 mm 0.00 in0.0 mm
03:09 PM 59.7°F15.4°C 46.2°F7.9°C 61% 7.1 mph W11.4 kmh W 9.0 mph14.5 kmh 30.35 in1027.8 mb 0.00 in0.0 mm 0.00 in0.0 mm 0.00 in0.0 mm
03:10 PM 59.7°F15.4°C 46.2°F7.9°C 61% 7.8 mph WSW12.6 kmh WSW 9.0 mph14.5 kmh 30.35 in1027.8 mb 0.00 in0.0 mm 0.00 in0.0 mm 0.00 in0.0 mm
03:11 PM 59.7°F15.4°C 45.3°F7.4°C 59% 8.0 mph W12.9 kmh W 9.0 mph14.5 kmh 30.35 in1027.8 mb 0.00 in0.0 mm 0.00 in0.0 mm 0.00 in0.0 mm
03:12 PM 59.7°F15.4°C 45.3°F7.4°C 59% 6.7 mph WSW10.8 kmh WSW 9.0 mph14.5 kmh 30.35 in1027.8 mb 0.00 in0.0 mm 0.00 in0.0 mm 0.00 in0.0 mm
03:13 PM 59.8°F15.4°C 45.4°F7.4°C 59% 6.3 mph WSW10.1 kmh WSW 8.0 mph12.9 kmh 30.35 in1027.8 mb 0.00 in0.0 mm 0.00 in0.0 mm 0.00 in0.0 mm
03:14 PM 59.9°F15.5°C 45.5°F7.5°C 59% 5.5 mph WSW8.9 kmh WSW 8.0 mph12.9 kmh 30.35 in1027.8 mb 0.00 in0.0 mm 0.00 in0.0 mm 0.00 in0.0 mm
03:15 PM 60.1°F15.6°C 45.3°F7.4°C 58% 5.7 mph WSW9.2 kmh WSW 7.0 mph11.3 kmh 30.35 in1027.8 mb 0.00 in0.0 mm 0.00 in0.0 mm 0.00 in0.0 mm
03:16 PM 60.1°F15.6°C 45.7°F7.6°C 59% 4.5 mph W7.2 kmh W 8.0 mph12.9 kmh 30.35 in1027.8 mb 0.00 in0.0 mm 0.00 in0.0 mm 0.00 in0.0 mm
03:17 PM 60.2°F15.7°C 46.3°F7.9°C 60% 5.9 mph W9.5 kmh W 8.0 mph12.9 kmh 30.35 in1027.8 mb 0.00 in0.0 mm 0.00 in0.0 mm 0.00 in0.0 mm
03:18 PM 60.1°F15.6°C 45.7°F7.6°C 59% 7.0 mph W11.3 kmh W 8.0 mph12.9 kmh 30.35 in1027.8 mb 0.00 in0.0 mm 0.00 in0.0 mm 0.00 in0.0 mm
03:19 PM 60.2°F15.7°C 45.4°F7.4°C 58% 6.9 mph W11.1 kmh W 8.0 mph12.9 kmh 30.35 in1027.8 mb 0.00 in0.0 mm 0.00 in0.0 mm 0.00 in0.0 mm
03:20 PM 60.2°F15.7°C 45.8°F7.7°C 59% 8.0 mph W12.9 kmh W 10.0 mph16.1 kmh 30.35 in1027.8 mb 0.00 in0.0 mm 0.00 in0.0 mm 0.00 in0.0 mm
03:21 PM 60.2°F15.7°C 45.8°F7.7°C 59% 8.0 mph W12.9 kmh W 10.0 mph16.1 kmh 30.35 in1027.8 mb 0.00 in0.0 mm 0.00 in0.0 mm 0.00 in0.0 mm
03:22 PM 60.1°F15.6°C 45.3°F7.4°C 58% 5.6 mph W9.0 kmh W 7.0 mph11.3 kmh 30.35 in1027.8 mb 0.00 in0.0 mm 0.00 in0.0 mm 0.00 in0.0 mm
03:23 PM 60.2°F15.7°C 45.4°F7.4°C 58% 5.4 mph W8.7 kmh W 8.0 mph12.9 kmh 30.35 in1027.8 mb 0.00 in0.0 mm 0.00 in0.0 mm 0.00 in0.0 mm
03:24 PM 60.2°F15.7°C 45.4°F7.4°C 58% 7.0 mph W11.3 kmh W 8.0 mph12.9 kmh 30.35 in1027.8 mb 0.00 in0.0 mm 0.00 in0.0 mm 0.00 in0.0 mm
03:25 PM 60.2°F15.7°C 45.8°F7.7°C 59% 5.9 mph W9.5 kmh W 8.0 mph12.9 kmh 30.34 in1027.4 mb 0.00 in0.0 mm 0.00 in0.0 mm 0.00 in0.0 mm
03:26 PM 60.2°F15.7°C 45.8°F7.7°C 59% 5.8 mph W9.3 kmh W 7.0 mph11.3 kmh 30.35 in1027.8 mb 0.00 in0.0 mm 0.00 in0.0 mm 0.00 in0.0 mm
03:27 PM 60.2°F15.7°C 46.3°F7.9°C 60% 6.4 mph WSW10.3 kmh WSW 8.0 mph12.9 kmh 30.34 in1027.4 mb 0.00 in0.0 mm 0.00 in0.0 mm 0.00 in0.0 mm
03:28 PM 60.2°F15.7°C 45.8°F7.7°C 59% 6.5 mph W10.5 kmh W 8.0 mph12.9 kmh 30.34 in1027.4 mb 0.00 in0.0 mm 0.00 in0.0 mm 0.00 in0.0 mm
03:29 PM 60.2°F15.7°C 45.8°F7.7°C 59% 6.5 mph W10.5 kmh W 8.0 mph12.9 kmh 30.35 in1027.8 mb 0.00 in0.0 mm 0.00 in0.0 mm 0.00 in0.0 mm
03:30 PM 60.2°F15.7°C 45.4°F7.4°C 58% 6.4 mph W10.3 kmh W 8.0 mph12.9 kmh 30.34 in1027.4 mb 0.00 in0.0 mm 0.00 in0.0 mm 0.00 in0.0 mm
03:31 PM 60.2°F15.7°C 45.4°F7.4°C 58% 3.5 mph W5.6 kmh W 7.0 mph11.3 kmh 30.34 in1027.4 mb 0.00 in0.0 mm 0.00 in0.0 mm 0.00 in0.0 mm
03:32 PM 60.3°F15.7°C 45.9°F7.7°C 59% 4.1 mph W6.6 kmh W 7.0 mph11.3 kmh 30.34 in1027.4 mb 0.00 in0.0 mm 0.00 in0.0 mm 0.00 in0.0 mm
03:33 PM 60.3°F15.7°C 45.5°F7.5°C 58% 7.4 mph WNW11.9 kmh WNW 8.0 mph12.9 kmh 30.34 in1027.4 mb 0.00 in0.0 mm 0.00 in0.0 mm 0.00 in0.0 mm
03:34 PM 60.3°F15.7°C 45.0°F7.2°C 57% 7.0 mph W11.3 kmh W 9.0 mph14.5 kmh 30.34 in1027.4 mb 0.00 in0.0 mm 0.00 in0.0 mm 0.00 in0.0 mm
03:35 PM 60.2°F15.7°C 45.4°F7.4°C 58% 6.4 mph W10.3 kmh W 8.0 mph12.9 kmh 30.34 in1027.4 mb 0.00 in0.0 mm 0.00 in0.0 mm 0.00 in0.0 mm
03:36 PM 60.2°F15.7°C 45.8°F7.7°C 59% 4.5 mph WNW7.2 kmh WNW 8.0 mph12.9 kmh 30.34 in1027.4 mb 0.00 in0.0 mm 0.00 in0.0 mm 0.00 in0.0 mm
03:37 PM 60.3°F15.7°C 46.8°F8.2°C 61% 7.0 mph WNW11.3 kmh WNW 9.0 mph14.5 kmh 30.34 in1027.4 mb 0.00 in0.0 mm 0.00 in0.0 mm 0.00 in0.0 mm
03:38 PM 60.2°F15.7°C 45.8°F7.7°C 59% 7.0 mph WNW11.3 kmh WNW 9.0 mph14.5 kmh 30.34 in1027.4 mb 0.00 in0.0 mm 0.00 in0.0 mm 0.00 in0.0 mm
03:39 PM 60.2°F15.7°C 46.3°F7.9°C 60% 6.7 mph NW10.8 kmh NW 8.0 mph12.9 kmh 30.34 in1027.4 mb 0.00 in0.0 mm 0.00 in0.0 mm 0.00 in0.0 mm
03:40 PM 60.2°F15.7°C 46.3°F7.9°C 60% 7.2 mph WNW11.6 kmh WNW 9.0 mph14.5 kmh 30.34 in1027.4 mb 0.00 in0.0 mm 0.00 in0.0 mm 0.00 in0.0 mm
03:41 PM 60.0°F15.6°C 45.2°F7.3°C 58% 6.9 mph W11.1 kmh W 9.0 mph14.5 kmh 30.34 in1027.4 mb 0.00 in0.0 mm 0.00 in0.0 mm 0.00 in0.0 mm
03:42 PM 60.0°F15.6°C 45.6°F7.6°C 59% 4.7 mph W7.6 kmh W 8.0 mph12.9 kmh 30.34 in1027.4 mb 0.00 in0.0 mm 0.00 in0.0 mm 0.00 in0.0 mm
03:43 PM 60.0°F15.6°C 46.5°F8.1°C 61% 5.1 mph W8.2 kmh W 7.0 mph11.3 kmh 30.34 in1027.4 mb 0.00 in0.0 mm 0.00 in0.0 mm 0.00 in0.0 mm
03:44 PM 60.0°F15.6°C 46.1°F7.8°C 60% 5.8 mph WNW9.3 kmh WNW 8.0 mph12.9 kmh 30.34 in1027.4 mb 0.00 in0.0 mm 0.00 in0.0 mm 0.00 in0.0 mm
03:45 PM 60.0°F15.6°C 45.6°F7.6°C 59% 6.2 mph WNW10.0 kmh WNW 8.0 mph12.9 kmh 30.34 in1027.4 mb 0.00 in0.0 mm 0.00 in0.0 mm 0.00 in0.0 mm
03:46 PM 60.0°F15.6°C 45.6°F7.6°C 59% 6.7 mph WNW10.8 kmh WNW 9.0 mph14.5 kmh 30.34 in1027.4 mb 0.00 in0.0 mm 0.00 in0.0 mm 0.00 in0.0 mm
03:47 PM 60.0°F15.6°C 44.7°F7.1°C 57% 7.5 mph WNW12.1 kmh WNW 9.0 mph14.5 kmh 30.34 in1027.4 mb 0.00 in0.0 mm 0.00 in0.0 mm 0.00 in0.0 mm
03:48 PM 60.0°F15.6°C 45.6°F7.6°C 59% 6.0 mph WNW9.7 kmh WNW 8.0 mph12.9 kmh 30.34 in1027.4 mb 0.00 in0.0 mm 0.00 in0.0 mm 0.00 in0.0 mm
03:49 PM 60.1°F15.6°C 45.7°F7.6°C 59% 8.0 mph WNW12.9 kmh WNW 9.0 mph14.5 kmh 30.34 in1027.4 mb 0.00 in0.0 mm 0.00 in0.0 mm 0.00 in0.0 mm
03:50 PM 60.0°F15.6°C 45.6°F7.6°C 59% 8.5 mph W13.7 kmh W 9.0 mph14.5 kmh 30.34 in1027.4 mb 0.00 in0.0 mm 0.00 in0.0 mm 0.00 in0.0 mm
03:51 PM 60.0°F15.6°C 45.2°F7.3°C 58% 7.4 mph W11.9 kmh W 9.0 mph14.5 kmh 30.34 in1027.4 mb 0.00 in0.0 mm 0.00 in0.0 mm 0.00 in0.0 mm
03:52 PM 60.0°F15.6°C 45.6°F7.6°C 59% 7.0 mph W11.3 kmh W 10.0 mph16.1 kmh 30.34 in1027.4 mb 0.00 in0.0 mm 0.00 in0.0 mm 0.00 in0.0 mm
03:53 PM 60.0°F15.6°C 46.1°F7.8°C 60% 8.0 mph W12.9 kmh W 9.0 mph14.5 kmh 30.34 in1027.4 mb 0.00 in0.0 mm 0.00 in0.0 mm 0.00 in0.0 mm
03:54 PM 60.0°F15.6°C 46.1°F7.8°C 60% 8.0 mph W12.9 kmh W 8.0 mph12.9 kmh 30.34 in1027.4 mb 0.00 in0.0 mm 0.00 in0.0 mm 0.00 in0.0 mm
03:55 PM 60.0°F15.6°C 46.1°F7.8°C 60% 7.6 mph W12.2 kmh W 8.0 mph12.9 kmh 30.34 in1027.4 mb 0.00 in0.0 mm 0.00 in0.0 mm 0.00 in0.0 mm
03:56 PM 60.1°F15.6°C 46.2°F7.9°C 60% 7.2 mph W11.6 kmh W 8.0 mph12.9 kmh 30.34 in1027.4 mb 0.00 in0.0 mm 0.00 in0.0 mm 0.00 in0.0 mm
03:57 PM 60.1°F15.6°C 46.2°F7.9°C 60% 6.9 mph W11.1 kmh W 8.0 mph12.9 kmh 30.34 in1027.4 mb 0.00 in0.0 mm 0.00 in0.0 mm 0.00 in0.0 mm
03:58 PM 60.0°F15.6°C 46.5°F8.1°C 61% 6.5 mph W10.5 kmh W 8.0 mph12.9 kmh 30.34 in1027.4 mb 0.00 in0.0 mm 0.00 in0.0 mm 0.00 in0.0 mm
03:59 PM 60.1°F15.6°C 46.6°F8.1°C 61% 5.5 mph W8.9 kmh W 7.0 mph11.3 kmh 30.34 in1027.4 mb 0.00 in0.0 mm 0.00 in0.0 mm 0.00 in0.0 mm
04:00 PM 60.1°F15.6°C 46.6°F8.1°C 61% 5.5 mph W8.9 kmh W 7.0 mph11.3 kmh 30.34 in1027.4 mb 0.00 in0.0 mm 0.00 in0.0 mm 0.00 in0.0 mm
04:01 PM 60.1°F15.6°C 46.6°F8.1°C 61% 7.0 mph W11.3 kmh W 9.0 mph14.5 kmh 30.34 in1027.4 mb 0.00 in0.0 mm 0.00 in0.0 mm 0.00 in0.0 mm
04:02 PM 60.0°F15.6°C 45.6°F7.6°C 59% 8.0 mph W12.9 kmh W 9.0 mph14.5 kmh 30.34 in1027.4 mb 0.00 in0.0 mm 0.00 in0.0 mm 0.00 in0.0 mm
04:03 PM 60.1°F15.6°C 46.2°F7.9°C 60% 6.9 mph W11.1 kmh W 7.0 mph11.3 kmh 30.34 in1027.4 mb 0.00 in0.0 mm 0.00 in0.0 mm 0.00 in0.0 mm
04:04 PM 60.0°F15.6°C 45.6°F7.6°C 59% 6.5 mph W10.5 kmh W 8.0 mph12.9 kmh 30.34 in1027.4 mb 0.00 in0.0 mm 0.00 in0.0 mm 0.00 in0.0 mm
04:05 PM 60.1°F15.6°C 45.7°F7.6°C 59% 5.6 mph WNW9.0 kmh WNW 8.0 mph12.9 kmh 30.34 in1027.4 mb 0.00 in0.0 mm 0.00 in0.0 mm 0.00 in0.0 mm
04:06 PM 60.1°F15.6°C 46.6°F8.1°C 61% 3.8 mph WNW6.1 kmh WNW 7.0 mph11.3 kmh 30.34 in1027.4 mb 0.00 in0.0 mm 0.00 in0.0 mm 0.00 in0.0 mm
04:07 PM 60.2°F15.7°C 46.3°F7.9°C 60% 5.0 mph W8.0 kmh W 7.0 mph11.3 kmh 30.34 in1027.4 mb 0.00 in0.0 mm 0.00 in0.0 mm 0.00 in0.0 mm
04:08 PM 60.2°F15.7°C 46.7°F8.2°C 61% 5.2 mph W8.4 kmh W 8.0 mph12.9 kmh 30.34 in1027.4 mb 0.00 in0.0 mm 0.00 in0.0 mm 0.00 in0.0 mm
04:09 PM 60.3°F15.7°C 46.4°F8.0°C 60% 6.2 mph W10.0 kmh W 8.0 mph12.9 kmh 30.34 in1027.4 mb 0.00 in0.0 mm 0.00 in0.0 mm 0.00 in0.0 mm
04:10 PM 60.4°F15.8°C 46.4°F8.0°C 60% 4.8 mph WNW7.7 kmh WNW 8.0 mph12.9 kmh 30.34 in1027.4 mb 0.00 in0.0 mm 0.00 in0.0 mm 0.00 in0.0 mm
04:11 PM 60.4°F15.8°C 46.4°F8.0°C 60% 3.8 mph W6.1 kmh W 7.0 mph11.3 kmh 30.34 in1027.4 mb 0.00 in0.0 mm 0.00 in0.0 mm 0.00 in0.0 mm
04:12 PM 60.5°F15.8°C 47.0°F8.3°C 61% 5.2 mph W8.4 kmh W 8.0 mph12.9 kmh 30.34 in1027.4 mb 0.00 in0.0 mm 0.00 in0.0 mm 0.00 in0.0 mm
04:13 PM 60.6°F15.9°C 45.7°F7.6°C 58% 7.7 mph W12.4 kmh W 10.0 mph16.1 kmh 30.34 in1027.4 mb 0.00 in0.0 mm 0.00 in0.0 mm 0.00 in0.0 mm
04:14 PM 60.6°F15.9°C 46.2°F7.9°C 59% 6.6 mph W10.6 kmh W 10.0 mph16.1 kmh 30.34 in1027.4 mb 0.00 in0.0 mm 0.00 in0.0 mm 0.00 in0.0 mm
04:15 PM 60.6°F15.9°C 46.2°F7.9°C 59% 7.6 mph W12.2 kmh W 10.0 mph16.1 kmh 30.34 in1027.4 mb 0.00 in0.0 mm 0.00 in0.0 mm 0.00 in0.0 mm
04:16 PM 60.5°F15.8°C 46.1°F7.8°C 59% 7.1 mph W11.4 kmh W 10.0 mph16.1 kmh 30.34 in1027.4 mb 0.00 in0.0 mm 0.00 in0.0 mm 0.00 in0.0 mm
04:17 PM 60.5°F15.8°C 45.6°F7.6°C 58% 7.7 mph W12.4 kmh W 10.0 mph16.1 kmh 30.33 in1027.1 mb 0.00 in0.0 mm 0.00 in0.0 mm 0.00 in0.0 mm
04:18 PM 60.4°F15.8°C 45.1°F7.3°C 57% 6.3 mph W10.1 kmh W 10.0 mph16.1 kmh 30.33 in1027.1 mb 0.00 in0.0 mm 0.00 in0.0 mm 0.00 in0.0 mm
04:19 PM 60.5°F15.8°C 45.6°F7.6°C 58% 6.2 mph W10.0 kmh W 8.0 mph12.9 kmh 30.33 in1027.1 mb 0.00 in0.0 mm 0.00 in0.0 mm 0.00 in0.0 mm
04:20 PM 60.5°F15.8°C 46.1°F7.8°C 59% 7.0 mph WNW11.3 kmh WNW 9.0 mph14.5 kmh 30.33 in1027.1 mb 0.00 in0.0 mm 0.00 in0.0 mm 0.00 in0.0 mm
04:21 PM 60.5°F15.8°C 46.5°F8.1°C 60% 8.0 mph WNW12.9 kmh WNW 9.0 mph14.5 kmh 30.33 in1027.1 mb 0.00 in0.0 mm 0.00 in0.0 mm 0.00 in0.0 mm
04:22 PM 60.4°F15.8°C 46.4°F8.0°C 60% 9.8 mph WNW15.8 kmh WNW 11.0 mph17.7 kmh 30.33 in1027.1 mb 0.00 in0.0 mm 0.00 in0.0 mm 0.00 in0.0 mm
04:23 PM 60.3°F15.7°C 45.0°F7.2°C 57% 7.9 mph NW12.7 kmh NW 11.0 mph17.7 kmh 30.33 in1027.1 mb 0.00 in0.0 mm 0.00 in0.0 mm 0.00 in0.0 mm
04:24 PM 60.2°F15.7°C 44.9°F7.2°C 57% 8.0 mph NW12.9 kmh NW 9.0 mph14.5 kmh 30.33 in1027.1 mb 0.00 in0.0 mm 0.00 in0.0 mm 0.00 in0.0 mm
04:25 PM 60.1°F15.6°C 46.2°F7.9°C 60% 8.0 mph WNW12.9 kmh WNW 8.0 mph12.9 kmh 30.33 in1027.1 mb 0.00 in0.0 mm 0.00 in0.0 mm 0.00 in0.0 mm
04:26 PM 60.0°F15.6°C 46.5°F8.1°C 61% 7.0 mph WNW11.3 kmh WNW 9.0 mph14.5 kmh 30.33 in1027.1 mb 0.00 in0.0 mm 0.00 in0.0 mm 0.00 in0.0 mm
04:27 PM 60.0°F15.6°C 46.5°F8.1°C 61% 5.9 mph WNW9.5 kmh WNW 8.0 mph12.9 kmh 30.33 in1027.1 mb 0.00 in0.0 mm 0.00 in0.0 mm 0.00 in0.0 mm
04:28 PM 59.9°F15.5°C 45.5°F7.5°C 59% 7.5 mph W12.1 kmh W 9.0 mph14.5 kmh 30.33 in1027.1 mb 0.00 in0.0 mm 0.00 in0.0 mm 0.00 in0.0 mm
04:29 PM 60.0°F15.6°C 46.5°F8.1°C 61% 6.9 mph W11.1 kmh W 9.0 mph14.5 kmh 30.33 in1027.1 mb 0.00 in0.0 mm 0.00 in0.0 mm 0.00 in0.0 mm
04:30 PM 60.0°F15.6°C 46.5°F8.1°C 61% 7.4 mph W11.9 kmh W 8.0 mph12.9 kmh 30.33 in1027.1 mb 0.00 in0.0 mm 0.00 in0.0 mm 0.00 in0.0 mm
04:31 PM 60.0°F15.6°C 46.5°F8.1°C 61% 6.3 mph W10.1 kmh W 8.0 mph12.9 kmh 30.33 in1027.1 mb 0.00 in0.0 mm 0.00 in0.0 mm 0.00 in0.0 mm
04:32 PM 60.0°F15.6°C 46.5°F8.1°C 61% 7.4 mph WNW11.9 kmh WNW 12.0 mph19.3 kmh 30.33 in1027.1 mb 0.00 in0.0 mm 0.00 in0.0 mm 0.00 in0.0 mm
04:33 PM 60.0°F15.6°C 46.1°F7.8°C 60% 9.4 mph WNW15.1 kmh WNW 12.0 mph19.3 kmh 30.33 in1027.1 mb 0.00 in0.0 mm 0.00 in0.0 mm 0.00 in0.0 mm
04:34 PM 59.9°F15.5°C 46.0°F7.8°C 60% 6.8 mph WNW10.9 kmh WNW 11.0 mph17.7 kmh 30.33 in1027.1 mb 0.00 in0.0 mm 0.00 in0.0 mm 0.00 in0.0 mm
04:35 PM 60.0°F15.6°C 46.5°F8.1°C 61% 6.0 mph W9.7 kmh W 8.0 mph12.9 kmh 30.33 in1027.1 mb 0.00 in0.0 mm 0.00 in0.0 mm 0.00 in0.0 mm
04:36 PM 59.9°F15.5°C 46.8°F8.2°C 62% 6.0 mph WNW9.7 kmh WNW 8.0 mph12.9 kmh 30.33 in1027.1 mb 0.00 in0.0 mm 0.00 in0.0 mm 0.00 in0.0 mm
04:37 PM 59.9°F15.5°C 46.4°F8.0°C 61% 8.0 mph WNW12.9 kmh WNW 9.0 mph14.5 kmh 30.33 in1027.1 mb 0.00 in0.0 mm 0.00 in0.0 mm 0.00 in0.0 mm
04:38 PM 59.9°F15.5°C 46.0°F7.8°C 60% 7.0 mph WNW11.3 kmh WNW 8.0 mph12.9 kmh 30.33 in1027.1 mb 0.00 in0.0 mm 0.00 in0.0 mm 0.00 in0.0 mm
04:39 PM 59.9°F15.5°C 46.0°F7.8°C 60% 8.1 mph WNW13.0 kmh WNW 10.0 mph16.1 kmh 30.33 in1027.1 mb 0.00 in0.0 mm 0.00 in0.0 mm 0.00 in0.0 mm
04:40 PM 59.8°F15.4°C 45.9°F7.7°C 60% 4.8 mph W7.7 kmh W 10.0 mph16.1 kmh 30.33 in1027.1 mb 0.00 in0.0 mm 0.00 in0.0 mm 0.00 in0.0 mm
04:41 PM 59.9°F15.5°C 46.8°F8.2°C 62% 7.0 mph W11.3 kmh W 9.0 mph14.5 kmh 30.33 in1027.1 mb 0.00 in0.0 mm 0.00 in0.0 mm 0.00 in0.0 mm
04:42 PM 59.8°F15.4°C 46.3°F7.9°C 61% 6.0 mph WNW9.7 kmh WNW 9.0 mph14.5 kmh 30.33 in1027.1 mb 0.00 in0.0 mm 0.00 in0.0 mm 0.00 in0.0 mm
04:43 PM 59.9°F15.5°C 46.0°F7.8°C 60% 7.2 mph W11.6 kmh W 8.0 mph12.9 kmh 30.33 in1027.1 mb 0.00 in0.0 mm 0.00 in0.0 mm 0.00 in0.0 mm
04:44 PM 60.0°F15.6°C 46.5°F8.1°C 61% 7.8 mph WNW12.6 kmh WNW 9.0 mph14.5 kmh 30.33 in1027.1 mb 0.00 in0.0 mm 0.00 in0.0 mm 0.00 in0.0 mm
04:45 PM 60.0°F15.6°C 46.9°F8.3°C 62% 6.5 mph WNW10.5 kmh WNW 9.0 mph14.5 kmh 30.33 in1027.1 mb 0.00 in0.0 mm 0.00 in0.0 mm 0.00 in0.0 mm
04:46 PM 60.0°F15.6°C 46.5°F8.1°C 61% 5.8 mph W9.3 kmh W 8.0 mph12.9 kmh 30.33 in1027.1 mb 0.00 in0.0 mm 0.00 in0.0 mm 0.00 in0.0 mm
04:47 PM 60.0°F15.6°C 46.1°F7.8°C 60% 5.7 mph W9.2 kmh W 7.0 mph11.3 kmh 30.33 in1027.1 mb 0.00 in0.0 mm 0.00 in0.0 mm 0.00 in0.0 mm
04:48 PM 60.2°F15.7°C 46.3°F7.9°C 60% 4.4 mph W7.1 kmh W 7.0 mph11.3 kmh 30.33 in1027.1 mb 0.00 in0.0 mm 0.00 in0.0 mm 0.00 in0.0 mm
04:49 PM 60.2°F15.7°C 46.7°F8.2°C 61% 6.9 mph W11.1 kmh W 8.0 mph12.9 kmh 30.33 in1027.1 mb 0.00 in0.0 mm 0.00 in0.0 mm 0.00 in0.0 mm
04:50 PM 60.2°F15.7°C 47.1°F8.4°C 62% 5.6 mph WNW9.0 kmh WNW 8.0 mph12.9 kmh 30.33 in1027.1 mb 0.00 in0.0 mm 0.00 in0.0 mm 0.00 in0.0 mm
04:51 PM 60.3°F15.7°C 46.8°F8.2°C 61% 4.5 mph WNW7.2 kmh WNW 7.0 mph11.3 kmh 30.33 in1027.1 mb 0.00 in0.0 mm 0.00 in0.0 mm 0.00 in0.0 mm
04:52 PM 60.2°F15.7°C 46.3°F7.9°C 60% 7.4 mph WNW11.9 kmh WNW 10.0 mph16.1 kmh 30.33 in1027.1 mb 0.00 in0.0 mm 0.00 in0.0 mm 0.00 in0.0 mm
04:53 PM 60.1°F15.6°C 46.2°F7.9°C 60% 5.4 mph W8.7 kmh W 10.0 mph16.1 kmh 30.33 in1027.1 mb 0.00 in0.0 mm 0.00 in0.0 mm 0.00 in0.0 mm
04:54 PM 60.0°F15.6°C 46.1°F7.8°C 60% 5.3 mph W8.5 kmh W 8.0 mph12.9 kmh 30.33 in1027.1 mb 0.00 in0.0 mm 0.00 in0.0 mm 0.00 in0.0 mm
04:55 PM 60.0°F15.6°C 46.5°F8.1°C 61% 5.0 mph WNW8.0 kmh WNW 7.0 mph11.3 kmh 30.33 in1027.1 mb 0.00 in0.0 mm 0.00 in0.0 mm 0.00 in0.0 mm
04:56 PM 60.1°F15.6°C 46.6°F8.1°C 61% 6.0 mph WNW9.7 kmh WNW 8.0 mph12.9 kmh 30.33 in1027.1 mb 0.00 in0.0 mm 0.00 in0.0 mm 0.00 in0.0 mm
04:57 PM 60.1°F15.6°C 46.2°F7.9°C 60% 5.0 mph WNW8.0 kmh WNW 5.0 mph8.0 kmh 30.33 in1027.1 mb 0.00 in0.0 mm 0.00 in0.0 mm 0.00 in0.0 mm
04:58 PM 60.1°F15.6°C 46.2°F7.9°C 60% 6.4 mph WNW10.3 kmh WNW 8.0 mph12.9 kmh 30.33 in1027.1 mb 0.00 in0.0 mm 0.00 in0.0 mm 0.00 in0.0 mm
04:59 PM 60.2°F15.7°C 46.7°F8.2°C 61% 7.0 mph WNW11.3 kmh WNW 8.0 mph12.9 kmh 30.33 in1027.1 mb 0.00 in0.0 mm 0.00 in0.0 mm 0.00 in0.0 mm
05:00 PM 60.1°F15.6°C 46.6°F8.1°C 61% 6.0 mph WNW9.7 kmh WNW 7.0 mph11.3 kmh 30.33 in1027.1 mb 0.00 in0.0 mm 0.00 in0.0 mm 0.00 in0.0 mm
05:01 PM 60.1°F15.6°C 46.2°F7.9°C 60% 7.7 mph WNW12.4 kmh WNW 8.0 mph12.9 kmh 30.33 in1027.1 mb 0.00 in0.0 mm 0.00 in0.0 mm 0.00 in0.0 mm
05:02 PM 60.0°F15.6°C 45.6°F7.6°C 59% 6.7 mph WNW10.8 kmh WNW 8.0 mph12.9 kmh 30.33 in1027.1 mb 0.00 in0.0 mm 0.00 in0.0 mm 0.00 in0.0 mm
05:03 PM 59.9°F15.5°C 46.4°F8.0°C 61% 8.4 mph NW13.5 kmh NW 10.0 mph16.1 kmh 30.33 in1027.1 mb 0.00 in0.0 mm 0.00 in0.0 mm 0.00 in0.0 mm
05:04 PM 59.8°F15.4°C 46.3°F7.9°C 61% 9.5 mph WNW15.3 kmh WNW 10.0 mph16.1 kmh 30.33 in1027.1 mb 0.00 in0.0 mm 0.00 in0.0 mm 0.00 in0.0 mm
05:05 PM 59.8°F15.4°C 45.4°F7.4°C 59% 8.0 mph WNW12.9 kmh WNW 10.0 mph16.1 kmh 30.32 in1026.8 mb 0.00 in0.0 mm 0.00 in0.0 mm 0.00 in0.0 mm
05:06 PM 59.8°F15.4°C 45.9°F7.7°C 60% 8.0 mph WNW12.9 kmh WNW 9.0 mph14.5 kmh 30.33 in1027.1 mb 0.00 in0.0 mm 0.00 in0.0 mm 0.00 in0.0 mm
05:07 PM 59.7°F15.4°C 46.2°F7.9°C 61% 8.5 mph NW13.7 kmh NW 9.0 mph14.5 kmh 30.33 in1027.1 mb 0.00 in0.0 mm 0.00 in0.0 mm 0.00 in0.0 mm
05:08 PM 59.6°F15.3°C 46.1°F7.8°C 61% 8.0 mph NW12.9 kmh NW 9.0 mph14.5 kmh 30.32 in1026.8 mb 0.00 in0.0 mm 0.00 in0.0 mm 0.00 in0.0 mm
05:09 PM 59.6°F15.3°C 45.7°F7.6°C 60% 8.0 mph WNW12.9 kmh WNW 9.0 mph14.5 kmh 30.33 in1027.1 mb 0.00 in0.0 mm 0.00 in0.0 mm 0.00 in0.0 mm
05:10 PM 59.4°F15.2°C 46.4°F8.0°C 62% 8.0 mph WNW12.9 kmh WNW 9.0 mph14.5 kmh 30.32 in1026.8 mb 0.00 in0.0 mm 0.00 in0.0 mm 0.00 in0.0 mm
05:11 PM 59.4°F15.2°C 46.4°F8.0°C 62% 7.0 mph WNW11.3 kmh WNW 9.0 mph14.5 kmh 30.32 in1026.8 mb 0.00 in0.0 mm 0.00 in0.0 mm 0.00 in0.0 mm
05:12 PM 59.4°F15.2°C 46.4°F8.0°C 62% 6.0 mph WNW9.7 kmh WNW 7.0 mph11.3 kmh 30.32 in1026.8 mb 0.00 in0.0 mm 0.00 in0.0 mm 0.00 in0.0 mm
05:13 PM 59.4°F15.2°C 45.9°F7.7°C 61% 5.9 mph WNW9.5 kmh WNW 7.0 mph11.3 kmh 30.32 in1026.8 mb 0.00 in0.0 mm 0.00 in0.0 mm 0.00 in0.0 mm
05:14 PM 59.6°F15.3°C 46.6°F8.1°C 62% 6.4 mph WNW10.3 kmh WNW 8.0 mph12.9 kmh 30.32 in1026.8 mb 0.00 in0.0 mm 0.00 in0.0 mm 0.00 in0.0 mm
05:15 PM 59.6°F15.3°C 46.6°F8.1°C 62% 8.7 mph WNW14.0 kmh WNW 11.0 mph17.7 kmh 30.32 in1026.8 mb 0.00 in0.0 mm 0.00 in0.0 mm 0.00 in0.0 mm
05:16 PM 59.7°F15.4°C 46.2°F7.9°C 61% 9.3 mph WNW15.0 kmh WNW 11.0 mph17.7 kmh 30.32 in1026.8 mb 0.00 in0.0 mm 0.00 in0.0 mm 0.00 in0.0 mm
05:17 PM 59.6°F15.3°C 46.1°F7.8°C 61% 8.8 mph WNW14.2 kmh WNW 10.0 mph16.1 kmh 30.32 in1026.8 mb 0.00 in0.0 mm 0.00 in0.0 mm 0.00 in0.0 mm
05:18 PM 59.6°F15.3°C 46.6°F8.1°C 62% 9.0 mph WNW14.5 kmh WNW 10.0 mph16.1 kmh 30.33 in1027.1 mb 0.00 in0.0 mm 0.00 in0.0 mm 0.00 in0.0 mm
05:19 PM 59.5°F15.3°C 46.5°F8.1°C 62% 9.0 mph WNW14.5 kmh WNW 10.0 mph16.1 kmh 30.32 in1026.8 mb 0.00 in0.0 mm 0.00 in0.0 mm 0.00 in0.0 mm
05:20 PM 59.5°F15.3°C 46.5°F8.1°C 62% 9.0 mph WNW14.5 kmh WNW 11.0 mph17.7 kmh 30.32 in1026.8 mb 0.00 in0.0 mm 0.00 in0.0 mm 0.00 in0.0 mm
05:21 PM 59.5°F15.3°C 46.5°F8.1°C 62% 9.0 mph WNW14.5 kmh WNW 10.0 mph16.1 kmh 30.33 in1027.1 mb 0.00 in0.0 mm 0.00 in0.0 mm 0.00 in0.0 mm
05:22 PM 59.5°F15.3°C 46.9°F8.3°C 63% 9.0 mph WNW14.5 kmh WNW 10.0 mph16.1 kmh 30.32 in1026.8 mb 0.00 in0.0 mm 0.00 in0.0 mm 0.00 in0.0 mm
05:23 PM 59.4°F15.2°C 46.8°F8.2°C 63% 8.9 mph NW14.3 kmh NW 10.0 mph16.1 kmh 30.32 in1026.8 mb 0.00 in0.0 mm 0.00 in0.0 mm 0.00 in0.0 mm
05:24 PM 59.4°F15.2°C 45.9°F7.7°C 61% 9.1 mph NW14.6 kmh NW 10.0 mph16.1 kmh 30.33 in1027.1 mb 0.00 in0.0 mm 0.00 in0.0 mm 0.00 in0.0 mm
05:25 PM 59.3°F15.2°C 45.9°F7.7°C 61% 10.0 mph WNW16.1 kmh WNW 13.0 mph20.9 kmh 30.33 in1027.1 mb 0.00 in0.0 mm 0.00 in0.0 mm 0.00 in0.0 mm
05:26 PM 59.4°F15.2°C 45.9°F7.7°C 61% 9.0 mph WNW14.5 kmh WNW 10.0 mph16.1 kmh 30.33 in1027.1 mb 0.00 in0.0 mm 0.00 in0.0 mm 0.00 in0.0 mm
05:27 PM 59.5°F15.3°C 46.0°F7.8°C 61% 9.0 mph WNW14.5 kmh WNW 9.0 mph14.5 kmh 30.33 in1027.1 mb 0.00 in0.0 mm 0.00 in0.0 mm 0.00 in0.0 mm
05:28 PM 59.5°F15.3°C 46.0°F7.8°C 61% 8.9 mph WNW14.3 kmh WNW 10.0 mph16.1 kmh 30.33 in1027.1 mb 0.00 in0.0 mm 0.00 in0.0 mm 0.00 in0.0 mm
05:29 PM 59.5°F15.3°C 46.0°F7.8°C 61% 9.5 mph WNW15.3 kmh WNW 10.0 mph16.1 kmh 30.33 in1027.1 mb 0.00 in0.0 mm 0.00 in0.0 mm 0.00 in0.0 mm
05:30 PM 59.5°F15.3°C 46.0°F7.8°C 61% 10.0 mph WNW16.1 kmh WNW 11.0 mph17.7 kmh 30.33 in1027.1 mb 0.00 in0.0 mm 0.00 in0.0 mm 0.00 in0.0 mm
05:31 PM 59.5°F15.3°C 46.0°F7.8°C 61% 10.0 mph WNW16.1 kmh WNW 11.0 mph17.7 kmh 30.33 in1027.1 mb 0.00 in0.0 mm 0.00 in0.0 mm 0.00 in0.0 mm
05:32 PM 59.4°F15.2°C 46.4°F8.0°C 62% 10.0 mph WNW16.1 kmh WNW 11.0 mph17.7 kmh 30.33 in1027.1 mb 0.00 in0.0 mm 0.00 in0.0 mm 0.00 in0.0 mm
05:33 PM 59.4°F15.2°C 45.9°F7.7°C 61% 10.0 mph WNW16.1 kmh WNW 11.0 mph17.7 kmh 30.33 in1027.1 mb 0.00 in0.0 mm 0.00 in0.0 mm 0.00 in0.0 mm
05:34 PM 59.5°F15.3°C 46.0°F7.8°C 61% 8.0 mph W12.9 kmh W 11.0 mph17.7 kmh 30.33 in1027.1 mb 0.00 in0.0 mm 0.00 in0.0 mm 0.00 in0.0 mm
05:35 PM 59.6°F15.3°C 46.6°F8.1°C 62% 7.7 mph W12.4 kmh W 8.0 mph12.9 kmh 30.33 in1027.1 mb 0.00 in0.0 mm 0.00 in0.0 mm 0.00 in0.0 mm
05:36 PM 59.7°F15.4°C 46.2°F7.9°C 61% 7.5 mph W12.1 kmh W 9.0 mph14.5 kmh 30.33 in1027.1 mb 0.00 in0.0 mm 0.00 in0.0 mm 0.00 in0.0 mm
05:37 PM 59.9°F15.5°C 46.0°F7.8°C 60% 8.1 mph W13.0 kmh W 9.0 mph14.5 kmh 30.32 in1026.8 mb 0.00 in0.0 mm 0.00 in0.0 mm 0.00 in0.0 mm
05:38 PM 59.9°F15.5°C 45.5°F7.5°C 59% 10.5 mph W16.9 kmh W 11.0 mph17.7 kmh 30.33 in1027.1 mb 0.00 in0.0 mm 0.00 in0.0 mm 0.00 in0.0 mm
05:39 PM 59.9°F15.5°C 45.1°F7.3°C 58% 8.0 mph W12.9 kmh W 11.0 mph17.7 kmh 30.33 in1027.1 mb 0.00 in0.0 mm 0.00 in0.0 mm 0.00 in0.0 mm
05:40 PM 60.0°F15.6°C 46.1°F7.8°C 60% 6.3 mph W10.1 kmh W 9.0 mph14.5 kmh 30.32 in1026.8 mb 0.00 in0.0 mm 0.00 in0.0 mm 0.00 in0.0 mm
05:41 PM 60.0°F15.6°C 45.2°F7.3°C 58% 6.0 mph W9.7 kmh W 7.0 mph11.3 kmh 30.32 in1026.8 mb 0.00 in0.0 mm 0.00 in0.0 mm 0.00 in0.0 mm
05:42 PM 60.1°F15.6°C 45.7°F7.6°C 59% 5.0 mph W8.0 kmh W 7.0 mph11.3 kmh 30.32 in1026.8 mb 0.00 in0.0 mm 0.00 in0.0 mm 0.00 in0.0 mm
05:43 PM 60.2°F15.7°C 45.8°F7.7°C 59% 5.0 mph W8.0 kmh W 6.0 mph9.7 kmh 30.32 in1026.8 mb 0.00 in0.0 mm 0.00 in0.0 mm 0.00 in0.0 mm
05:44 PM 60.3°F15.7°C 45.9°F7.7°C 59% 7.0 mph W11.3 kmh W 8.0 mph12.9 kmh 30.32 in1026.8 mb 0.00 in0.0 mm 0.00 in0.0 mm 0.00 in0.0 mm
05:45 PM 60.4°F15.8°C 46.4°F8.0°C 60% 7.0 mph W11.3 kmh W 8.0 mph12.9 kmh 30.32 in1026.8 mb 0.00 in0.0 mm 0.00 in0.0 mm 0.00 in0.0 mm
05:46 PM 60.4°F15.8°C 46.4°F8.0°C 60% 5.9 mph W9.5 kmh W 7.0 mph11.3 kmh 30.32 in1026.8 mb 0.00 in0.0 mm 0.00 in0.0 mm 0.00 in0.0 mm
05:47 PM 60.3°F15.7°C 46.8°F8.2°C 61% 5.9 mph W9.5 kmh W 8.0 mph12.9 kmh 30.32 in1026.8 mb 0.00 in0.0 mm 0.00 in0.0 mm 0.00 in0.0 mm
05:48 PM 60.3°F15.7°C 46.8°F8.2°C 61% 5.0 mph W8.0 kmh W 6.0 mph9.7 kmh 30.32 in1026.8 mb 0.00 in0.0 mm 0.00 in0.0 mm 0.00 in0.0 mm
05:49 PM 60.3°F15.7°C 47.2°F8.4°C 62% 5.0 mph W8.0 kmh W 7.0 mph11.3 kmh 30.32 in1026.8 mb 0.00 in0.0 mm 0.00 in0.0 mm 0.00 in0.0 mm
05:50 PM 60.2°F15.7°C 47.1°F8.4°C 62% 7.0 mph WNW11.3 kmh WNW 9.0 mph14.5 kmh 30.32 in1026.8 mb 0.00 in0.0 mm 0.00 in0.0 mm 0.00 in0.0 mm
05:51 PM 60.1°F15.6°C 46.6°F8.1°C 61% 6.0 mph WNW9.7 kmh WNW 8.0 mph12.9 kmh 30.32 in1026.8 mb 0.00 in0.0 mm 0.00 in0.0 mm 0.00 in0.0 mm
05:52 PM 60.0°F15.6°C 46.5°F8.1°C 61% 7.0 mph WNW11.3 kmh WNW 7.0 mph11.3 kmh 30.32 in1026.8 mb 0.00 in0.0 mm 0.00 in0.0 mm 0.00 in0.0 mm
05:53 PM 60.0°F15.6°C 47.4°F8.6°C 63% 8.4 mph NW13.5 kmh NW 9.0 mph14.5 kmh 30.32 in1026.8 mb 0.00 in0.0 mm 0.00 in0.0 mm 0.00 in0.0 mm
05:54 PM 59.9°F15.5°C 46.8°F8.2°C 62% 7.1 mph WNW11.4 kmh WNW 9.0 mph14.5 kmh 30.32 in1026.8 mb 0.00 in0.0 mm 0.00 in0.0 mm 0.00 in0.0 mm
05:55 PM 59.9°F15.5°C 46.8°F8.2°C 62% 7.3 mph WNW11.7 kmh WNW 9.0 mph14.5 kmh 30.32 in1026.8 mb 0.00 in0.0 mm 0.00 in0.0 mm 0.00 in0.0 mm
05:56 PM 59.8°F15.4°C 47.2°F8.4°C 63% 6.6 mph WNW10.6 kmh WNW 9.0 mph14.5 kmh 30.32 in1026.8 mb 0.00 in0.0 mm 0.00 in0.0 mm 0.00 in0.0 mm
05:57 PM 59.8°F15.4°C 47.2°F8.4°C 63% 6.4 mph WNW10.3 kmh WNW 8.0 mph12.9 kmh 30.32 in1026.8 mb 0.00 in0.0 mm 0.00 in0.0 mm 0.00 in0.0 mm
05:58 PM 59.7°F15.4°C 47.5°F8.6°C 64% 8.0 mph WNW12.9 kmh WNW 9.0 mph14.5 kmh 30.32 in1026.8 mb 0.00 in0.0 mm 0.00 in0.0 mm 0.00 in0.0 mm
05:59 PM 59.6°F15.3°C 47.4°F8.6°C 64% 8.0 mph WNW12.9 kmh WNW 10.0 mph16.1 kmh 30.32 in1026.8 mb 0.00 in0.0 mm 0.00 in0.0 mm 0.00 in0.0 mm
06:00 PM 59.5°F15.3°C 47.3°F8.5°C 64% 8.0 mph WNW12.9 kmh WNW 8.0 mph12.9 kmh 30.32 in1026.8 mb 0.00 in0.0 mm 0.00 in0.0 mm 0.00 in0.0 mm
06:01 PM 59.4°F15.2°C 47.2°F8.4°C 64% 8.0 mph WNW12.9 kmh WNW 9.0 mph14.5 kmh 30.32 in1026.8 mb 0.00 in0.0 mm 0.00 in0.0 mm 0.00 in0.0 mm
06:02 PM 59.3°F15.2°C 47.1°F8.4°C 64% 7.3 mph WNW11.7 kmh WNW 8.0 mph12.9 kmh 30.32 in1026.8 mb 0.00 in0.0 mm 0.00 in0.0 mm 0.00 in0.0 mm
06:03 PM 59.4°F15.2°C 45.9°F7.7°C 61% 7.0 mph WNW11.3 kmh WNW 8.0 mph12.9 kmh 30.32 in1026.8 mb 0.00 in0.0 mm 0.00 in0.0 mm 0.00 in0.0 mm
06:04 PM 59.5°F15.3°C 46.5°F8.1°C 62% 8.0 mph WNW12.9 kmh WNW 9.0 mph14.5 kmh 30.32 in1026.8 mb 0.00 in0.0 mm 0.00 in0.0 mm 0.00 in0.0 mm
06:05 PM 59.5°F15.3°C 46.9°F8.3°C 63% 7.7 mph NW12.4 kmh NW 9.0 mph14.5 kmh 30.32 in1026.8 mb 0.00 in0.0 mm 0.00 in0.0 mm 0.00 in0.0 mm
06:06 PM 59.5°F15.3°C 46.5°F8.1°C 62% 9.3 mph NW15.0 kmh NW 10.0 mph16.1 kmh 30.32 in1026.8 mb 0.00 in0.0 mm 0.00 in0.0 mm 0.00 in0.0 mm
06:07 PM 59.4°F15.2°C 45.9°F7.7°C 61% 9.0 mph NW14.5 kmh NW 10.0 mph16.1 kmh 30.32 in1026.8 mb 0.00 in0.0 mm 0.00 in0.0 mm 0.00 in0.0 mm
06:08 PM 59.3°F15.2°C 46.3°F7.9°C 62% 9.0 mph NW14.5 kmh NW 10.0 mph16.1 kmh 30.32 in1026.8 mb 0.00 in0.0 mm 0.00 in0.0 mm 0.00 in0.0 mm
06:09 PM 59.4°F15.2°C 46.4°F8.0°C 62% 9.0 mph WNW14.5 kmh WNW 10.0 mph16.1 kmh 30.32 in1026.8 mb 0.00 in0.0 mm 0.00 in0.0 mm 0.00 in0.0 mm
06:10 PM 59.4°F15.2°C 45.9°F7.7°C 61% 7.9 mph WNW12.7 kmh WNW 9.0 mph14.5 kmh 30.32 in1026.8 mb 0.00 in0.0 mm 0.00 in0.0 mm 0.00 in0.0 mm
06:11 PM 59.4°F15.2°C 45.9°F7.7°C 61% 7.7 mph WNW12.4 kmh WNW 9.0 mph14.5 kmh 30.32 in1026.8 mb 0.00 in0.0 mm 0.00 in0.0 mm 0.00 in0.0 mm
06:12 PM 59.4°F15.2°C 46.4°F8.0°C 62% 7.5 mph WNW12.1 kmh WNW 9.0 mph14.5 kmh 30.32 in1026.8 mb 0.00 in0.0 mm 0.00 in0.0 mm 0.00 in0.0 mm
06:13 PM 59.4°F15.2°C 46.4°F8.0°C 62% 7.5 mph NW12.1 kmh NW 9.0 mph14.5 kmh 30.32 in1026.8 mb 0.00 in0.0 mm 0.00 in0.0 mm 0.00 in0.0 mm
06:14 PM 59.3°F15.2°C 46.7°F8.2°C 63% 7.8 mph NW12.6 kmh NW 9.0 mph14.5 kmh 30.32 in1026.8 mb 0.00 in0.0 mm 0.00 in0.0 mm 0.00 in0.0 mm
06:15 PM 59.3°F15.2°C 46.7°F8.2°C 63% 8.0 mph WNW12.9 kmh WNW 9.0 mph14.5 kmh 30.32 in1026.8 mb 0.00 in0.0 mm 0.00 in0.0 mm 0.00 in0.0 mm
06:16 PM 59.4°F15.2°C 45.9°F7.7°C 61% 7.0 mph WNW11.3 kmh WNW 8.0 mph12.9 kmh 30.32 in1026.8 mb 0.00 in0.0 mm 0.00 in0.0 mm 0.00 in0.0 mm
06:17 PM 59.5°F15.3°C 46.0°F7.8°C 61% 7.0 mph WNW11.3 kmh WNW 8.0 mph12.9 kmh 30.32 in1026.8 mb 0.00 in0.0 mm 0.00 in0.0 mm 0.00 in0.0 mm
06:18 PM 59.5°F15.3°C 46.0°F7.8°C 61% 5.7 mph NW9.2 kmh NW 7.0 mph11.3 kmh 30.32 in1026.8 mb 0.00 in0.0 mm 0.00 in0.0 mm 0.00 in0.0 mm
06:19 PM 59.4°F15.2°C 46.4°F8.0°C 62% 5.0 mph NW8.0 kmh NW 7.0 mph11.3 kmh 30.32 in1026.8 mb 0.00 in0.0 mm 0.00 in0.0 mm 0.00 in0.0 mm
06:20 PM 59.3°F15.2°C 47.1°F8.4°C 64% 7.0 mph NW11.3 kmh NW 9.0 mph14.5 kmh 30.32 in1026.8 mb 0.00 in0.0 mm 0.00 in0.0 mm 0.00 in0.0 mm
06:21 PM 59.2°F15.1°C 47.4°F8.6°C 65% 7.0 mph NW11.3 kmh NW 9.0 mph14.5 kmh 30.32 in1026.8 mb 0.00 in0.0 mm 0.00 in0.0 mm 0.00 in0.0 mm
06:22 PM 59.1°F15.1°C 46.5°F8.1°C 63% 7.0 mph NW11.3 kmh NW 8.0 mph12.9 kmh 30.32 in1026.8 mb 0.00 in0.0 mm 0.00 in0.0 mm 0.00 in0.0 mm
06:23 PM 59.1°F15.1°C 46.9°F8.3°C 64% 7.3 mph NW11.7 kmh NW 8.0 mph12.9 kmh 30.32 in1026.8 mb 0.00 in0.0 mm 0.00 in0.0 mm 0.00 in0.0 mm
06:24 PM 59.0°F15.0°C 47.2°F8.4°C 65% 7.4 mph NW11.9 kmh NW 8.0 mph12.9 kmh 30.32 in1026.8 mb 0.00 in0.0 mm 0.00 in0.0 mm 0.00 in0.0 mm
06:25 PM 58.9°F14.9°C 47.6°F8.7°C 66% 9.0 mph NW14.5 kmh NW 10.0 mph16.1 kmh 30.32 in1026.8 mb 0.00 in0.0 mm 0.00 in0.0 mm 0.00 in0.0 mm
06:26 PM 58.9°F14.9°C 46.3°F7.9°C 63% 9.0 mph NW14.5 kmh NW 10.0 mph16.1 kmh 30.32 in1026.8 mb 0.00 in0.0 mm 0.00 in0.0 mm 0.00 in0.0 mm
06:27 PM 58.9°F14.9°C 46.7°F8.2°C 64% 8.0 mph WNW12.9 kmh WNW 9.0 mph14.5 kmh 30.32 in1026.8 mb 0.00 in0.0 mm 0.00 in0.0 mm 0.00 in0.0 mm
06:28 PM 58.9°F14.9°C 46.3°F7.9°C 63% 7.0 mph NW11.3 kmh NW 8.0 mph12.9 kmh 30.32 in1026.8 mb 0.00 in0.0 mm 0.00 in0.0 mm 0.00 in0.0 mm
06:29 PM 58.9°F14.9°C 46.3°F7.9°C 63% 7.0 mph WNW11.3 kmh WNW 8.0 mph12.9 kmh 30.32 in1026.8 mb 0.00 in0.0 mm 0.00 in0.0 mm 0.00 in0.0 mm
06:30 PM 59.1°F15.1°C 46.5°F8.1°C 63% 7.6 mph NW12.2 kmh NW 8.0 mph12.9 kmh 30.32 in1026.8 mb 0.00 in0.0 mm 0.00 in0.0 mm 0.00 in0.0 mm
06:31 PM 59.1°F15.1°C 47.3°F8.5°C 65% 8.0 mph WNW12.9 kmh WNW 8.0 mph12.9 kmh 30.32 in1026.8 mb 0.00 in0.0 mm 0.00 in0.0 mm 0.00 in0.0 mm
06:32 PM 59.0°F15.0°C 46.8°F8.2°C 64% 8.0 mph WNW12.9 kmh WNW 9.0 mph14.5 kmh 30.32 in1026.8 mb 0.00 in0.0 mm 0.00 in0.0 mm 0.00 in0.0 mm
06:33 PM 59.1°F15.1°C 46.9°F8.3°C 64% 8.2 mph NW13.2 kmh NW 9.0 mph14.5 kmh 30.32 in1026.8 mb 0.00 in0.0 mm 0.00 in0.0 mm 0.00 in0.0 mm
06:34 PM 59.1°F15.1°C 46.9°F8.3°C 64% 8.1 mph NW13.0 kmh NW 9.0 mph14.5 kmh 30.32 in1026.8 mb 0.00 in0.0 mm 0.00 in0.0 mm 0.00 in0.0 mm
06:35 PM 59.0°F15.0°C 47.2°F8.4°C 65% 8.0 mph NW12.9 kmh NW 9.0 mph14.5 kmh 30.32 in1026.8 mb 0.00 in0.0 mm 0.00 in0.0 mm 0.00 in0.0 mm
06:36 PM 58.9°F14.9°C 47.2°F8.4°C 65% 6.0 mph NW9.7 kmh NW 8.0 mph12.9 kmh 30.32 in1026.8 mb 0.00 in0.0 mm 0.00 in0.0 mm 0.00 in0.0 mm
06:37 PM 58.8°F14.9°C 47.5°F8.6°C 66% 6.0 mph NW9.7 kmh NW 6.0 mph9.7 kmh 30.32 in1026.8 mb 0.00 in0.0 mm 0.00 in0.0 mm 0.00 in0.0 mm
06:38 PM 58.7°F14.8°C 47.4°F8.6°C 66% 7.0 mph NW11.3 kmh NW 8.0 mph12.9 kmh 30.32 in1026.8 mb 0.00 in0.0 mm 0.00 in0.0 mm 0.00 in0.0 mm
06:39 PM 58.6°F14.8°C 47.3°F8.5°C 66% 5.0 mph NW8.0 kmh NW 6.0 mph9.7 kmh 30.32 in1026.8 mb 0.00 in0.0 mm 0.00 in0.0 mm 0.00 in0.0 mm
06:40 PM 58.6°F14.8°C 48.1°F8.9°C 68% 5.0 mph NW8.0 kmh NW 6.0 mph9.7 kmh 30.32 in1026.8 mb 0.00 in0.0 mm 0.00 in0.0 mm 0.00 in0.0 mm
06:41 PM 58.5°F14.7°C 48.0°F8.9°C 68% 5.0 mph NW8.0 kmh NW 6.0 mph9.7 kmh 30.32 in1026.8 mb 0.00 in0.0 mm 0.00 in0.0 mm 0.00 in0.0 mm
06:42 PM 58.4°F14.7°C 47.9°F8.8°C 68% 5.0 mph NW8.0 kmh NW 6.0 mph9.7 kmh 30.32 in1026.8 mb 0.00 in0.0 mm 0.00 in0.0 mm 0.00 in0.0 mm
06:43 PM 58.3°F14.6°C 48.2°F9.0°C 69% 4.6 mph NW7.4 kmh NW 5.0 mph8.0 kmh 30.32 in1026.8 mb 0.00 in0.0 mm 0.00 in0.0 mm 0.00 in0.0 mm
06:44 PM 58.3°F14.6°C 48.2°F9.0°C 69% 4.1 mph NW6.6 kmh NW 5.0 mph8.0 kmh 30.32 in1026.8 mb 0.00 in0.0 mm 0.00 in0.0 mm 0.00 in0.0 mm
06:45 PM 58.3°F14.6°C 48.2°F9.0°C 69% 4.0 mph NW6.4 kmh NW 5.0 mph8.0 kmh 30.32 in1026.8 mb 0.00 in0.0 mm 0.00 in0.0 mm 0.00 in0.0 mm
06:46 PM 58.3°F14.6°C 47.8°F8.8°C 68% 4.0 mph NW6.4 kmh NW 4.0 mph6.4 kmh 30.32 in1026.8 mb 0.00 in0.0 mm 0.00 in0.0 mm 0.00 in0.0 mm
06:47 PM 58.4°F14.7°C 47.9°F8.8°C 68% 4.0 mph NW6.4 kmh NW 5.0 mph8.0 kmh 30.32 in1026.8 mb 0.00 in0.0 mm 0.00 in0.0 mm 0.00 in0.0 mm
06:48 PM 58.4°F14.7°C 47.9°F8.8°C 68% 3.0 mph NW4.8 kmh NW 4.0 mph6.4 kmh 30.32 in1026.8 mb 0.00 in0.0 mm 0.00 in0.0 mm 0.00 in0.0 mm
06:49 PM 58.5°F14.7°C 48.0°F8.9°C 68% 3.0 mph NW4.8 kmh NW 4.0 mph6.4 kmh 30.32 in1026.8 mb 0.00 in0.0 mm 0.00 in0.0 mm 0.00 in0.0 mm
06:50 PM 58.6°F14.8°C 48.5°F9.2°C 69% 3.0 mph NW4.8 kmh NW 4.0 mph6.4 kmh 30.32 in1026.8 mb 0.00 in0.0 mm 0.00 in0.0 mm 0.00 in0.0 mm
06:51 PM 58.6°F14.8°C 48.8°F9.3°C 70% 3.0 mph NW4.8 kmh NW 4.0 mph6.4 kmh 30.32 in1026.8 mb 0.00 in0.0 mm 0.00 in0.0 mm 0.00 in0.0 mm
06:52 PM 58.7°F14.8°C 48.9°F9.4°C 70% 4.0 mph N6.4 kmh N 4.0 mph6.4 kmh 30.32 in1026.8 mb 0.00 in0.0 mm 0.00 in0.0 mm 0.00 in0.0 mm
06:53 PM 58.7°F14.8°C 48.9°F9.4°C 70% 4.1 mph N6.6 kmh N 5.0 mph8.0 kmh 30.32 in1026.8 mb 0.00 in0.0 mm 0.00 in0.0 mm 0.00 in0.0 mm
06:54 PM 58.7°F14.8°C 48.9°F9.4°C 70% 4.0 mph NNE6.4 kmh NNE 5.0 mph8.0 kmh 30.32 in1026.8 mb 0.00 in0.0 mm 0.00 in0.0 mm 0.00 in0.0 mm
06:55 PM 58.6°F14.8°C 48.5°F9.2°C 69% 4.0 mph NNE6.4 kmh NNE 5.0 mph8.0 kmh 30.32 in1026.8 mb 0.00 in0.0 mm 0.00 in0.0 mm 0.00 in0.0 mm
06:56 PM 58.6°F14.8°C 48.8°F9.3°C 70% 4.0 mph NNE6.4 kmh NNE 5.0 mph8.0 kmh 30.32 in1026.8 mb 0.00 in0.0 mm 0.00 in0.0 mm 0.00 in0.0 mm
06:57 PM 58.6°F14.8°C 48.5°F9.2°C 69% 4.0 mph NNE6.4 kmh NNE 5.0 mph8.0 kmh 30.32 in1026.8 mb 0.00 in0.0 mm 0.00 in0.0 mm 0.00 in0.0 mm
06:58 PM 58.6°F14.8°C 48.5°F9.2°C 69% 4.0 mph NNE6.4 kmh NNE 5.0 mph8.0 kmh 30.32 in1026.8 mb 0.00 in0.0 mm 0.00 in0.0 mm 0.00 in0.0 mm
06:59 PM 58.4°F14.7°C 48.7°F9.3°C 70% 4.4 mph NNE7.1 kmh NNE 5.0 mph8.0 kmh 30.32 in1026.8 mb 0.00 in0.0 mm 0.00 in0.0 mm 0.00 in0.0 mm
07:00 PM 58.3°F14.6°C 48.6°F9.2°C 70% 4.7 mph NNE7.6 kmh NNE 5.0 mph8.0 kmh 30.32 in1026.8 mb 0.00 in0.0 mm 0.00 in0.0 mm 0.00 in0.0 mm
07:01 PM 58.3°F14.6°C 48.6°F9.2°C 70% 4.8 mph N7.7 kmh N 7.0 mph11.3 kmh 30.32 in1026.8 mb 0.00 in0.0 mm 0.00 in0.0 mm 0.00 in0.0 mm
07:02 PM 58.2°F14.6°C 48.5°F9.2°C 70% 4.0 mph N6.4 kmh N 7.0 mph11.3 kmh 30.32 in1026.8 mb 0.00 in0.0 mm 0.00 in0.0 mm 0.00 in0.0 mm
07:03 PM 58.1°F14.5°C 48.4°F9.1°C 70% 3.0 mph 4.8 kmh 4.0 mph6.4 kmh 30.32 in1026.8 mb 0.00 in0.0 mm 0.00 in0.0 mm 0.00 in0.0 mm
07:04 PM 58.1°F14.5°C 48.4°F9.1°C 70% 3.0 mph 4.8 kmh 4.0 mph6.4 kmh 30.32 in1026.8 mb 0.00 in0.0 mm 0.00 in0.0 mm 0.00 in0.0 mm
07:05 PM 58.0°F14.4°C 48.6°F9.2°C 71% 3.4 mph N5.5 kmh N 4.0 mph6.4 kmh 30.32 in1026.8 mb 0.00 in0.0 mm 0.00 in0.0 mm 0.00 in0.0 mm
07:06 PM 58.0°F14.4°C 48.6°F9.2°C 71% 4.0 mph 6.4 kmh 5.0 mph8.0 kmh 30.32 in1026.8 mb 0.00 in0.0 mm 0.00 in0.0 mm 0.00 in0.0 mm
07:07 PM 58.0°F14.4°C 48.6°F9.2°C 71% 4.0 mph 6.4 kmh 5.0 mph8.0 kmh 30.32 in1026.8 mb 0.00 in0.0 mm 0.00 in0.0 mm 0.00 in0.0 mm
07:08 PM 57.9°F14.4°C 48.6°F9.2°C 71% 3.0 mph 4.8 kmh 4.0 mph6.4 kmh 30.32 in1026.8 mb 0.00 in0.0 mm 0.00 in0.0 mm 0.00 in0.0 mm
07:09 PM 57.8°F14.3°C 48.5°F9.2°C 71% 4.2 mph N6.8 kmh N 6.0 mph9.7 kmh 30.32 in1026.8 mb 0.00 in0.0 mm 0.00 in0.0 mm 0.00 in0.0 mm
07:10 PM 57.8°F14.3°C 48.5°F9.2°C 71% 4.0 mph 6.4 kmh 6.0 mph9.7 kmh 30.32 in1026.8 mb 0.00 in0.0 mm 0.00 in0.0 mm 0.00 in0.0 mm
07:11 PM 57.7°F14.3°C 48.4°F9.1°C 71% 5.0 mph 8.0 kmh 6.0 mph9.7 kmh 30.32 in1026.8 mb 0.00 in0.0 mm 0.00 in0.0 mm 0.00 in0.0 mm
07:12 PM 57.6°F14.2°C 48.3°F9.1°C 71% 5.0 mph 8.0 kmh 6.0 mph9.7 kmh 30.32 in1026.8 mb 0.00 in0.0 mm 0.00 in0.0 mm 0.00 in0.0 mm
07:13 PM 57.5°F14.2°C 48.2°F9.0°C 71% 5.0 mph 8.0 kmh 6.0 mph9.7 kmh 30.32 in1026.8 mb 0.00 in0.0 mm 0.00 in0.0 mm 0.00 in0.0 mm
07:14 PM 57.5°F14.2°C 48.2°F9.0°C 71% 5.1 mph N8.2 kmh N 6.0 mph9.7 kmh 30.32 in1026.8 mb 0.00 in0.0 mm 0.00 in0.0 mm 0.00 in0.0 mm
07:15 PM 57.5°F14.2°C 48.5°F9.2°C 72% 4.5 mph N7.2 kmh N 6.0 mph9.7 kmh 30.32 in1026.8 mb 0.00 in0.0 mm 0.00 in0.0 mm 0.00 in0.0 mm
07:16 PM 57.5°F14.2°C 48.5°F9.2°C 72% 4.0 mph 6.4 kmh 5.0 mph8.0 kmh 30.32 in1026.8 mb 0.00 in0.0 mm 0.00 in0.0 mm 0.00 in0.0 mm
07:17 PM 57.4°F14.1°C 48.4°F9.1°C 72% 5.0 mph 8.0 kmh 6.0 mph9.7 kmh 30.32 in1026.8 mb 0.00 in0.0 mm 0.00 in0.0 mm 0.00 in0.0 mm
07:18 PM 57.4°F14.1°C 48.4°F9.1°C 72% 5.0 mph 8.0 kmh 6.0 mph9.7 kmh 30.32 in1026.8 mb 0.00 in0.0 mm 0.00 in0.0 mm 0.00 in0.0 mm
07:19 PM 57.3°F14.1°C 48.4°F9.1°C 72% 4.7 mph N7.6 kmh N 5.0 mph8.0 kmh 30.32 in1026.8 mb 0.00 in0.0 mm 0.00 in0.0 mm 0.00 in0.0 mm
07:20 PM 57.3°F14.1°C 48.4°F9.1°C 72% 3.7 mph N6.0 kmh N 5.0 mph8.0 kmh 30.32 in1026.8 mb 0.00 in0.0 mm 0.00 in0.0 mm 0.00 in0.0 mm
07:21 PM 57.2°F14.0°C 48.3°F9.1°C 72% 4.6 mph N7.4 kmh N 5.0 mph8.0 kmh 30.32 in1026.8 mb 0.00 in0.0 mm 0.00 in0.0 mm 0.00 in0.0 mm
07:22 PM 57.1°F13.9°C 48.2°F9.0°C 72% 5.0 mph 8.0 kmh 6.0 mph9.7 kmh 30.32 in1026.8 mb 0.00 in0.0 mm 0.00 in0.0 mm 0.00 in0.0 mm
07:23 PM 57.0°F13.9°C 48.1°F8.9°C 72% 6.0 mph 9.7 kmh 8.0 mph12.9 kmh 30.32 in1026.8 mb 0.00 in0.0 mm 0.00 in0.0 mm 0.00 in0.0 mm
07:24 PM 56.9°F13.8°C 47.6°F8.7°C 71% 6.0 mph N9.7 kmh N 8.0 mph12.9 kmh 30.32 in1026.8 mb 0.00 in0.0 mm 0.00 in0.0 mm 0.00 in0.0 mm
07:25 PM 56.9°F13.8°C 47.6°F8.7°C 71% 6.0 mph 9.7 kmh 8.0 mph12.9 kmh 30.32 in1026.8 mb 0.00 in0.0 mm 0.00 in0.0 mm 0.00 in0.0 mm
07:26 PM 56.9°F13.8°C 48.0°F8.9°C 72% 6.0 mph 9.7 kmh 8.0 mph12.9 kmh 30.32 in1026.8 mb 0.00 in0.0 mm 0.00 in0.0 mm 0.00 in0.0 mm
07:27 PM 56.9°F13.8°C 48.0°F8.9°C 72% 4.9 mph N7.9 kmh N 6.0 mph9.7 kmh 30.32 in1026.8 mb 0.00 in0.0 mm 0.00 in0.0 mm 0.00 in0.0 mm
07:28 PM 56.8°F13.8°C 47.9°F8.8°C 72% 5.0 mph 8.0 kmh 6.0 mph9.7 kmh 30.32 in1026.8 mb 0.00 in0.0 mm 0.00 in0.0 mm 0.00 in0.0 mm
07:29 PM 56.9°F13.8°C 48.3°F9.1°C 73% 5.0 mph 8.0 kmh 6.0 mph9.7 kmh 30.32 in1026.8 mb 0.00 in0.0 mm 0.00 in0.0 mm 0.00 in0.0 mm
07:30 PM 56.8°F13.8°C 48.2°F9.0°C 73% 5.0 mph 8.0 kmh 6.0 mph9.7 kmh 30.32 in1026.8 mb 0.00 in0.0 mm 0.00 in0.0 mm 0.00 in0.0 mm
07:31 PM 56.8°F13.8°C 48.2°F9.0°C 73% 5.0 mph 8.0 kmh 6.0 mph9.7 kmh 30.32 in1026.8 mb 0.00 in0.0 mm 0.00 in0.0 mm 0.00 in0.0 mm
07:32 PM 56.7°F13.7°C 48.1°F8.9°C 73% 5.0 mph 8.0 kmh 6.0 mph9.7 kmh 30.32 in1026.8 mb 0.00 in0.0 mm 0.00 in0.0 mm 0.00 in0.0 mm
07:33 PM 56.7°F13.7°C 48.1°F8.9°C 73% 4.0 mph 6.4 kmh 5.0 mph8.0 kmh 30.32 in1026.8 mb 0.00 in0.0 mm 0.00 in0.0 mm 0.00 in0.0 mm
07:34 PM 56.6°F13.7°C 48.0°F8.9°C 73% 4.0 mph 6.4 kmh 6.0 mph9.7 kmh 30.32 in1026.8 mb 0.00 in0.0 mm 0.00 in0.0 mm 0.00 in0.0 mm
07:35 PM 56.6°F13.7°C 48.0°F